<?xml version='1.0' encoding='UTF-8'?><gpx version="1.1" creator="JPX - https://github.com/jenetics/jpx" xmlns="http://www.topografix.com/GPX/1/1"><trk><trkseg><trkpt lat="40.01760816946509" lon="19.89186348883538"><ele>227.33333333333331</ele><time>2026-04-27T16:54:51Z</time></trkpt><trkpt lat="40.01745159055162" lon="19.891903005841243"><ele>223.66666666666666</ele><time>2026-04-27T16:54:52Z</time></trkpt><trkpt lat="40.01729156440974" lon="19.891950679619022"><ele>220.0</ele><time>2026-04-27T16:54:53Z</time></trkpt><trkpt lat="40.017138775341266" lon="19.89200133858595"><ele>220.0</ele><time>2026-04-27T16:54:54Z</time></trkpt><trkpt lat="40.01700927337573" lon="19.89205489927473"><ele>220.0</ele><time>2026-04-27T16:54:55Z</time></trkpt><trkpt lat="40.016893963639596" lon="19.89211242370163"><ele>220.0</ele><time>2026-04-27T16:54:56Z</time></trkpt><trkpt lat="40.01677987328382" lon="19.892170080568082"><ele>220.0</ele><time>2026-04-27T16:54:57Z</time></trkpt><trkpt lat="40.0166714479455" lon="19.892200441597055"><ele>215.75</ele><time>2026-04-27T16:54:58Z</time></trkpt><trkpt lat="40.016557084679" lon="19.892252546845175"><ele>211.5</ele><time>2026-04-27T16:54:59Z</time></trkpt><trkpt lat="40.01643484063076" lon="19.892328230517972"><ele>207.25</ele><time>2026-04-27T16:55:00Z</time></trkpt><trkpt lat="40.01631790577465" lon="19.89238479142877"><ele>203.0</ele><time>2026-04-27T16:55:01Z</time></trkpt><trkpt lat="40.01623599689956" lon="19.892460458504534"><ele>203.0</ele><time>2026-04-27T16:55:02Z</time></trkpt><trkpt lat="40.016179301036225" lon="19.892559836033556"><ele>203.0</ele><time>2026-04-27T16:55:03Z</time></trkpt><trkpt lat="40.01612864527303" lon="19.892698811773823"><ele>203.0</ele><time>2026-04-27T16:55:04Z</time></trkpt><trkpt lat="40.01607631431108" lon="19.89288207237278"><ele>203.0</ele><time>2026-04-27T16:55:05Z</time></trkpt><trkpt lat="40.01601654584532" lon="19.89310306546742"><ele>203.66666666666669</ele><time>2026-04-27T16:55:06Z</time></trkpt><trkpt lat="40.01594988500948" lon="19.893331603057927"><ele>204.33333333333331</ele><time>2026-04-27T16:55:07Z</time></trkpt><trkpt lat="40.015890385807204" lon="19.89352696681121"><ele>205.0</ele><time>2026-04-27T16:55:08Z</time></trkpt><trkpt lat="40.01583294743504" lon="19.89369821931932"><ele>199.75</ele><time>2026-04-27T16:55:09Z</time></trkpt><trkpt lat="40.01576945224898" lon="19.893858108256026"><ele>194.5</ele><time>2026-04-27T16:55:10Z</time></trkpt><trkpt lat="40.01570828800691" lon="19.894010722489437"><ele>189.25</ele><time>2026-04-27T16:55:11Z</time></trkpt><trkpt lat="40.01565045843524" lon="19.89413075792567"><ele>184.0</ele><time>2026-04-27T16:55:12Z</time></trkpt><trkpt lat="40.01558819295472" lon="19.894233054117283"><ele>184.25</ele><time>2026-04-27T16:55:13Z</time></trkpt><trkpt lat="40.01550389066919" lon="19.894314584971607"><ele>184.5</ele><time>2026-04-27T16:55:14Z</time></trkpt><trkpt lat="40.015381493563936" lon="19.894346106628536"><ele>184.75</ele><time>2026-04-27T16:55:15Z</time></trkpt><trkpt lat="40.01523053338614" lon="19.89433926367388"><ele>185.0</ele><time>2026-04-27T16:55:15.999Z</time></trkpt><trkpt lat="40.01506055070164" lon="19.8943243979961"><ele>180.33333333333331</ele><time>2026-04-27T16:55:16.999Z</time></trkpt><trkpt lat="40.014895732969066" lon="19.89435327402073"><ele>175.66666666666666</ele><time>2026-04-27T16:55:17.999Z</time></trkpt><trkpt lat="40.01474970342513" lon="19.89441869398542"><ele>171.0</ele><time>2026-04-27T16:55:18.999Z</time></trkpt><trkpt lat="40.014615794613334" lon="19.894507619129577"><ele>171.0</ele><time>2026-04-27T16:55:19.999Z</time></trkpt><trkpt lat="40.014504427304914" lon="19.894613972956353"><ele>171.0</ele><time>2026-04-27T16:55:20.999Z</time></trkpt><trkpt lat="40.01441157300675" lon="19.894712704839712"><ele>171.0</ele><time>2026-04-27T16:55:21.999Z</time></trkpt><trkpt lat="40.01434114628196" lon="19.8947994848058"><ele>171.0</ele><time>2026-04-27T16:55:22.999Z</time></trkpt><trkpt lat="40.014299085530425" lon="19.89489925286828"><ele>171.0</ele><time>2026-04-27T16:55:23.999Z</time></trkpt><trkpt lat="40.014300538703004" lon="19.895021119605097"><ele>167.75</ele><time>2026-04-27T16:55:24.999Z</time></trkpt><trkpt lat="40.014342913484334" lon="19.89514726642877"><ele>164.5</ele><time>2026-04-27T16:55:25.999Z</time></trkpt><trkpt lat="40.01442902663537" lon="19.89526020045641"><ele>161.25</ele><time>2026-04-27T16:55:26.999Z</time></trkpt><trkpt lat="40.01454806937448" lon="19.895334625993186"><ele>158.0</ele><time>2026-04-27T16:55:27.999Z</time></trkpt><trkpt lat="40.014698988300474" lon="19.895372799376208"><ele>158.0</ele><time>2026-04-27T16:55:28.999Z</time></trkpt><trkpt lat="40.014872223760904" lon="19.895400275471033"><ele>158.0</ele><time>2026-04-27T16:55:29.999Z</time></trkpt><trkpt lat="40.01501863543426" lon="19.89545526261968"><ele>158.0</ele><time>2026-04-27T16:55:30.999Z</time></trkpt><trkpt lat="40.01513550234003" lon="19.895536779923777"><ele>161.60000000000002</ele><time>2026-04-27T16:55:31.999Z</time></trkpt><trkpt lat="40.01523037537471" lon="19.89562399691286"><ele>165.20000000000002</ele><time>2026-04-27T16:55:32.999Z</time></trkpt><trkpt lat="40.01529860456478" lon="19.89572177607064"><ele>168.8</ele><time>2026-04-27T16:55:33.999Z</time></trkpt><trkpt lat="40.015335746819964" lon="19.895843247417083"><ele>172.4</ele><time>2026-04-27T16:55:34.999Z</time></trkpt><trkpt lat="40.01532921008009" lon="19.89598849352702"><ele>176.0</ele><time>2026-04-27T16:55:35.999Z</time></trkpt><trkpt lat="40.01526247504651" lon="19.89615159188285"><ele>176.0</ele><time>2026-04-27T16:55:36.999Z</time></trkpt><trkpt lat="40.015174256548384" lon="19.896354989341024"><ele>176.0</ele><time>2026-04-27T16:55:37.999Z</time></trkpt><trkpt lat="40.01507841478255" lon="19.896611309465992"><ele>176.0</ele><time>2026-04-27T16:55:38.999Z</time></trkpt><trkpt lat="40.01498423890134" lon="19.896823441538597"><ele>169.33333333333331</ele><time>2026-04-27T16:55:39.999Z</time></trkpt><trkpt lat="40.01490466820731" lon="19.897000986402745"><ele>162.66666666666666</ele><time>2026-04-27T16:55:40.999Z</time></trkpt><trkpt lat="40.01480715003708" lon="19.89717941041069"><ele>156.0</ele><time>2026-04-27T16:55:41.999Z</time></trkpt><trkpt lat="40.01466037699741" lon="19.897381179397776"><ele>156.0</ele><time>2026-04-27T16:55:42.999Z</time></trkpt><trkpt lat="40.01449532594414" lon="19.897578175039044"><ele>156.0</ele><time>2026-04-27T16:55:43.999Z</time></trkpt><trkpt lat="40.01434277307374" lon="19.897747913870575"><ele>156.0</ele><time>2026-04-27T16:55:44.999Z</time></trkpt><trkpt lat="40.01418941238603" lon="19.89791814420835"><ele>153.0</ele><time>2026-04-27T16:55:45.999Z</time></trkpt><trkpt lat="40.01403704976493" lon="19.89807580627909"><ele>150.0</ele><time>2026-04-27T16:55:46.999Z</time></trkpt><trkpt lat="40.01392518385076" lon="19.89827924205427"><ele>147.0</ele><time>2026-04-27T16:55:47.999Z</time></trkpt><trkpt lat="40.013782734411876" lon="19.89846412827539"><ele>144.33333333333334</ele><time>2026-04-27T16:55:48.999Z</time></trkpt><trkpt lat="40.013588502998694" lon="19.898597397283936"><ele>141.66666666666669</ele><time>2026-04-27T16:55:49.999Z</time></trkpt><trkpt lat="40.01341382648715" lon="19.898738317833885"><ele>139.0</ele><time>2026-04-27T16:55:50.999Z</time></trkpt><trkpt lat="40.01329112528648" lon="19.898890597427076"><ele>139.0</ele><time>2026-04-27T16:55:51.999Z</time></trkpt><trkpt lat="40.01316921111256" lon="19.89901078605465"><ele>139.0</ele><time>2026-04-27T16:55:52.999Z</time></trkpt><trkpt lat="40.013066651846025" lon="19.89912149949692"><ele>139.0</ele><time>2026-04-27T16:55:53.999Z</time></trkpt><trkpt lat="40.01298715478489" lon="19.899207744662174"><ele>139.0</ele><time>2026-04-27T16:55:54.999Z</time></trkpt><trkpt lat="40.01292092988851" lon="19.89926309963483"><ele>139.0</ele><time>2026-04-27T16:55:55.999Z</time></trkpt><trkpt lat="40.012853756990935" lon="19.899265043998685"><ele>139.0</ele><time>2026-04-27T16:55:56.999Z</time></trkpt><trkpt lat="40.01280771301143" lon="19.899196437771522"><ele>139.0</ele><time>2026-04-27T16:55:57.999Z</time></trkpt><trkpt lat="40.01281361698937" lon="19.899089990497476"><ele>139.0</ele><time>2026-04-27T16:55:58.999Z</time></trkpt><trkpt lat="40.012871507414864" lon="19.898965790185958"><ele>139.0</ele><time>2026-04-27T16:55:59.999Z</time></trkpt><trkpt lat="40.01300225425754" lon="19.898851948680893"><ele>139.0</ele><time>2026-04-27T16:56:00.999Z</time></trkpt><trkpt lat="40.01315610709215" lon="19.898674885596368"><ele>139.0</ele><time>2026-04-27T16:56:01.999Z</time></trkpt><trkpt lat="40.013326550007214" lon="19.89847372381526"><ele>139.0</ele><time>2026-04-27T16:56:02.999Z</time></trkpt><trkpt lat="40.013464671659236" lon="19.898244828128625"><ele>141.66666666666669</ele><time>2026-04-27T16:56:03.999Z</time></trkpt><trkpt lat="40.01357157162349" lon="19.898016909938796"><ele>144.33333333333334</ele><time>2026-04-27T16:56:04.999Z</time></trkpt><trkpt lat="40.01365531610361" lon="19.897800365408678"><ele>147.0</ele><time>2026-04-27T16:56:05.999Z</time></trkpt><trkpt lat="40.013718779541314" lon="19.89760909952008"><ele>144.33333333333334</ele><time>2026-04-27T16:56:06.999Z</time></trkpt><trkpt lat="40.01376573324852" lon="19.89746392851216"><ele>141.66666666666666</ele><time>2026-04-27T16:56:07.999Z</time></trkpt><trkpt lat="40.01380848536042" lon="19.897353476564607"><ele>139.0</ele><time>2026-04-27T16:56:08.999Z</time></trkpt><trkpt lat="40.01382264665467" lon="19.89726380501658"><ele>136.33333333333331</ele><time>2026-04-27T16:56:09.999Z</time></trkpt><trkpt lat="40.01378891692314" lon="19.897188471085755"><ele>133.66666666666666</ele><time>2026-04-27T16:56:10.999Z</time></trkpt><trkpt lat="40.01372114108787" lon="19.8971536413646"><ele>131.0</ele><time>2026-04-27T16:56:11.999Z</time></trkpt><trkpt lat="40.01363581367174" lon="19.897189197869263"><ele>131.0</ele><time>2026-04-27T16:56:12.999Z</time></trkpt><trkpt lat="40.01355075444031" lon="19.89729202338074"><ele>131.0</ele><time>2026-04-27T16:56:13.999Z</time></trkpt><trkpt lat="40.013465859541036" lon="19.897461927133023"><ele>131.0</ele><time>2026-04-27T16:56:14.999Z</time></trkpt><trkpt lat="40.013379168359734" lon="19.89768001699734"><ele>129.33333333333331</ele><time>2026-04-27T16:56:15.999Z</time></trkpt><trkpt lat="40.013283449720596" lon="19.897859025164898"><ele>127.66666666666666</ele><time>2026-04-27T16:56:16.999Z</time></trkpt><trkpt lat="40.013157793912654" lon="19.897992046608305"><ele>126.0</ele><time>2026-04-27T16:56:17.999Z</time></trkpt><trkpt lat="40.012988575703304" lon="19.89810856634392"><ele>126.0</ele><time>2026-04-27T16:56:18.999Z</time></trkpt><trkpt lat="40.01280878354351" lon="19.89820911412103"><ele>126.0</ele><time>2026-04-27T16:56:19.999Z</time></trkpt><trkpt lat="40.01264007733954" lon="19.89827406023907"><ele>126.0</ele><time>2026-04-27T16:56:20.999Z</time></trkpt><trkpt lat="40.01248934048359" lon="19.898357062111096"><ele>121.66666666666666</ele><time>2026-04-27T16:56:21.999Z</time></trkpt><trkpt lat="40.01235667456906" lon="19.898467915807135"><ele>117.33333333333333</ele><time>2026-04-27T16:56:22.999Z</time></trkpt><trkpt lat="40.012235745615335" lon="19.89860923207843"><ele>113.0</ele><time>2026-04-27T16:56:23.999Z</time></trkpt><trkpt lat="40.012124274556264" lon="19.898775207724285"><ele>113.0</ele><time>2026-04-27T16:56:24.999Z</time></trkpt><trkpt lat="40.01203288747333" lon="19.898973132270015"><ele>113.0</ele><time>2026-04-27T16:56:25.999Z</time></trkpt><trkpt lat="40.01196200711041" lon="19.89915346614223"><ele>113.0</ele><time>2026-04-27T16:56:27Z</time></trkpt><trkpt lat="40.01190251067851" lon="19.899321008197383"><ele>112.66666666666666</ele><time>2026-04-27T16:56:28Z</time></trkpt><trkpt lat="40.01183489982155" lon="19.899498838563254"><ele>112.33333333333334</ele><time>2026-04-27T16:56:29Z</time></trkpt><trkpt lat="40.01179689381504" lon="19.8997080111883"><ele>112.0</ele><time>2026-04-27T16:56:30Z</time></trkpt><trkpt lat="40.01179649084984" lon="19.899904086087396"><ele>112.0</ele><time>2026-04-27T16:56:31Z</time></trkpt><trkpt lat="40.01179483836381" lon="19.90006361347254"><ele>111.99999999999999</ele><time>2026-04-27T16:56:32Z</time></trkpt><trkpt lat="40.011793426613785" lon="19.90019191532764"><ele>111.99999999999999</ele><time>2026-04-27T16:56:33Z</time></trkpt><trkpt lat="40.01176565826784" lon="19.900278240282372"><ele>112.0</ele><time>2026-04-27T16:56:34Z</time></trkpt><trkpt lat="40.011702139669225" lon="19.90031953128282"><ele>112.0</ele><time>2026-04-27T16:56:35Z</time></trkpt><trkpt lat="40.011619125718035" lon="19.900284120608372"><ele>106.5</ele><time>2026-04-27T16:56:36Z</time></trkpt><trkpt lat="40.011578245285826" lon="19.900200871355906"><ele>101.0</ele><time>2026-04-27T16:56:37Z</time></trkpt><trkpt lat="40.01157119505606" lon="19.90006497822843"><ele>95.5</ele><time>2026-04-27T16:56:38Z</time></trkpt><trkpt lat="40.011568758655" lon="19.899860121882327"><ele>90.0</ele><time>2026-04-27T16:56:39Z</time></trkpt><trkpt lat="40.011569499558696" lon="19.899608829105926"><ele>90.0</ele><time>2026-04-27T16:56:40Z</time></trkpt><trkpt lat="40.01150612205723" lon="19.899342141960204"><ele>90.0</ele><time>2026-04-27T16:56:41Z</time></trkpt><trkpt lat="40.01144679159873" lon="19.899132950003082"><ele>90.0</ele><time>2026-04-27T16:56:42Z</time></trkpt><trkpt lat="40.01140412188625" lon="19.898942599304203"><ele>90.8</ele><time>2026-04-27T16:56:43Z</time></trkpt><trkpt lat="40.01136573382186" lon="19.89878487600145"><ele>91.6</ele><time>2026-04-27T16:56:44Z</time></trkpt><trkpt lat="40.011322337482994" lon="19.89866601153613"><ele>92.4</ele><time>2026-04-27T16:56:45Z</time></trkpt><trkpt lat="40.0112588964043" lon="19.89859935324921"><ele>93.2</ele><time>2026-04-27T16:56:46Z</time></trkpt><trkpt lat="40.011180085147636" lon="19.898599643756263"><ele>94.0</ele><time>2026-04-27T16:56:47Z</time></trkpt><trkpt lat="40.01112189268635" lon="19.898692850064496"><ele>94.0</ele><time>2026-04-27T16:56:48Z</time></trkpt><trkpt lat="40.01109353711358" lon="19.898800800869793"><ele>94.0</ele><time>2026-04-27T16:56:49Z</time></trkpt><trkpt lat="40.01109777883379" lon="19.898952860774852"><ele>94.0</ele><time>2026-04-27T16:56:50Z</time></trkpt><trkpt lat="40.01112440093379" lon="19.899160653610647"><ele>94.0</ele><time>2026-04-27T16:56:51Z</time></trkpt><trkpt lat="40.01111414781809" lon="19.899435250514728"><ele>92.0</ele><time>2026-04-27T16:56:52Z</time></trkpt><trkpt lat="40.01111421718395" lon="19.899744192209596"><ele>90.0</ele><time>2026-04-27T16:56:53Z</time></trkpt><trkpt lat="40.011106928771596" lon="19.900023635967152"><ele>88.5</ele><time>2026-04-27T16:56:54Z</time></trkpt><trkpt lat="40.01106967155073" lon="19.900316758235512"><ele>87.0</ele><time>2026-04-27T16:56:55Z</time></trkpt><trkpt lat="40.01101636847358" lon="19.900624674974395"><ele>87.0</ele><time>2026-04-27T16:56:56Z</time></trkpt><trkpt lat="40.010952250939425" lon="19.900909440445947"><ele>87.0</ele><time>2026-04-27T16:56:57Z</time></trkpt><trkpt lat="40.01090288221335" lon="19.90114651415037"><ele>87.0</ele><time>2026-04-27T16:56:58Z</time></trkpt><trkpt lat="40.01087036980766" lon="19.901366429955715"><ele>86.5</ele><time>2026-04-27T16:56:59Z</time></trkpt><trkpt lat="40.01083952119262" lon="19.90156090360141"><ele>86.0</ele><time>2026-04-27T16:57:00Z</time></trkpt><trkpt lat="40.01080896940954" lon="19.90172599318148"><ele>85.5</ele><time>2026-04-27T16:57:01Z</time></trkpt><trkpt lat="40.010803438258066" lon="19.901869011126486"><ele>85.0</ele><time>2026-04-27T16:57:02Z</time></trkpt><trkpt lat="40.01084897596073" lon="19.902015534405113"><ele>85.0</ele><time>2026-04-27T16:57:03Z</time></trkpt><trkpt lat="40.01093859795928" lon="19.902179600689298"><ele>85.0</ele><time>2026-04-27T16:57:04Z</time></trkpt><trkpt lat="40.01101068622923" lon="19.902320797503155"><ele>85.0</ele><time>2026-04-27T16:57:05Z</time></trkpt><trkpt lat="40.01102984711129" lon="19.90243319079196"><ele>85.0</ele><time>2026-04-27T16:57:06Z</time></trkpt><trkpt lat="40.010979908082675" lon="19.902524969658344"><ele>88.5</ele><time>2026-04-27T16:57:07Z</time></trkpt><trkpt lat="40.01088382491773" lon="19.90258331035738"><ele>92.0</ele><time>2026-04-27T16:57:08Z</time></trkpt><trkpt lat="40.01074616834857" lon="19.9025989061322"><ele>95.5</ele><time>2026-04-27T16:57:09Z</time></trkpt><trkpt lat="40.01054251234279" lon="19.902604234650113"><ele>99.0</ele><time>2026-04-27T16:57:10Z</time></trkpt><trkpt lat="40.010322785145135" lon="19.902596823930605"><ele>90.0</ele><time>2026-04-27T16:57:11Z</time></trkpt><trkpt lat="40.01012517460195" lon="19.902555976453336"><ele>81.0</ele><time>2026-04-27T16:57:11.999Z</time></trkpt><trkpt lat="40.009968314961476" lon="19.902483533194918"><ele>72.0</ele><time>2026-04-27T16:57:12.999Z</time></trkpt><trkpt lat="40.00984500562886" lon="19.902414520299658"><ele>71.4</ele><time>2026-04-27T16:57:13.999Z</time></trkpt><trkpt lat="40.009730373299874" lon="19.90237537214798"><ele>70.80000000000001</ele><time>2026-04-27T16:57:14.999Z</time></trkpt><trkpt lat="40.00961999247106" lon="19.902425013920908"><ele>70.2</ele><time>2026-04-27T16:57:15.999Z</time></trkpt><trkpt lat="40.00954281965291" lon="19.90248843355324"><ele>69.60000000000001</ele><time>2026-04-27T16:57:16.999Z</time></trkpt><trkpt lat="40.00946643001057" lon="19.90259342355203"><ele>69.0</ele><time>2026-04-27T16:57:17.999Z</time></trkpt><trkpt lat="40.0093640293108" lon="19.902757755653095"><ele>69.0</ele><time>2026-04-27T16:57:18.999Z</time></trkpt><trkpt lat="40.00925012626519" lon="19.902914136875214"><ele>69.0</ele><time>2026-04-27T16:57:19.999Z</time></trkpt><trkpt lat="40.00913238149222" lon="19.90306251097465"><ele>69.0</ele><time>2026-04-27T16:57:20.999Z</time></trkpt><trkpt lat="40.00902276826716" lon="19.903200802999862"><ele>65.33333333333333</ele><time>2026-04-27T16:57:21.999Z</time></trkpt><trkpt lat="40.008896138618326" lon="19.903323326980768"><ele>61.666666666666664</ele><time>2026-04-27T16:57:22.999Z</time></trkpt><trkpt lat="40.00877869884323" lon="19.903456337988015"><ele>58.0</ele><time>2026-04-27T16:57:23.999Z</time></trkpt><trkpt lat="40.00867420617215" lon="19.90359250086256"><ele>58.0</ele><time>2026-04-27T16:57:24.999Z</time></trkpt><trkpt lat="40.00856559189956" lon="19.903704955011733"><ele>58.0</ele><time>2026-04-27T16:57:25.999Z</time></trkpt><trkpt lat="40.00847252454492" lon="19.903829277075705"><ele>58.0</ele><time>2026-04-27T16:57:26.999Z</time></trkpt><trkpt lat="40.008399681388234" lon="19.90396399520918"><ele>58.0</ele><time>2026-04-27T16:57:27.999Z</time></trkpt><trkpt lat="40.008305941440895" lon="19.904089999188532"><ele>56.0</ele><time>2026-04-27T16:57:28.999Z</time></trkpt><trkpt lat="40.00820706238547" lon="19.90422549716966"><ele>54.0</ele><time>2026-04-27T16:57:29.999Z</time></trkpt><trkpt lat="40.00811565110768" lon="19.904356487779197"><ele>52.0</ele><time>2026-04-27T16:57:30.999Z</time></trkpt><trkpt lat="40.0080298394816" lon="19.904495540240422"><ele>50.0</ele><time>2026-04-27T16:57:31.999Z</time></trkpt><trkpt lat="40.007947367528146" lon="19.904627459882185"><ele>50.0</ele><time>2026-04-27T16:57:32.999Z</time></trkpt><trkpt lat="40.00786527435382" lon="19.904745257071813"><ele>50.0</ele><time>2026-04-27T16:57:33.999Z</time></trkpt><trkpt lat="40.00778277222143" lon="19.90484736728601"><ele>50.0</ele><time>2026-04-27T16:57:34.999Z</time></trkpt><trkpt lat="40.00769279163593" lon="19.904919544992683"><ele>50.0</ele><time>2026-04-27T16:57:35.999Z</time></trkpt><trkpt lat="40.00759165347168" lon="19.904969803965578"><ele>50.0</ele><time>2026-04-27T16:57:36.999Z</time></trkpt><trkpt lat="40.00746437909632" lon="19.904972356395497"><ele>51.5</ele><time>2026-04-27T16:57:37.999Z</time></trkpt><trkpt lat="40.00732999282869" lon="19.904972652999852"><ele>53.0</ele><time>2026-04-27T16:57:38.999Z</time></trkpt><trkpt lat="40.00717612448826" lon="19.905001054045737"><ele>54.5</ele><time>2026-04-27T16:57:39.999Z</time></trkpt><trkpt lat="40.00702340194898" lon="19.90498739060636"><ele>56.0</ele><time>2026-04-27T16:57:40.999Z</time></trkpt><trkpt lat="40.00688772421948" lon="19.904957098938183"><ele>56.0</ele><time>2026-04-27T16:57:41.999Z</time></trkpt><trkpt lat="40.00676318618067" lon="19.90490063379417"><ele>56.0</ele><time>2026-04-27T16:57:42.999Z</time></trkpt><trkpt lat="40.00666380196443" lon="19.90478424598059"><ele>56.0</ele><time>2026-04-27T16:57:43.999Z</time></trkpt><trkpt lat="40.00661425641445" lon="19.904635796460305"><ele>56.0</ele><time>2026-04-27T16:57:44.999Z</time></trkpt><trkpt lat="40.00654780014946" lon="19.90447048660892"><ele>59.0</ele><time>2026-04-27T16:57:45.999Z</time></trkpt><trkpt lat="40.006461396294135" lon="19.90425621865668"><ele>62.0</ele><time>2026-04-27T16:57:46.999Z</time></trkpt><trkpt lat="40.00638216397636" lon="19.904033487611745"><ele>65.0</ele><time>2026-04-27T16:57:47.999Z</time></trkpt><trkpt lat="40.0063142281114" lon="19.90384125317503"><ele>65.0</ele><time>2026-04-27T16:57:48.999Z</time></trkpt><trkpt lat="40.0062604932464" lon="19.90365984442826"><ele>65.0</ele><time>2026-04-27T16:57:49.999Z</time></trkpt><trkpt lat="40.006225620291254" lon="19.90346015153994"><ele>65.0</ele><time>2026-04-27T16:57:50.999Z</time></trkpt><trkpt lat="40.00621003178068" lon="19.903242910360476"><ele>65.66666666666667</ele><time>2026-04-27T16:57:51.999Z</time></trkpt><trkpt lat="40.0062183813181" lon="19.903009649454447"><ele>66.33333333333333</ele><time>2026-04-27T16:57:52.999Z</time></trkpt><trkpt lat="40.00623988867781" lon="19.9027682771271"><ele>67.0</ele><time>2026-04-27T16:57:53.999Z</time></trkpt><trkpt lat="40.006259192750406" lon="19.902550823450586"><ele>67.0</ele><time>2026-04-27T16:57:54.999Z</time></trkpt><trkpt lat="40.006267053334774" lon="19.90233621957773"><ele>67.0</ele><time>2026-04-27T16:57:55.999Z</time></trkpt><trkpt lat="40.00627246879596" lon="19.90213598206096"><ele>67.0</ele><time>2026-04-27T16:57:56.999Z</time></trkpt><trkpt lat="40.0062694792425" lon="19.901940725046366"><ele>67.0</ele><time>2026-04-27T16:57:57.999Z</time></trkpt><trkpt lat="40.00623695017646" lon="19.901772882077367"><ele>67.0</ele><time>2026-04-27T16:57:58.999Z</time></trkpt><trkpt lat="40.00617995481207" lon="19.9016077173507"><ele>67.0</ele><time>2026-04-27T16:57:59.999Z</time></trkpt><trkpt lat="40.0061125295088" lon="19.90146198327211"><ele>67.0</ele><time>2026-04-27T16:58:00.999Z</time></trkpt><trkpt lat="40.006039947662025" lon="19.901359039436663"><ele>66.5</ele><time>2026-04-27T16:58:01.999Z</time></trkpt><trkpt lat="40.00595669026264" lon="19.901297051347566"><ele>66.0</ele><time>2026-04-27T16:58:02.999Z</time></trkpt><trkpt lat="40.005843965384315" lon="19.901259952351857"><ele>65.5</ele><time>2026-04-27T16:58:03.999Z</time></trkpt><trkpt lat="40.00570764526444" lon="19.90124627701674"><ele>65.0</ele><time>2026-04-27T16:58:04.999Z</time></trkpt><trkpt lat="40.005570704656236" lon="19.901252792241362"><ele>66.33333333333334</ele><time>2026-04-27T16:58:05.999Z</time></trkpt><trkpt lat="40.00543380397108" lon="19.901312962662992"><ele>67.66666666666667</ele><time>2026-04-27T16:58:06.999Z</time></trkpt><trkpt lat="40.005298930911366" lon="19.90140362201495"><ele>69.0</ele><time>2026-04-27T16:58:07.999Z</time></trkpt><trkpt lat="40.00515984763334" lon="19.901491082787263"><ele>69.0</ele><time>2026-04-27T16:58:08.999Z</time></trkpt><trkpt lat="40.00501811309243" lon="19.90157973412587"><ele>69.0</ele><time>2026-04-27T16:58:09.999Z</time></trkpt><trkpt lat="40.00485617024569" lon="19.90166641233097"><ele>69.0</ele><time>2026-04-27T16:58:10.999Z</time></trkpt><trkpt lat="40.00466919772091" lon="19.901690376246968"><ele>72.5</ele><time>2026-04-27T16:58:11.999Z</time></trkpt><trkpt lat="40.00443240057157" lon="19.90171197850531"><ele>76.0</ele><time>2026-04-27T16:58:12.999Z</time></trkpt><trkpt lat="40.00416395469324" lon="19.901742312205382"><ele>91.0</ele><time>2026-04-27T16:58:13.999Z</time></trkpt><trkpt lat="40.00391793301875" lon="19.90183188073254"><ele>106.0</ele><time>2026-04-27T16:58:14.999Z</time></trkpt><trkpt lat="40.00371788178531" lon="19.901877771356002"><ele>106.0</ele><time>2026-04-27T16:58:15.999Z</time></trkpt><trkpt lat="40.00355231953201" lon="19.9019024904187"><ele>106.0</ele><time>2026-04-27T16:58:16.999Z</time></trkpt><trkpt lat="40.00341497564467" lon="19.901904202810865"><ele>106.0</ele><time>2026-04-27T16:58:17.999Z</time></trkpt><trkpt lat="40.0033436095811" lon="19.901799404778515"><ele>106.0</ele><time>2026-04-27T16:58:18.999Z</time></trkpt><trkpt lat="40.00329191590195" lon="19.901690014524018"><ele>100.66666666666667</ele><time>2026-04-27T16:58:19.999Z</time></trkpt><trkpt lat="40.00330387221039" lon="19.901526211850726"><ele>95.33333333333334</ele><time>2026-04-27T16:58:20.999Z</time></trkpt><trkpt lat="40.00329676684257" lon="19.901322567570862"><ele>90.0</ele><time>2026-04-27T16:58:21.999Z</time></trkpt><trkpt lat="40.00333258687338" lon="19.901097822523994"><ele>93.33333333333334</ele><time>2026-04-27T16:58:22.999Z</time></trkpt><trkpt lat="40.0034069164478" lon="19.900898512994463"><ele>96.66666666666667</ele><time>2026-04-27T16:58:23.999Z</time></trkpt><trkpt lat="40.00353772508662" lon="19.900766711552247"><ele>100.0</ele><time>2026-04-27T16:58:24.999Z</time></trkpt><trkpt lat="40.00364856439163" lon="19.900629215123203"><ele>100.0</ele><time>2026-04-27T16:58:25.999Z</time></trkpt><trkpt lat="40.003719821219654" lon="19.900514407556443"><ele>100.0</ele><time>2026-04-27T16:58:26.999Z</time></trkpt><trkpt lat="40.00372845012962" lon="19.900376057160578"><ele>100.0</ele><time>2026-04-27T16:58:27.999Z</time></trkpt><trkpt lat="40.00369200784298" lon="19.900216680204462"><ele>100.0</ele><time>2026-04-27T16:58:28.999Z</time></trkpt><trkpt lat="40.00362222838836" lon="19.900039185709257"><ele>102.5</ele><time>2026-04-27T16:58:29.999Z</time></trkpt><trkpt lat="40.00359828665119" lon="19.899870007915784"><ele>105.0</ele><time>2026-04-27T16:58:30.999Z</time></trkpt><trkpt lat="40.00365796937597" lon="19.899725612597347"><ele>107.5</ele><time>2026-04-27T16:58:31.999Z</time></trkpt><trkpt lat="40.00379788365934" lon="19.89963623255463"><ele>110.0</ele><time>2026-04-27T16:58:33Z</time></trkpt><trkpt lat="40.00392604783602" lon="19.89950401764101"><ele>110.0</ele><time>2026-04-27T16:58:34Z</time></trkpt><trkpt lat="40.00401532925284" lon="19.899384982301086"><ele>110.0</ele><time>2026-04-27T16:58:35Z</time></trkpt><trkpt lat="40.004041614122144" lon="19.899257078840282"><ele>110.0</ele><time>2026-04-27T16:58:36Z</time></trkpt><trkpt lat="40.00400888869612" lon="19.899138032969404"><ele>110.0</ele><time>2026-04-27T16:58:37Z</time></trkpt><trkpt lat="40.00392483902243" lon="19.899033918441365"><ele>110.0</ele><time>2026-04-27T16:58:38Z</time></trkpt><trkpt lat="40.00380106476263" lon="19.898931742776128"><ele>113.66666666666666</ele><time>2026-04-27T16:58:39Z</time></trkpt><trkpt lat="40.003663830067964" lon="19.898792383205237"><ele>117.33333333333334</ele><time>2026-04-27T16:58:40Z</time></trkpt><trkpt lat="40.00355808000571" lon="19.898601404758843"><ele>121.0</ele><time>2026-04-27T16:58:41Z</time></trkpt><trkpt lat="40.0035468064617" lon="19.89839263064198"><ele>123.66666666666667</ele><time>2026-04-27T16:58:42Z</time></trkpt><trkpt lat="40.00359105911354" lon="19.898217263295"><ele>126.33333333333334</ele><time>2026-04-27T16:58:43Z</time></trkpt><trkpt lat="40.003698535108036" lon="19.898047481516603"><ele>129.0</ele><time>2026-04-27T16:58:44Z</time></trkpt><trkpt lat="40.003804742306045" lon="19.897858808752183"><ele>129.0</ele><time>2026-04-27T16:58:45Z</time></trkpt><trkpt lat="40.00387473055701" lon="19.89772731955297"><ele>129.0</ele><time>2026-04-27T16:58:46Z</time></trkpt><trkpt lat="40.003874498060405" lon="19.897612605895237"><ele>129.0</ele><time>2026-04-27T16:58:47Z</time></trkpt><trkpt lat="40.003833012181914" lon="19.897483941224756"><ele>129.0</ele><time>2026-04-27T16:58:48Z</time></trkpt><trkpt lat="40.00373712419669" lon="19.897341383402996"><ele>128.66666666666666</ele><time>2026-04-27T16:58:49Z</time></trkpt><trkpt lat="40.00361157007259" lon="19.89723399835415"><ele>128.33333333333331</ele><time>2026-04-27T16:58:50Z</time></trkpt><trkpt lat="40.00344687448646" lon="19.8971526893426"><ele>128.0</ele><time>2026-04-27T16:58:51Z</time></trkpt><trkpt lat="40.00329766405628" lon="19.897018071200176"><ele>128.0</ele><time>2026-04-27T16:58:52Z</time></trkpt><trkpt lat="40.003172282931445" lon="19.89686890207428"><ele>128.0</ele><time>2026-04-27T16:58:53Z</time></trkpt><trkpt lat="40.00309031072303" lon="19.89677664323871"><ele>128.0</ele><time>2026-04-27T16:58:54Z</time></trkpt><trkpt lat="40.00299270042878" lon="19.896717662298148"><ele>128.0</ele><time>2026-04-27T16:58:55Z</time></trkpt><trkpt lat="40.00289159399124" lon="19.8967217226877"><ele>128.0</ele><time>2026-04-27T16:58:56Z</time></trkpt><trkpt lat="40.00279795999427" lon="19.896771143726856"><ele>128.0</ele><time>2026-04-27T16:58:57Z</time></trkpt><trkpt lat="40.002705104215366" lon="19.896870027745685"><ele>128.0</ele><time>2026-04-27T16:58:58Z</time></trkpt><trkpt lat="40.00262057621765" lon="19.897019046758242"><ele>128.0</ele><time>2026-04-27T16:58:59Z</time></trkpt><trkpt lat="40.00255104822144" lon="19.89721753592723"><ele>127.33333333333333</ele><time>2026-04-27T16:59:00Z</time></trkpt><trkpt lat="40.00249047992062" lon="19.897455854748447"><ele>126.66666666666666</ele><time>2026-04-27T16:59:01Z</time></trkpt><trkpt lat="40.00243287074343" lon="19.89763752974613"><ele>126.0</ele><time>2026-04-27T16:59:02Z</time></trkpt><trkpt lat="40.002335040616444" lon="19.89772547977449"><ele>126.0</ele><time>2026-04-27T16:59:03Z</time></trkpt><trkpt lat="40.00221946115737" lon="19.897765460945173"><ele>126.0</ele><time>2026-04-27T16:59:03.999Z</time></trkpt><trkpt lat="40.00208106577486" lon="19.897822125580706"><ele>126.0</ele><time>2026-04-27T16:59:04.999Z</time></trkpt><trkpt lat="40.00196255574235" lon="19.897860820863787"><ele>126.0</ele><time>2026-04-27T16:59:05.999Z</time></trkpt><trkpt lat="40.00189486395722" lon="19.897973261110476"><ele>126.0</ele><time>2026-04-27T16:59:06.999Z</time></trkpt><trkpt lat="40.00185703473747" lon="19.89814347312382"><ele>126.0</ele><time>2026-04-27T16:59:07.999Z</time></trkpt><trkpt lat="40.0018449259852" lon="19.898367087258364"><ele>126.0</ele><time>2026-04-27T16:59:08.999Z</time></trkpt><trkpt lat="40.001836033822414" lon="19.89857831000319"><ele>128.0</ele><time>2026-04-27T16:59:09.999Z</time></trkpt><trkpt lat="40.00176930609947" lon="19.898734314777162"><ele>130.0</ele><time>2026-04-27T16:59:10.999Z</time></trkpt><trkpt lat="40.00161919342196" lon="19.898799427107466"><ele>132.0</ele><time>2026-04-27T16:59:11.999Z</time></trkpt><trkpt lat="40.00148076370806" lon="19.8988312827468"><ele>134.0</ele><time>2026-04-27T16:59:12.999Z</time></trkpt><trkpt lat="40.00131563885211" lon="19.898889798020555"><ele>134.0</ele><time>2026-04-27T16:59:13.999Z</time></trkpt><trkpt lat="40.00117575748734" lon="19.89897179283405"><ele>134.0</ele><time>2026-04-27T16:59:14.999Z</time></trkpt><trkpt lat="40.001042004663496" lon="19.89908119370919"><ele>134.0</ele><time>2026-04-27T16:59:15.999Z</time></trkpt><trkpt lat="40.000927039365884" lon="19.89922716535243"><ele>139.33333333333331</ele><time>2026-04-27T16:59:16.999Z</time></trkpt><trkpt lat="40.00084674832569" lon="19.899379539230065"><ele>144.66666666666666</ele><time>2026-04-27T16:59:17.999Z</time></trkpt><trkpt lat="40.00078691848114" lon="19.899555561710415"><ele>150.0</ele><time>2026-04-27T16:59:18.999Z</time></trkpt><trkpt lat="40.000753919930084" lon="19.89977370602656"><ele>134.0</ele><time>2026-04-27T16:59:19.999Z</time></trkpt><trkpt lat="40.000735492730556" lon="19.900034980611647"><ele>118.0</ele><time>2026-04-27T16:59:20.999Z</time></trkpt><trkpt lat="40.000723782728585" lon="19.900327477492343"><ele>102.0</ele><time>2026-04-27T16:59:21.999Z</time></trkpt><trkpt lat="40.00071367745536" lon="19.90062826411935"><ele>102.0</ele><time>2026-04-27T16:59:22.999Z</time></trkpt><trkpt lat="40.000700222074585" lon="19.90089238231726"><ele>102.0</ele><time>2026-04-27T16:59:23.999Z</time></trkpt><trkpt lat="40.00070258549168" lon="19.90111840937102"><ele>102.0</ele><time>2026-04-27T16:59:24.999Z</time></trkpt><trkpt lat="40.00075264016098" lon="19.901315768285965"><ele>104.0</ele><time>2026-04-27T16:59:25.999Z</time></trkpt><trkpt lat="40.000811298364816" lon="19.901496404702257"><ele>106.0</ele><time>2026-04-27T16:59:26.999Z</time></trkpt><trkpt lat="40.00083006354131" lon="19.90168296446033"><ele>108.0</ele><time>2026-04-27T16:59:27.999Z</time></trkpt><trkpt lat="40.000791416771186" lon="19.901893821171363"><ele>110.33333333333334</ele><time>2026-04-27T16:59:28.999Z</time></trkpt><trkpt lat="40.000738111598466" lon="19.902113716843637"><ele>112.66666666666667</ele><time>2026-04-27T16:59:29.999Z</time></trkpt><trkpt lat="40.00075273569436" lon="19.90235546493223"><ele>115.0</ele><time>2026-04-27T16:59:30.999Z</time></trkpt><trkpt lat="40.00081797971329" lon="19.902609787705828"><ele>134.0</ele><time>2026-04-27T16:59:31.999Z</time></trkpt><trkpt lat="40.000903478794925" lon="19.902888240678106"><ele>153.0</ele><time>2026-04-27T16:59:32.999Z</time></trkpt><trkpt lat="40.00095368333158" lon="19.90317053921807"><ele>154.66666666666666</ele><time>2026-04-27T16:59:33.999Z</time></trkpt><trkpt lat="40.00102045786174" lon="19.90343023205139"><ele>156.33333333333331</ele><time>2026-04-27T16:59:34.999Z</time></trkpt><trkpt lat="40.00103020469313" lon="19.90370959200003"><ele>158.0</ele><time>2026-04-27T16:59:35.999Z</time></trkpt><trkpt lat="40.0010338908744" lon="19.904019892444918"><ele>160.0</ele><time>2026-04-27T16:59:36.999Z</time></trkpt><trkpt lat="40.00105161735773" lon="19.904313732483626"><ele>162.0</ele><time>2026-04-27T16:59:37.999Z</time></trkpt><trkpt lat="40.001054834011704" lon="19.90456541324384"><ele>164.0</ele><time>2026-04-27T16:59:38.999Z</time></trkpt><trkpt lat="40.00106373599705" lon="19.904788502557437"><ele>164.0</ele><time>2026-04-27T16:59:39.999Z</time></trkpt><trkpt lat="40.00106665974507" lon="19.905010450558493"><ele>164.0</ele><time>2026-04-27T16:59:40.999Z</time></trkpt><trkpt lat="40.00103427159541" lon="19.90523136560258"><ele>164.0</ele><time>2026-04-27T16:59:41.999Z</time></trkpt><trkpt lat="40.00093371212802" lon="19.905417943919915"><ele>164.0</ele><time>2026-04-27T16:59:42.999Z</time></trkpt><trkpt lat="40.000838059971656" lon="19.905594560674253"><ele>164.0</ele><time>2026-04-27T16:59:43.999Z</time></trkpt><trkpt lat="40.00076835004321" lon="19.905741808092504"><ele>164.0</ele><time>2026-04-27T16:59:44.999Z</time></trkpt><trkpt lat="40.000712116672204" lon="19.905872151515382"><ele>164.0</ele><time>2026-04-27T16:59:45.999Z</time></trkpt><trkpt lat="40.00069816262901" lon="19.90602634783488"><ele>166.0</ele><time>2026-04-27T16:59:46.999Z</time></trkpt><trkpt lat="40.000737899626294" lon="19.906177555681573"><ele>168.0</ele><time>2026-04-27T16:59:47.999Z</time></trkpt><trkpt lat="40.000825345040745" lon="19.906309682686295"><ele>170.0</ele><time>2026-04-27T16:59:48.999Z</time></trkpt><trkpt lat="40.000953055006725" lon="19.906448001972485"><ele>172.0</ele><time>2026-04-27T16:59:49.999Z</time></trkpt><trkpt lat="40.001082416673285" lon="19.90659493005715"><ele>174.66666666666669</ele><time>2026-04-27T16:59:50.999Z</time></trkpt><trkpt lat="40.0011804688499" lon="19.90677563888549"><ele>177.33333333333334</ele><time>2026-04-27T16:59:51.999Z</time></trkpt><trkpt lat="40.001234791021716" lon="19.90699907922826"><ele>180.0</ele><time>2026-04-27T16:59:52.999Z</time></trkpt><trkpt lat="40.00123592193823" lon="19.907243165918636"><ele>180.0</ele><time>2026-04-27T16:59:53.999Z</time></trkpt><trkpt lat="40.001258002190795" lon="19.907484900208715"><ele>180.0</ele><time>2026-04-27T16:59:54.999Z</time></trkpt><trkpt lat="40.00126381589268" lon="19.907727699512392"><ele>180.0</ele><time>2026-04-27T16:59:55.999Z</time></trkpt><trkpt lat="40.00128247011707" lon="19.90795746461537"><ele>182.75</ele><time>2026-04-27T16:59:56.999Z</time></trkpt><trkpt lat="40.00129750831324" lon="19.908143926824337"><ele>185.5</ele><time>2026-04-27T16:59:57.999Z</time></trkpt><trkpt lat="40.001274406486516" lon="19.908304071068503"><ele>188.25</ele><time>2026-04-27T16:59:58.999Z</time></trkpt><trkpt lat="40.00119754796179" lon="19.90845459052519"><ele>191.0</ele><time>2026-04-27T16:59:59.999Z</time></trkpt><trkpt lat="40.00106682013343" lon="19.908542217026884"><ele>195.0</ele><time>2026-04-27T17:00:00.999Z</time></trkpt><trkpt lat="40.00094117139508" lon="19.90852661868273"><ele>199.0</ele><time>2026-04-27T17:00:01.999Z</time></trkpt><trkpt lat="40.000807201120466" lon="19.908556046971132"><ele>203.0</ele><time>2026-04-27T17:00:02.999Z</time></trkpt><trkpt lat="40.00070757783498" lon="19.908595977129384"><ele>207.0</ele><time>2026-04-27T17:00:03.999Z</time></trkpt><trkpt lat="40.00061679032694" lon="19.908684696600485"><ele>208.66666666666669</ele><time>2026-04-27T17:00:04.999Z</time></trkpt><trkpt lat="40.000545960174556" lon="19.90884708869199"><ele>210.33333333333334</ele><time>2026-04-27T17:00:05.999Z</time></trkpt><trkpt lat="40.000504372645445" lon="19.909058795467217"><ele>212.0</ele><time>2026-04-27T17:00:06.999Z</time></trkpt><trkpt lat="40.000494836181794" lon="19.90928706587012"><ele>216.0</ele><time>2026-04-27T17:00:07.999Z</time></trkpt><trkpt lat="40.00050524112206" lon="19.909503172495302"><ele>220.0</ele><time>2026-04-27T17:00:08.999Z</time></trkpt><trkpt lat="40.000499331330886" lon="19.90964772425588"><ele>224.0</ele><time>2026-04-27T17:00:09.999Z</time></trkpt><trkpt lat="40.000436105560624" lon="19.90970349828147"><ele>228.0</ele><time>2026-04-27T17:00:10.999Z</time></trkpt><trkpt lat="40.000355139813955" lon="19.90973377390943"><ele>232.0</ele><time>2026-04-27T17:00:11.999Z</time></trkpt><trkpt lat="40.000249911674516" lon="19.909684275813415"><ele>232.0</ele><time>2026-04-27T17:00:12.999Z</time></trkpt><trkpt lat="40.000164640538195" lon="19.90954723702019"><ele>232.0</ele><time>2026-04-27T17:00:13.999Z</time></trkpt><trkpt lat="40.00007101787335" lon="19.909389419608225"><ele>232.0</ele><time>2026-04-27T17:00:14.999Z</time></trkpt><trkpt lat="40.00000743032812" lon="19.909189907547937"><ele>225.33333333333331</ele><time>2026-04-27T17:00:15.999Z</time></trkpt><trkpt lat="39.99995178708494" lon="19.90895767981253"><ele>218.66666666666669</ele><time>2026-04-27T17:00:16.999Z</time></trkpt><trkpt lat="39.99989508041157" lon="19.908708926077352"><ele>212.0</ele><time>2026-04-27T17:00:17.999Z</time></trkpt><trkpt lat="39.99983884657596" lon="19.90852053934498"><ele>208.75</ele><time>2026-04-27T17:00:18.999Z</time></trkpt><trkpt lat="39.999759307003636" lon="19.908386021398524"><ele>205.5</ele><time>2026-04-27T17:00:19.999Z</time></trkpt><trkpt lat="39.999654374177595" lon="19.90825296548101"><ele>202.25</ele><time>2026-04-27T17:00:20.999Z</time></trkpt><trkpt lat="39.99951966809903" lon="19.908115303946925"><ele>199.0</ele><time>2026-04-27T17:00:21.999Z</time></trkpt><trkpt lat="39.99935389900579" lon="19.907994337435802"><ele>199.0</ele><time>2026-04-27T17:00:22.999Z</time></trkpt><trkpt lat="39.99919711095177" lon="19.907910601152736"><ele>199.0</ele><time>2026-04-27T17:00:23.999Z</time></trkpt><trkpt lat="39.99906721503214" lon="19.90784996269666"><ele>199.0</ele><time>2026-04-27T17:00:24.999Z</time></trkpt><trkpt lat="39.99895112853981" lon="19.907817696817716"><ele>199.0</ele><time>2026-04-27T17:00:25.999Z</time></trkpt><trkpt lat="39.99882461746908" lon="19.907813172392597"><ele>205.5</ele><time>2026-04-27T17:00:26.999Z</time></trkpt><trkpt lat="39.99870481640902" lon="19.90791854045158"><ele>212.0</ele><time>2026-04-27T17:00:27.999Z</time></trkpt><trkpt lat="39.99863490607407" lon="19.90806317573227"><ele>218.5</ele><time>2026-04-27T17:00:28.999Z</time></trkpt><trkpt lat="39.99859909104988" lon="19.908239083422448"><ele>225.0</ele><time>2026-04-27T17:00:29.999Z</time></trkpt><trkpt lat="39.99858275229936" lon="19.908440113944717"><ele>230.33333333333331</ele><time>2026-04-27T17:00:30.999Z</time></trkpt><trkpt lat="39.998574843618826" lon="19.90869644243843"><ele>235.66666666666666</ele><time>2026-04-27T17:00:31.999Z</time></trkpt><trkpt lat="39.99853917663276" lon="19.90900066819328"><ele>241.0</ele><time>2026-04-27T17:00:32.999Z</time></trkpt><trkpt lat="39.99851145651427" lon="19.90933186282142"><ele>245.66666666666666</ele><time>2026-04-27T17:00:33.999Z</time></trkpt><trkpt lat="39.99850164136901" lon="19.909642883833776"><ele>250.33333333333331</ele><time>2026-04-27T17:00:34.999Z</time></trkpt><trkpt lat="39.99847430526851" lon="19.909912627212513"><ele>255.0</ele><time>2026-04-27T17:00:35.999Z</time></trkpt><trkpt lat="39.998458317719404" lon="19.910144231580254"><ele>257.6666666666667</ele><time>2026-04-27T17:00:36.999Z</time></trkpt><trkpt lat="39.998485465293406" lon="19.91035512554381"><ele>260.33333333333337</ele><time>2026-04-27T17:00:37.999Z</time></trkpt><trkpt lat="39.998552109053605" lon="19.910578024467313"><ele>263.0</ele><time>2026-04-27T17:00:39Z</time></trkpt><trkpt lat="39.99861131545291" lon="19.910778138917"><ele>264.6</ele><time>2026-04-27T17:00:40Z</time></trkpt><trkpt lat="39.99862216043317" lon="19.910938652913774"><ele>266.20000000000005</ele><time>2026-04-27T17:00:41Z</time></trkpt><trkpt lat="39.9985837206163" lon="19.911056872246782"><ele>267.8</ele><time>2026-04-27T17:00:42Z</time></trkpt><trkpt lat="39.998491559598996" lon="19.911104042020156"><ele>269.40000000000003</ele><time>2026-04-27T17:00:43Z</time></trkpt><trkpt lat="39.99840491629783" lon="19.91111533893021"><ele>271.0</ele><time>2026-04-27T17:00:44Z</time></trkpt><trkpt lat="39.99830905744697" lon="19.911014615757082"><ele>263.5</ele><time>2026-04-27T17:00:45Z</time></trkpt><trkpt lat="39.99824548296817" lon="19.91086649880678"><ele>256.0</ele><time>2026-04-27T17:00:46Z</time></trkpt><trkpt lat="39.99813606000504" lon="19.910696563586423"><ele>248.5</ele><time>2026-04-27T17:00:47Z</time></trkpt><trkpt lat="39.99802548627734" lon="19.91059511264706"><ele>241.0</ele><time>2026-04-27T17:00:48Z</time></trkpt><trkpt lat="39.99791638196269" lon="19.910580943681758"><ele>241.0</ele><time>2026-04-27T17:00:49Z</time></trkpt><trkpt lat="39.997816734545985" lon="19.91064722564287"><ele>241.0</ele><time>2026-04-27T17:00:50Z</time></trkpt><trkpt lat="39.997745428191664" lon="19.910775736227087"><ele>241.0</ele><time>2026-04-27T17:00:51Z</time></trkpt><trkpt lat="39.9976970561766" lon="19.91096295463332"><ele>241.0</ele><time>2026-04-27T17:00:52Z</time></trkpt><trkpt lat="39.997661764183626" lon="19.91121734862208"><ele>245.33333333333331</ele><time>2026-04-27T17:00:53Z</time></trkpt><trkpt lat="39.99759951265816" lon="19.9114828922914"><ele>249.66666666666669</ele><time>2026-04-27T17:00:54Z</time></trkpt><trkpt lat="39.99754678682373" lon="19.911761619676255"><ele>254.0</ele><time>2026-04-27T17:00:55Z</time></trkpt><trkpt lat="39.997494729582684" lon="19.912034801039812"><ele>254.66666666666669</ele><time>2026-04-27T17:00:56Z</time></trkpt><trkpt lat="39.9974636340006" lon="19.91227220509706"><ele>255.33333333333331</ele><time>2026-04-27T17:00:57Z</time></trkpt><trkpt lat="39.99741719404414" lon="19.912462645555628"><ele>256.0</ele><time>2026-04-27T17:00:58Z</time></trkpt><trkpt lat="39.99734513596065" lon="19.912592440637983"><ele>260.6</ele><time>2026-04-27T17:00:59Z</time></trkpt><trkpt lat="39.99728602039972" lon="19.912690380849057"><ele>265.20000000000005</ele><time>2026-04-27T17:01:00Z</time></trkpt><trkpt lat="39.997201552953854" lon="19.912700680376908"><ele>269.79999999999995</ele><time>2026-04-27T17:01:01Z</time></trkpt><trkpt lat="39.99712474376045" lon="19.912670870574132"><ele>274.4</ele><time>2026-04-27T17:01:02Z</time></trkpt><trkpt lat="39.99697911231427" lon="19.91265509530135"><ele>279.0</ele><time>2026-04-27T17:01:03Z</time></trkpt><trkpt lat="39.99685053873952" lon="19.912660936267493"><ele>279.0</ele><time>2026-04-27T17:01:04Z</time></trkpt><trkpt lat="39.996746160719574" lon="19.912726562774818"><ele>279.0</ele><time>2026-04-27T17:01:05Z</time></trkpt><trkpt lat="39.99666221829046" lon="19.912846260292454"><ele>279.0</ele><time>2026-04-27T17:01:06Z</time></trkpt><trkpt lat="39.99661286720727" lon="19.913005103907036"><ele>279.0</ele><time>2026-04-27T17:01:07Z</time></trkpt><trkpt lat="39.99660353643968" lon="19.91318624796402"><ele>278.25</ele><time>2026-04-27T17:01:08Z</time></trkpt><trkpt lat="39.99661809180986" lon="19.913346451735034"><ele>277.5</ele><time>2026-04-27T17:01:09Z</time></trkpt><trkpt lat="39.99659145156385" lon="19.913498395439667"><ele>276.75</ele><time>2026-04-27T17:01:09.999Z</time></trkpt><trkpt lat="39.996498971378344" lon="19.913618614609728"><ele>276.0</ele><time>2026-04-27T17:01:10.999Z</time></trkpt><trkpt lat="39.996370363487245" lon="19.913743189939076"><ele>276.0</ele><time>2026-04-27T17:01:11.999Z</time></trkpt><trkpt lat="39.99626726318899" lon="19.913899526688045"><ele>276.0</ele><time>2026-04-27T17:01:12.999Z</time></trkpt><trkpt lat="39.99622944041859" lon="19.91408439278609"><ele>276.0</ele><time>2026-04-27T17:01:13.999Z</time></trkpt><trkpt lat="39.99621843045931" lon="19.914302000173887"><ele>279.5</ele><time>2026-04-27T17:01:14.999Z</time></trkpt><trkpt lat="39.996201777530146" lon="19.91452966768193"><ele>283.0</ele><time>2026-04-27T17:01:15.999Z</time></trkpt><trkpt lat="39.99615840396954" lon="19.91470613691771"><ele>286.5</ele><time>2026-04-27T17:01:16.999Z</time></trkpt><trkpt lat="39.9960641349392" lon="19.914821655108142"><ele>290.0</ele><time>2026-04-27T17:01:17.999Z</time></trkpt><trkpt lat="39.99598421028651" lon="19.91493787382614"><ele>290.0</ele><time>2026-04-27T17:01:18.999Z</time></trkpt><trkpt lat="39.99588166868869" lon="19.91499674198162"><ele>290.0</ele><time>2026-04-27T17:01:19.999Z</time></trkpt><trkpt lat="39.99579026381287" lon="19.915029177479372"><ele>290.0</ele><time>2026-04-27T17:01:20.999Z</time></trkpt><trkpt lat="39.99571477841043" lon="19.914996464455125"><ele>290.0</ele><time>2026-04-27T17:01:21.999Z</time></trkpt><trkpt lat="39.99564165833464" lon="19.914971128782014"><ele>290.0</ele><time>2026-04-27T17:01:22.999Z</time></trkpt><trkpt lat="39.99556542778155" lon="19.914917266876408"><ele>290.0</ele><time>2026-04-27T17:01:23.999Z</time></trkpt><trkpt lat="39.995506267994045" lon="19.914871542117957"><ele>285.1666666666667</ele><time>2026-04-27T17:01:24.999Z</time></trkpt><trkpt lat="39.99544533506786" lon="19.914828398390217"><ele>280.33333333333337</ele><time>2026-04-27T17:01:25.999Z</time></trkpt><trkpt lat="39.995380266501854" lon="19.914791836957136"><ele>275.5</ele><time>2026-04-27T17:01:26.999Z</time></trkpt><trkpt lat="39.99530501776818" lon="19.914776498911085"><ele>270.6666666666667</ele><time>2026-04-27T17:01:27.999Z</time></trkpt><trkpt lat="39.99521965287694" lon="19.914787063655485"><ele>265.8333333333333</ele><time>2026-04-27T17:01:28.999Z</time></trkpt><trkpt lat="39.995131723460105" lon="19.914830100985032"><ele>261.0</ele><time>2026-04-27T17:01:29.999Z</time></trkpt><trkpt lat="39.99506469096376" lon="19.914884108834347"><ele>261.0</ele><time>2026-04-27T17:01:30.999Z</time></trkpt><trkpt lat="39.99500771741557" lon="19.914943046262934"><ele>261.0</ele><time>2026-04-27T17:01:31.999Z</time></trkpt><trkpt lat="39.99495218538909" lon="19.914990001312155"><ele>261.0</ele><time>2026-04-27T17:01:32.999Z</time></trkpt><trkpt lat="39.99489950429479" lon="19.915038747017764"><ele>261.0</ele><time>2026-04-27T17:01:33.999Z</time></trkpt><trkpt lat="39.99484610772607" lon="19.915084807049926"><ele>261.0</ele><time>2026-04-27T17:01:34.999Z</time></trkpt><trkpt lat="39.99478608746021" lon="19.91513510032764"><ele>261.0</ele><time>2026-04-27T17:01:35.999Z</time></trkpt><trkpt lat="39.99472027807456" lon="19.915179320507928"><ele>261.0</ele><time>2026-04-27T17:01:36.999Z</time></trkpt><trkpt lat="39.994654547515175" lon="19.91522533634118"><ele>264.40000000000003</ele><time>2026-04-27T17:01:37.999Z</time></trkpt><trkpt lat="39.99458618391774" lon="19.915280735056754"><ele>267.8</ele><time>2026-04-27T17:01:38.999Z</time></trkpt><trkpt lat="39.99449960536425" lon="19.915298906269463"><ele>271.20000000000005</ele><time>2026-04-27T17:01:39.999Z</time></trkpt><trkpt lat="39.994406175130216" lon="19.91530764713774"><ele>274.6</ele><time>2026-04-27T17:01:40.999Z</time></trkpt><trkpt lat="39.994311129014186" lon="19.9152887983236"><ele>278.0</ele><time>2026-04-27T17:01:41.999Z</time></trkpt><trkpt lat="39.9942170946009" lon="19.9152765683393"><ele>279.83333333333337</ele><time>2026-04-27T17:01:42.999Z</time></trkpt><trkpt lat="39.99413656149759" lon="19.915240242468666"><ele>281.6666666666667</ele><time>2026-04-27T17:01:43.999Z</time></trkpt><trkpt lat="39.99404504560605" lon="19.915200312259124"><ele>283.5</ele><time>2026-04-27T17:01:44.999Z</time></trkpt><trkpt lat="39.993965913655884" lon="19.91513821705564"><ele>285.3333333333333</ele><time>2026-04-27T17:01:45.999Z</time></trkpt><trkpt lat="39.99389892905983" lon="19.915093460060927"><ele>287.16666666666663</ele><time>2026-04-27T17:01:46.999Z</time></trkpt><trkpt lat="39.99383502431674" lon="19.91505174437155"><ele>289.0</ele><time>2026-04-27T17:01:47.999Z</time></trkpt><trkpt lat="39.99378923079868" lon="19.914991255469108"><ele>285.42857142857144</ele><time>2026-04-27T17:01:48.999Z</time></trkpt><trkpt lat="39.99374242527168" lon="19.914926395735524"><ele>281.85714285714283</ele><time>2026-04-27T17:01:49.999Z</time></trkpt><trkpt lat="39.993694777618224" lon="19.91485205806312"><ele>278.2857142857143</ele><time>2026-04-27T17:01:50.999Z</time></trkpt><trkpt lat="39.99364254774696" lon="19.914762887978227"><ele>274.7142857142857</ele><time>2026-04-27T17:01:51.999Z</time></trkpt><trkpt lat="39.99357933051019" lon="19.914687833997597"><ele>271.14285714285717</ele><time>2026-04-27T17:01:52.999Z</time></trkpt><trkpt lat="39.99353016322569" lon="19.914624255919584"><ele>267.57142857142856</ele><time>2026-04-27T17:01:53.999Z</time></trkpt><trkpt lat="39.99347484885353" lon="19.914581593520907"><ele>264.0</ele><time>2026-04-27T17:01:54.999Z</time></trkpt><trkpt lat="39.9933325732348" lon="19.914543235112117"><ele>264.0</ele><time>2026-04-27T17:01:56.999Z</time></trkpt><trkpt lat="39.99323392828828" lon="19.914533784162614"><ele>264.0</ele><time>2026-04-27T17:01:57.999Z</time></trkpt><trkpt lat="39.99312574669221" lon="19.914524651071922"><ele>264.0</ele><time>2026-04-27T17:01:58.999Z</time></trkpt><trkpt lat="39.99301804430878" lon="19.91452617477342"><ele>264.0</ele><time>2026-04-27T17:01:59.999Z</time></trkpt><trkpt lat="39.99290206182239" lon="19.914526933033105"><ele>264.0</ele><time>2026-04-27T17:02:00.999Z</time></trkpt><trkpt lat="39.99279915257398" lon="19.91452121385206"><ele>264.0</ele><time>2026-04-27T17:02:01.999Z</time></trkpt><trkpt lat="39.99270179287438" lon="19.91453465002274"><ele>264.0</ele><time>2026-04-27T17:02:02.999Z</time></trkpt><trkpt lat="39.99260405511613" lon="19.91456936399168"><ele>264.0</ele><time>2026-04-27T17:02:03.999Z</time></trkpt><trkpt lat="39.992499168334156" lon="19.914627674224345"><ele>264.0</ele><time>2026-04-27T17:02:04.999Z</time></trkpt><trkpt lat="39.99239211683803" lon="19.914698922633825"><ele>264.0</ele><time>2026-04-27T17:02:05.999Z</time></trkpt><trkpt lat="39.99229610885121" lon="19.914772194906675"><ele>262.2</ele><time>2026-04-27T17:02:06.999Z</time></trkpt><trkpt lat="39.99220905934714" lon="19.91483380055823"><ele>260.4</ele><time>2026-04-27T17:02:07.999Z</time></trkpt><trkpt lat="39.99212137939657" lon="19.914888546638316"><ele>258.6</ele><time>2026-04-27T17:02:08.999Z</time></trkpt><trkpt lat="39.99203801280868" lon="19.914940980075574"><ele>256.8</ele><time>2026-04-27T17:02:09.999Z</time></trkpt><trkpt lat="39.991955472826206" lon="19.914996174536725"><ele>255.0</ele><time>2026-04-27T17:02:10.999Z</time></trkpt><trkpt lat="39.991871410579805" lon="19.915063523989755"><ele>255.4</ele><time>2026-04-27T17:02:11.999Z</time></trkpt><trkpt lat="39.9917841529951" lon="19.915131684536412"><ele>255.8</ele><time>2026-04-27T17:02:12.999Z</time></trkpt><trkpt lat="39.99169892600094" lon="19.915198297014058"><ele>256.2</ele><time>2026-04-27T17:02:13.999Z</time></trkpt><trkpt lat="39.9916163607614" lon="19.915245994344488"><ele>256.6</ele><time>2026-04-27T17:02:14.999Z</time></trkpt><trkpt lat="39.99152850228253" lon="19.915269429249136"><ele>257.0</ele><time>2026-04-27T17:02:15.999Z</time></trkpt><trkpt lat="39.991444066934235" lon="19.915267970053485"><ele>257.0</ele><time>2026-04-27T17:02:16.999Z</time></trkpt><trkpt lat="39.99135999896625" lon="19.91524180176399"><ele>257.0</ele><time>2026-04-27T17:02:17.999Z</time></trkpt><trkpt lat="39.99127545044006" lon="19.915198216328022"><ele>257.0</ele><time>2026-04-27T17:02:18.999Z</time></trkpt><trkpt lat="39.99122311061445" lon="19.91510826431433"><ele>257.0</ele><time>2026-04-27T17:02:19.999Z</time></trkpt><trkpt lat="39.99115228643244" lon="19.915051382939325"><ele>257.0</ele><time>2026-04-27T17:02:20.999Z</time></trkpt><trkpt lat="39.99109321125944" lon="19.914981989781754"><ele>257.0</ele><time>2026-04-27T17:02:21.999Z</time></trkpt><trkpt lat="39.99103114561794" lon="19.91494052883693"><ele>253.2</ele><time>2026-04-27T17:02:22.999Z</time></trkpt><trkpt lat="39.990958528081386" lon="19.914913712592643"><ele>249.39999999999998</ele><time>2026-04-27T17:02:23.999Z</time></trkpt><trkpt lat="39.9908673294451" lon="19.91491589003035"><ele>245.60000000000002</ele><time>2026-04-27T17:02:24.999Z</time></trkpt><trkpt lat="39.99076564281731" lon="19.914944956358255"><ele>241.8</ele><time>2026-04-27T17:02:25.999Z</time></trkpt><trkpt lat="39.99065213012489" lon="19.914991077605738"><ele>238.0</ele><time>2026-04-27T17:02:26.999Z</time></trkpt><trkpt lat="39.9905277321315" lon="19.91503916361779"><ele>243.0</ele><time>2026-04-27T17:02:27.999Z</time></trkpt><trkpt lat="39.99039337088615" lon="19.915094679709732"><ele>248.0</ele><time>2026-04-27T17:02:28.999Z</time></trkpt><trkpt lat="39.99026604068794" lon="19.91514495232475"><ele>253.0</ele><time>2026-04-27T17:02:29.999Z</time></trkpt><trkpt lat="39.990145450104635" lon="19.915187571369923"><ele>258.0</ele><time>2026-04-27T17:02:30.999Z</time></trkpt><trkpt lat="39.990015254276486" lon="19.915228170345564"><ele>256.25</ele><time>2026-04-27T17:02:31.999Z</time></trkpt><trkpt lat="39.98987643510411" lon="19.91525834342337"><ele>254.5</ele><time>2026-04-27T17:02:32.999Z</time></trkpt><trkpt lat="39.98972898283115" lon="19.91528306929785"><ele>252.75</ele><time>2026-04-27T17:02:33.999Z</time></trkpt><trkpt lat="39.98958666861134" lon="19.915301520971973"><ele>251.0</ele><time>2026-04-27T17:02:34.999Z</time></trkpt><trkpt lat="39.98945184227449" lon="19.91531853501443"><ele>251.0</ele><time>2026-04-27T17:02:35.999Z</time></trkpt><trkpt lat="39.989320896775645" lon="19.915324241248754"><ele>251.0</ele><time>2026-04-27T17:02:36.999Z</time></trkpt><trkpt lat="39.98917926348987" lon="19.91530254476454"><ele>251.0</ele><time>2026-04-27T17:02:37.999Z</time></trkpt><trkpt lat="39.98903497131137" lon="19.915222961838815"><ele>251.0</ele><time>2026-04-27T17:02:38.999Z</time></trkpt><trkpt lat="39.98888007036157" lon="19.915156004057287"><ele>249.25</ele><time>2026-04-27T17:02:39.999Z</time></trkpt><trkpt lat="39.98873100242982" lon="19.915086618167063"><ele>247.5</ele><time>2026-04-27T17:02:40.999Z</time></trkpt><trkpt lat="39.988592226038435" lon="19.915048837457785"><ele>245.75</ele><time>2026-04-27T17:02:41.999Z</time></trkpt><trkpt lat="39.988460430628685" lon="19.9150004263562"><ele>244.0</ele><time>2026-04-27T17:02:42.999Z</time></trkpt><trkpt lat="39.98831864991103" lon="19.91498771066075"><ele>244.0</ele><time>2026-04-27T17:02:43.999Z</time></trkpt><trkpt lat="39.98817117516198" lon="19.915016516968972"><ele>244.0</ele><time>2026-04-27T17:02:45Z</time></trkpt><trkpt lat="39.988023442122284" lon="19.915086892589652"><ele>244.0</ele><time>2026-04-27T17:02:46Z</time></trkpt><trkpt lat="39.987883836470026" lon="19.915194198855026"><ele>244.0</ele><time>2026-04-27T17:02:47Z</time></trkpt><trkpt lat="39.987745325897144" lon="19.91532353157291"><ele>244.0</ele><time>2026-04-27T17:02:48Z</time></trkpt><trkpt lat="39.987606267423345" lon="19.915454641962565"><ele>244.0</ele><time>2026-04-27T17:02:49Z</time></trkpt><trkpt lat="39.98748297825508" lon="19.915567072383382"><ele>244.75</ele><time>2026-04-27T17:02:50Z</time></trkpt><trkpt lat="39.987373446475175" lon="19.915668812679872"><ele>245.5</ele><time>2026-04-27T17:02:51Z</time></trkpt><trkpt lat="39.987267902003175" lon="19.915804090225823"><ele>246.25</ele><time>2026-04-27T17:02:52Z</time></trkpt><trkpt lat="39.98721425940058" lon="19.915954797328766"><ele>247.0</ele><time>2026-04-27T17:02:53Z</time></trkpt><trkpt lat="39.98714807097949" lon="19.91616261367719"><ele>247.0</ele><time>2026-04-27T17:02:54Z</time></trkpt><trkpt lat="39.987047030918966" lon="19.916375338844126"><ele>247.0</ele><time>2026-04-27T17:02:55Z</time></trkpt><trkpt lat="39.98690880832512" lon="19.91655987612844"><ele>247.0</ele><time>2026-04-27T17:02:56Z</time></trkpt><trkpt lat="39.986786194534616" lon="19.91671099020667"><ele>250.75</ele><time>2026-04-27T17:02:57Z</time></trkpt><trkpt lat="39.98668512999694" lon="19.916833659086464"><ele>254.5</ele><time>2026-04-27T17:02:58Z</time></trkpt><trkpt lat="39.98659475788884" lon="19.916958675971557"><ele>258.25</ele><time>2026-04-27T17:02:59Z</time></trkpt><trkpt lat="39.98652336567662" lon="19.917107298378887"><ele>262.0</ele><time>2026-04-27T17:03:00Z</time></trkpt><trkpt lat="39.98649610548257" lon="19.917273315470887"><ele>251.66666666666666</ele><time>2026-04-27T17:03:01Z</time></trkpt><trkpt lat="39.98649998083188" lon="19.917457446273527"><ele>241.33333333333331</ele><time>2026-04-27T17:03:02Z</time></trkpt><trkpt lat="39.986543299969775" lon="19.917678450220563"><ele>231.0</ele><time>2026-04-27T17:03:03Z</time></trkpt><trkpt lat="39.98659157564362" lon="19.917918506356838"><ele>231.0</ele><time>2026-04-27T17:03:04Z</time></trkpt><trkpt lat="39.98661700591567" lon="19.918185919488103"><ele>231.0</ele><time>2026-04-27T17:03:05Z</time></trkpt><trkpt lat="39.98666838777214" lon="19.91844127451129"><ele>231.0</ele><time>2026-04-27T17:03:06Z</time></trkpt><trkpt lat="39.986701601518" lon="19.9187031096657"><ele>239.33333333333331</ele><time>2026-04-27T17:03:07Z</time></trkpt><trkpt lat="39.98670485143747" lon="19.91896407030442"><ele>247.66666666666666</ele><time>2026-04-27T17:03:08Z</time></trkpt><trkpt lat="39.9866879782545" lon="19.919218360697233"><ele>256.0</ele><time>2026-04-27T17:03:09Z</time></trkpt><trkpt lat="39.986649994102116" lon="19.919447077074622"><ele>256.0</ele><time>2026-04-27T17:03:10Z</time></trkpt><trkpt lat="39.986588881319776" lon="19.919673621399482"><ele>256.0</ele><time>2026-04-27T17:03:11Z</time></trkpt><trkpt lat="39.986524215077345" lon="19.919889417624272"><ele>256.0</ele><time>2026-04-27T17:03:12Z</time></trkpt><trkpt lat="39.98645887969847" lon="19.920046155153504"><ele>259.6</ele><time>2026-04-27T17:03:13Z</time></trkpt><trkpt lat="39.98638299135388" lon="19.920153971018074"><ele>263.20000000000005</ele><time>2026-04-27T17:03:14Z</time></trkpt><trkpt lat="39.98629981553896" lon="19.920227315172568"><ele>266.79999999999995</ele><time>2026-04-27T17:03:14.999Z</time></trkpt><trkpt lat="39.986205126742156" lon="19.92024456975955"><ele>270.4</ele><time>2026-04-27T17:03:15.999Z</time></trkpt><trkpt lat="39.98606526241089" lon="19.920249561665415"><ele>274.0</ele><time>2026-04-27T17:03:16.999Z</time></trkpt><trkpt lat="39.9858999717445" lon="19.920263454627086"><ele>272.0</ele><time>2026-04-27T17:03:17.999Z</time></trkpt><trkpt lat="39.98571423629751" lon="19.920240220000498"><ele>270.0</ele><time>2026-04-27T17:03:18.999Z</time></trkpt><trkpt lat="39.985511171834304" lon="19.920191715605828"><ele>268.0</ele><time>2026-04-27T17:03:19.999Z</time></trkpt><trkpt lat="39.9852959266843" lon="19.920155243899977"><ele>268.0</ele><time>2026-04-27T17:03:20.999Z</time></trkpt><trkpt lat="39.985090617227655" lon="19.92012958019791"><ele>268.0</ele><time>2026-04-27T17:03:21.999Z</time></trkpt><trkpt lat="39.984890076465696" lon="19.92010451261426"><ele>268.0</ele><time>2026-04-27T17:03:22.999Z</time></trkpt><trkpt lat="39.984696961517194" lon="19.920098986122987"><ele>269.3333333333333</ele><time>2026-04-27T17:03:23.999Z</time></trkpt><trkpt lat="39.98451627215621" lon="19.920080988543873"><ele>270.6666666666667</ele><time>2026-04-27T17:03:24.999Z</time></trkpt><trkpt lat="39.984331896438185" lon="19.92007517870465"><ele>272.0</ele><time>2026-04-27T17:03:25.999Z</time></trkpt><trkpt lat="39.98415501153065" lon="19.920064789297115"><ele>272.0</ele><time>2026-04-27T17:03:26.999Z</time></trkpt><trkpt lat="39.98398802192541" lon="19.92002183614806"><ele>272.0</ele><time>2026-04-27T17:03:27.999Z</time></trkpt><trkpt lat="39.98385569689419" lon="19.919882331049582"><ele>272.0</ele><time>2026-04-27T17:03:28.999Z</time></trkpt><trkpt lat="39.983704665982444" lon="19.91976998028234"><ele>272.0</ele><time>2026-04-27T17:03:29.999Z</time></trkpt><trkpt lat="39.98359139305661" lon="19.919617558829387"><ele>272.0</ele><time>2026-04-27T17:03:30.999Z</time></trkpt><trkpt lat="39.98348849326267" lon="19.91953164112514"><ele>272.0</ele><time>2026-04-27T17:03:31.999Z</time></trkpt><trkpt lat="39.98338659876409" lon="19.919495982485373"><ele>272.0</ele><time>2026-04-27T17:03:32.999Z</time></trkpt><trkpt lat="39.98329451394374" lon="19.919520654931517"><ele>273.25</ele><time>2026-04-27T17:03:33.999Z</time></trkpt><trkpt lat="39.9832102301093" lon="19.919608301398608"><ele>274.5</ele><time>2026-04-27T17:03:34.999Z</time></trkpt><trkpt lat="39.983138865050975" lon="19.919748156456794"><ele>275.75</ele><time>2026-04-27T17:03:35.999Z</time></trkpt><trkpt lat="39.983089208499" lon="19.9199296008532"><ele>277.0</ele><time>2026-04-27T17:03:36.999Z</time></trkpt><trkpt lat="39.98305451051979" lon="19.9201477665417"><ele>281.3333333333333</ele><time>2026-04-27T17:03:37.999Z</time></trkpt><trkpt lat="39.983022793943405" lon="19.920386839024975"><ele>285.6666666666667</ele><time>2026-04-27T17:03:38.999Z</time></trkpt><trkpt lat="39.98300450338161" lon="19.92064766059899"><ele>290.0</ele><time>2026-04-27T17:03:39.999Z</time></trkpt><trkpt lat="39.98299738751825" lon="19.920920017927656"><ele>294.0</ele><time>2026-04-27T17:03:40.999Z</time></trkpt><trkpt lat="39.98298441776225" lon="19.92116731700751"><ele>298.0</ele><time>2026-04-27T17:03:41.999Z</time></trkpt><trkpt lat="39.982961305045606" lon="19.92138228537052"><ele>302.0</ele><time>2026-04-27T17:03:42.999Z</time></trkpt><trkpt lat="39.982910354518346" lon="19.921580957243407"><ele>309.0</ele><time>2026-04-27T17:03:43.999Z</time></trkpt><trkpt lat="39.98280774198728" lon="19.921768530840303"><ele>316.0</ele><time>2026-04-27T17:03:44.999Z</time></trkpt><trkpt lat="39.98268422549636" lon="19.921944818862706"><ele>323.0</ele><time>2026-04-27T17:03:45.999Z</time></trkpt><trkpt lat="39.98253424705418" lon="19.92210705396677"><ele>315.33333333333337</ele><time>2026-04-27T17:03:46.999Z</time></trkpt><trkpt lat="39.98236457229297" lon="19.922242859523635"><ele>307.6666666666667</ele><time>2026-04-27T17:03:47.999Z</time></trkpt><trkpt lat="39.98219075717936" lon="19.92237787379793"><ele>300.0</ele><time>2026-04-27T17:03:48.999Z</time></trkpt><trkpt lat="39.98202423471832" lon="19.922466471728544"><ele>300.0</ele><time>2026-04-27T17:03:49.999Z</time></trkpt><trkpt lat="39.98187377334633" lon="19.92252559011777"><ele>300.0</ele><time>2026-04-27T17:03:50.999Z</time></trkpt><trkpt lat="39.98174579057444" lon="19.9225828853788"><ele>300.0</ele><time>2026-04-27T17:03:51.999Z</time></trkpt><trkpt lat="39.98164095457541" lon="19.922684980423472"><ele>300.0</ele><time>2026-04-27T17:03:52.999Z</time></trkpt><trkpt lat="39.98155333049295" lon="19.92283693019775"><ele>301.0</ele><time>2026-04-27T17:03:53.999Z</time></trkpt><trkpt lat="39.98148331149185" lon="19.923023435800644"><ele>302.0</ele><time>2026-04-27T17:03:54.999Z</time></trkpt><trkpt lat="39.98143009800486" lon="19.92323907101151"><ele>303.0</ele><time>2026-04-27T17:03:55.999Z</time></trkpt><trkpt lat="39.98137826944203" lon="19.923480040600218"><ele>305.6666666666667</ele><time>2026-04-27T17:03:56.999Z</time></trkpt><trkpt lat="39.98129797373034" lon="19.923734219260563"><ele>308.33333333333337</ele><time>2026-04-27T17:03:57.999Z</time></trkpt><trkpt lat="39.981222762831464" lon="19.92400451111243"><ele>311.0</ele><time>2026-04-27T17:03:58.999Z</time></trkpt><trkpt lat="39.98115483315048" lon="19.92425714244619"><ele>308.33333333333337</ele><time>2026-04-27T17:03:59.999Z</time></trkpt><trkpt lat="39.981056828847514" lon="19.92448039401851"><ele>305.6666666666667</ele><time>2026-04-27T17:04:00.999Z</time></trkpt><trkpt lat="39.980940638260876" lon="19.924690135642294"><ele>303.0</ele><time>2026-04-27T17:04:01.999Z</time></trkpt><trkpt lat="39.98078035989803" lon="19.92482754667753"><ele>303.0</ele><time>2026-04-27T17:04:02.999Z</time></trkpt><trkpt lat="39.98062224858169" lon="19.924938959156794"><ele>303.0</ele><time>2026-04-27T17:04:03.999Z</time></trkpt><trkpt lat="39.980456993039155" lon="19.925062555455412"><ele>303.0</ele><time>2026-04-27T17:04:04.999Z</time></trkpt><trkpt lat="39.98027788975165" lon="19.92518573720966"><ele>302.0</ele><time>2026-04-27T17:04:05.999Z</time></trkpt><trkpt lat="39.98012067592564" lon="19.925329320580968"><ele>301.0</ele><time>2026-04-27T17:04:06.999Z</time></trkpt><trkpt lat="39.97998840255039" lon="19.925463784324197"><ele>300.0</ele><time>2026-04-27T17:04:07.999Z</time></trkpt><trkpt lat="39.979888357316604" lon="19.925598873471774"><ele>300.0</ele><time>2026-04-27T17:04:08.999Z</time></trkpt><trkpt lat="39.979824524439124" lon="19.925743888552404"><ele>300.0</ele><time>2026-04-27T17:04:09.999Z</time></trkpt><trkpt lat="39.97980293605619" lon="19.925907211645914"><ele>300.0</ele><time>2026-04-27T17:04:10.999Z</time></trkpt><trkpt lat="39.97980938570219" lon="19.926107629457682"><ele>300.0</ele><time>2026-04-27T17:04:11.999Z</time></trkpt><trkpt lat="39.97983299778448" lon="19.926347858358138"><ele>301.3333333333333</ele><time>2026-04-27T17:04:12.999Z</time></trkpt><trkpt lat="39.97979782915629" lon="19.926587691348512"><ele>302.66666666666663</ele><time>2026-04-27T17:04:13.999Z</time></trkpt><trkpt lat="39.97971259883782" lon="19.926824644926047"><ele>304.0</ele><time>2026-04-27T17:04:14.999Z</time></trkpt><trkpt lat="39.979608083893574" lon="19.92708201738439"><ele>309.66666666666663</ele><time>2026-04-27T17:04:15.999Z</time></trkpt><trkpt lat="39.9795107763277" lon="19.927297002933493"><ele>315.3333333333333</ele><time>2026-04-27T17:04:16.999Z</time></trkpt><trkpt lat="39.97937389128771" lon="19.927449945398326"><ele>321.0</ele><time>2026-04-27T17:04:17.999Z</time></trkpt><trkpt lat="39.979219042625154" lon="19.927581175211014"><ele>320.3333333333333</ele><time>2026-04-27T17:04:18.999Z</time></trkpt><trkpt lat="39.97905343387528" lon="19.92767978908336"><ele>319.66666666666663</ele><time>2026-04-27T17:04:19.999Z</time></trkpt><trkpt lat="39.978894500465834" lon="19.927711387629227"><ele>319.0</ele><time>2026-04-27T17:04:20.999Z</time></trkpt><trkpt lat="39.97875083245197" lon="19.927751273682254"><ele>319.0</ele><time>2026-04-27T17:04:21.999Z</time></trkpt><trkpt lat="39.978632895351474" lon="19.927768231358797"><ele>319.0</ele><time>2026-04-27T17:04:22.999Z</time></trkpt><trkpt lat="39.97854934369097" lon="19.92785780838129"><ele>319.0</ele><time>2026-04-27T17:04:23.999Z</time></trkpt><trkpt lat="39.9784910211691" lon="19.92799809447424"><ele>319.0</ele><time>2026-04-27T17:04:24.999Z</time></trkpt><trkpt lat="39.9784623157135" lon="19.928175050900453"><ele>319.0</ele><time>2026-04-27T17:04:25.999Z</time></trkpt><trkpt lat="39.978455509191846" lon="19.928375673959653"><ele>319.0</ele><time>2026-04-27T17:04:26.999Z</time></trkpt><trkpt lat="39.97842861506713" lon="19.92856038492926"><ele>319.0</ele><time>2026-04-27T17:04:27.999Z</time></trkpt><trkpt lat="39.978331761310585" lon="19.92870321590791"><ele>319.0</ele><time>2026-04-27T17:04:28.999Z</time></trkpt><trkpt lat="39.97821437487321" lon="19.928834421215015"><ele>314.25</ele><time>2026-04-27T17:04:29.999Z</time></trkpt><trkpt lat="39.97813284785858" lon="19.928967582336117"><ele>309.5</ele><time>2026-04-27T17:04:30.999Z</time></trkpt><trkpt lat="39.978094262818914" lon="19.929127372656993"><ele>304.75</ele><time>2026-04-27T17:04:31.999Z</time></trkpt><trkpt lat="39.978091915702315" lon="19.929315539104103"><ele>300.0</ele><time>2026-04-27T17:04:32.999Z</time></trkpt><trkpt lat="39.97811021219948" lon="19.92951741916386"><ele>300.0</ele><time>2026-04-27T17:04:33.999Z</time></trkpt><trkpt lat="39.978100278137276" lon="19.929699808965783"><ele>300.0</ele><time>2026-04-27T17:04:34.999Z</time></trkpt><trkpt lat="39.978045749473374" lon="19.929869814695415"><ele>300.0</ele><time>2026-04-27T17:04:35.999Z</time></trkpt><trkpt lat="39.97796816262919" lon="19.930018320121427"><ele>300.0</ele><time>2026-04-27T17:04:36.999Z</time></trkpt><trkpt lat="39.97792458596127" lon="19.93016672672433"><ele>299.5</ele><time>2026-04-27T17:04:37.999Z</time></trkpt><trkpt lat="39.97793088005378" lon="19.93035449681843"><ele>299.0</ele><time>2026-04-27T17:04:38.999Z</time></trkpt><trkpt lat="39.97796854321823" lon="19.930549588584288"><ele>298.5</ele><time>2026-04-27T17:04:39.999Z</time></trkpt><trkpt lat="39.97800349873374" lon="19.93073874967771"><ele>298.0</ele><time>2026-04-27T17:04:40.999Z</time></trkpt><trkpt lat="39.978011907730384" lon="19.930953311319236"><ele>295.66666666666663</ele><time>2026-04-27T17:04:41.999Z</time></trkpt><trkpt lat="39.97798948914962" lon="19.931158891778953"><ele>293.3333333333333</ele><time>2026-04-27T17:04:42.999Z</time></trkpt><trkpt lat="39.977950548643115" lon="19.931350137240745"><ele>291.0</ele><time>2026-04-27T17:04:43.999Z</time></trkpt><trkpt lat="39.97793110856585" lon="19.93153217742163"><ele>291.0</ele><time>2026-04-27T17:04:44.999Z</time></trkpt><trkpt lat="39.97794952097169" lon="19.931698786634886"><ele>291.0</ele><time>2026-04-27T17:04:45.999Z</time></trkpt><trkpt lat="39.97800296430862" lon="19.931852062424152"><ele>291.0</ele><time>2026-04-27T17:04:46.999Z</time></trkpt><trkpt lat="39.97809910846054" lon="19.93199384171279"><ele>291.0</ele><time>2026-04-27T17:04:47.999Z</time></trkpt><trkpt lat="39.97822211581665" lon="19.9321441731347"><ele>289.0</ele><time>2026-04-27T17:04:48.999Z</time></trkpt><trkpt lat="39.978339758163955" lon="19.932331586904958"><ele>287.0</ele><time>2026-04-27T17:04:49.999Z</time></trkpt><trkpt lat="39.9784516029998" lon="19.932495751313787"><ele>285.0</ele><time>2026-04-27T17:04:51Z</time></trkpt><trkpt lat="39.978548190726954" lon="19.93266637292938"><ele>285.0</ele><time>2026-04-27T17:04:52Z</time></trkpt><trkpt lat="39.97861658555804" lon="19.932843403983995"><ele>285.0</ele><time>2026-04-27T17:04:53Z</time></trkpt><trkpt lat="39.97867234549051" lon="19.933026883060567"><ele>285.0</ele><time>2026-04-27T17:04:54Z</time></trkpt><trkpt lat="39.97874282278983" lon="19.93320781416177"><ele>279.6666666666667</ele><time>2026-04-27T17:04:55Z</time></trkpt><trkpt lat="39.97881340915427" lon="19.933392443649087"><ele>274.33333333333337</ele><time>2026-04-27T17:04:56Z</time></trkpt><trkpt lat="39.97892448306746" lon="19.9335641001412"><ele>269.0</ele><time>2026-04-27T17:04:57Z</time></trkpt><trkpt lat="39.97905993198218" lon="19.933725835749833"><ele>269.0</ele><time>2026-04-27T17:04:58Z</time></trkpt><trkpt lat="39.97917773868532" lon="19.93386292315242"><ele>269.0</ele><time>2026-04-27T17:04:59Z</time></trkpt><trkpt lat="39.97926435029943" lon="19.933999859850882"><ele>269.0</ele><time>2026-04-27T17:05:00Z</time></trkpt><trkpt lat="39.97931721975616" lon="19.934146909061788"><ele>269.0</ele><time>2026-04-27T17:05:01Z</time></trkpt><trkpt lat="39.979311011726" lon="19.93429529861232"><ele>271.25</ele><time>2026-04-27T17:05:02Z</time></trkpt><trkpt lat="39.9792518733754" lon="19.934428029050732"><ele>273.5</ele><time>2026-04-27T17:05:03Z</time></trkpt><trkpt lat="39.979135493143446" lon="19.934522919082944"><ele>275.75</ele><time>2026-04-27T17:05:04Z</time></trkpt><trkpt lat="39.978999396285055" lon="19.93463279111845"><ele>278.0</ele><time>2026-04-27T17:05:05Z</time></trkpt><trkpt lat="39.97885748228052" lon="19.93477651744533"><ele>278.0</ele><time>2026-04-27T17:05:06Z</time></trkpt><trkpt lat="39.978714278919" lon="19.934950038776037"><ele>278.0</ele><time>2026-04-27T17:05:07Z</time></trkpt><trkpt lat="39.97856671190984" lon="19.935182661758148"><ele>278.0</ele><time>2026-04-27T17:05:08Z</time></trkpt><trkpt lat="39.97843797739119" lon="19.9353991991333"><ele>277.33333333333337</ele><time>2026-04-27T17:05:09Z</time></trkpt><trkpt lat="39.97831842263381" lon="19.93560259366068"><ele>276.6666666666667</ele><time>2026-04-27T17:05:10Z</time></trkpt><trkpt lat="39.97820855919119" lon="19.93579406690587"><ele>276.0</ele><time>2026-04-27T17:05:11Z</time></trkpt><trkpt lat="39.97811519889536" lon="19.935965795628217"><ele>276.0</ele><time>2026-04-27T17:05:12Z</time></trkpt><trkpt lat="39.97803557414361" lon="19.936154081906043"><ele>276.0</ele><time>2026-04-27T17:05:13Z</time></trkpt><trkpt lat="39.97797696158799" lon="19.9363698980332"><ele>276.0</ele><time>2026-04-27T17:05:14Z</time></trkpt><trkpt lat="39.977948482433206" lon="19.936620206014258"><ele>278.0</ele><time>2026-04-27T17:05:15Z</time></trkpt><trkpt lat="39.97794170976269" lon="19.936873867914542"><ele>280.0</ele><time>2026-04-27T17:05:16Z</time></trkpt><trkpt lat="39.97794808764499" lon="19.937098267016466"><ele>282.0</ele><time>2026-04-27T17:05:17Z</time></trkpt><trkpt lat="39.97793021384972" lon="19.937307629729453"><ele>282.0</ele><time>2026-04-27T17:05:18Z</time></trkpt><trkpt lat="39.977874194069734" lon="19.937509083414174"><ele>282.0</ele><time>2026-04-27T17:05:18.999Z</time></trkpt><trkpt lat="39.9777880386794" lon="19.937714686285823"><ele>282.0</ele><time>2026-04-27T17:05:19.999Z</time></trkpt><trkpt lat="39.97766608382467" lon="19.937897082317715"><ele>280.6666666666667</ele><time>2026-04-27T17:05:20.999Z</time></trkpt><trkpt lat="39.977549385217564" lon="19.93809419474421"><ele>279.33333333333337</ele><time>2026-04-27T17:05:21.999Z</time></trkpt><trkpt lat="39.9774158150472" lon="19.938285538101002"><ele>278.0</ele><time>2026-04-27T17:05:22.999Z</time></trkpt><trkpt lat="39.97729740028579" lon="19.938489053301584"><ele>278.0</ele><time>2026-04-27T17:05:23.999Z</time></trkpt><trkpt lat="39.97719622507862" lon="19.93867051371663"><ele>278.0</ele><time>2026-04-27T17:05:24.999Z</time></trkpt><trkpt lat="39.977111826786675" lon="19.93880990171842"><ele>278.0</ele><time>2026-04-27T17:05:25.999Z</time></trkpt><trkpt lat="39.977034455345084" lon="19.938929702448437"><ele>278.0</ele><time>2026-04-27T17:05:26.999Z</time></trkpt><trkpt lat="39.97697673833072" lon="19.939068795892307"><ele>277.0</ele><time>2026-04-27T17:05:27.999Z</time></trkpt><trkpt lat="39.976955533377" lon="19.939231462989497"><ele>276.0</ele><time>2026-04-27T17:05:28.999Z</time></trkpt><trkpt lat="39.97697587973771" lon="19.93941374766628"><ele>275.0</ele><time>2026-04-27T17:05:29.999Z</time></trkpt><trkpt lat="39.97702975372152" lon="19.939620795341472"><ele>274.0</ele><time>2026-04-27T17:05:30.999Z</time></trkpt><trkpt lat="39.97709370533599" lon="19.939845032010002"><ele>272.66666666666663</ele><time>2026-04-27T17:05:31.999Z</time></trkpt><trkpt lat="39.97713650775922" lon="19.940059001485583"><ele>271.3333333333333</ele><time>2026-04-27T17:05:32.999Z</time></trkpt><trkpt lat="39.977152835168866" lon="19.940273286075307"><ele>270.0</ele><time>2026-04-27T17:05:33.999Z</time></trkpt><trkpt lat="39.97714298232007" lon="19.940480019968312"><ele>270.0</ele><time>2026-04-27T17:05:34.999Z</time></trkpt><trkpt lat="39.97710740485614" lon="19.940684562187137"><ele>270.0</ele><time>2026-04-27T17:05:35.999Z</time></trkpt><trkpt lat="39.97703023921981" lon="19.940887784236896"><ele>270.0</ele><time>2026-04-27T17:05:36.999Z</time></trkpt><trkpt lat="39.976967346639235" lon="19.941116377654552"><ele>270.0</ele><time>2026-04-27T17:05:37.999Z</time></trkpt><trkpt lat="39.976891664248036" lon="19.941291970693857"><ele>270.0</ele><time>2026-04-27T17:05:38.999Z</time></trkpt><trkpt lat="39.976834964309546" lon="19.941453502433465"><ele>270.0</ele><time>2026-04-27T17:05:39.999Z</time></trkpt><trkpt lat="39.976810687935895" lon="19.941627905957052"><ele>270.0</ele><time>2026-04-27T17:05:40.999Z</time></trkpt><trkpt lat="39.97682477172851" lon="19.94181667059179"><ele>271.6666666666667</ele><time>2026-04-27T17:05:41.999Z</time></trkpt><trkpt lat="39.97687838605659" lon="19.94201194652708"><ele>273.33333333333337</ele><time>2026-04-27T17:05:42.999Z</time></trkpt><trkpt lat="39.97695957202188" lon="19.942218142785524"><ele>275.0</ele><time>2026-04-27T17:05:43.999Z</time></trkpt><trkpt lat="39.97701080109834" lon="19.942407114034868"><ele>277.33333333333337</ele><time>2026-04-27T17:05:44.999Z</time></trkpt><trkpt lat="39.9769942237317" lon="19.942627009490373"><ele>279.6666666666667</ele><time>2026-04-27T17:05:45.999Z</time></trkpt><trkpt lat="39.97695696278471" lon="19.942890510167594"><ele>282.0</ele><time>2026-04-27T17:05:46.999Z</time></trkpt><trkpt lat="39.97690016473135" lon="19.94317247857864"><ele>282.6666666666667</ele><time>2026-04-27T17:05:47.999Z</time></trkpt><trkpt lat="39.97684346424222" lon="19.943437467124028"><ele>283.33333333333337</ele><time>2026-04-27T17:05:48.999Z</time></trkpt><trkpt lat="39.97678678909932" lon="19.943704870508526"><ele>284.0</ele><time>2026-04-27T17:05:49.999Z</time></trkpt><trkpt lat="39.97673824696719" lon="19.94398029489654"><ele>260.0</ele><time>2026-04-27T17:05:50.999Z</time></trkpt><trkpt lat="39.976680719664564" lon="19.94429605303325"><ele>236.0</ele><time>2026-04-27T17:05:51.999Z</time></trkpt><trkpt lat="39.97663416720145" lon="19.9446629334593"><ele>236.0</ele><time>2026-04-27T17:05:52.999Z</time></trkpt><trkpt lat="39.97660393757976" lon="19.944982295498473"><ele>236.0</ele><time>2026-04-27T17:05:53.999Z</time></trkpt><trkpt lat="39.97659576907446" lon="19.945255132045546"><ele>235.66666666666669</ele><time>2026-04-27T17:05:54.999Z</time></trkpt><trkpt lat="39.976556150537604" lon="19.945506468404993"><ele>235.33333333333331</ele><time>2026-04-27T17:05:55.999Z</time></trkpt><trkpt lat="39.97650157140451" lon="19.94571493027929"><ele>235.0</ele><time>2026-04-27T17:05:56.999Z</time></trkpt><trkpt lat="39.97642139155513" lon="19.945881613771352"><ele>234.66666666666666</ele><time>2026-04-27T17:05:57.999Z</time></trkpt><trkpt lat="39.97627440233013" lon="19.945978096944955"><ele>234.33333333333331</ele><time>2026-04-27T17:05:58.999Z</time></trkpt><trkpt lat="39.97607047067484" lon="19.946117622342314"><ele>234.0</ele><time>2026-04-27T17:05:59.999Z</time></trkpt><trkpt lat="39.975835423463565" lon="19.94624480488679"><ele>234.0</ele><time>2026-04-27T17:06:00.999Z</time></trkpt><trkpt lat="39.9756260250017" lon="19.946361278748796"><ele>234.0</ele><time>2026-04-27T17:06:01.999Z</time></trkpt><trkpt lat="39.97545858778774" lon="19.946466043229037"><ele>234.0</ele><time>2026-04-27T17:06:02.999Z</time></trkpt><trkpt lat="39.9753267210524" lon="19.94657107310783"><ele>233.0</ele><time>2026-04-27T17:06:03.999Z</time></trkpt><trkpt lat="39.97520065574257" lon="19.946716178956777"><ele>232.0</ele><time>2026-04-27T17:06:04.999Z</time></trkpt><trkpt lat="39.97508159818266" lon="19.94692080691684"><ele>231.0</ele><time>2026-04-27T17:06:05.999Z</time></trkpt><trkpt lat="39.97493716731246" lon="19.947177689922782"><ele>231.0</ele><time>2026-04-27T17:06:06.999Z</time></trkpt><trkpt lat="39.97474271213903" lon="19.947379103826258"><ele>231.0</ele><time>2026-04-27T17:06:07.999Z</time></trkpt><trkpt lat="39.974555861937816" lon="19.94756445092942"><ele>233.5</ele><time>2026-04-27T17:06:08.999Z</time></trkpt><trkpt lat="39.97432668345861" lon="19.947730316817474"><ele>236.0</ele><time>2026-04-27T17:06:09.999Z</time></trkpt><trkpt lat="39.97405753084194" lon="19.947939535471402"><ele>236.0</ele><time>2026-04-27T17:06:10.999Z</time></trkpt><trkpt lat="39.97376569596636" lon="19.948132457248004"><ele>236.0</ele><time>2026-04-27T17:06:11.999Z</time></trkpt><trkpt lat="39.973499150534245" lon="19.948320922005323"><ele>235.66666666666669</ele><time>2026-04-27T17:06:12.999Z</time></trkpt><trkpt lat="39.973295087054176" lon="19.948469713452383"><ele>235.33333333333331</ele><time>2026-04-27T17:06:13.999Z</time></trkpt><trkpt lat="39.97311680500351" lon="19.94859526870326"><ele>235.0</ele><time>2026-04-27T17:06:14.999Z</time></trkpt><trkpt lat="39.97294672249708" lon="19.948712012749212"><ele>235.0</ele><time>2026-04-27T17:06:15.999Z</time></trkpt><trkpt lat="39.972775811979346" lon="19.948836066198197"><ele>235.0</ele><time>2026-04-27T17:06:16.999Z</time></trkpt><trkpt lat="39.97260695779451" lon="19.94900366830254"><ele>235.0</ele><time>2026-04-27T17:06:17.999Z</time></trkpt><trkpt lat="39.97244672009837" lon="19.94923578434228"><ele>235.0</ele><time>2026-04-27T17:06:18.999Z</time></trkpt><trkpt lat="39.97228465352411" lon="19.949505969109023"><ele>235.0</ele><time>2026-04-27T17:06:19.999Z</time></trkpt><trkpt lat="39.97211467557082" lon="19.949698439124045"><ele>235.0</ele><time>2026-04-27T17:06:20.999Z</time></trkpt><trkpt lat="39.97192955860414" lon="19.94985233670282"><ele>235.0</ele><time>2026-04-27T17:06:21.999Z</time></trkpt><trkpt lat="39.971705913323234" lon="19.949981747927005"><ele>234.0</ele><time>2026-04-27T17:06:22.999Z</time></trkpt><trkpt lat="39.97150505420872" lon="19.950122970403008"><ele>233.0</ele><time>2026-04-27T17:06:23.999Z</time></trkpt><trkpt lat="39.97133587499955" lon="19.95020265476105"><ele>232.0</ele><time>2026-04-27T17:06:24.999Z</time></trkpt><trkpt lat="39.97119079357321" lon="19.95028616392288"><ele>232.0</ele><time>2026-04-27T17:06:25.999Z</time></trkpt><trkpt lat="39.97106582273262" lon="19.95038392071508"><ele>232.0</ele><time>2026-04-27T17:06:26.999Z</time></trkpt><trkpt lat="39.9709688880613" lon="19.950530463209198"><ele>232.0</ele><time>2026-04-27T17:06:27.999Z</time></trkpt><trkpt lat="39.9708863281294" lon="19.95074802894763"><ele>231.0</ele><time>2026-04-27T17:06:28.999Z</time></trkpt><trkpt lat="39.970797948625204" lon="19.951014658215616"><ele>230.0</ele><time>2026-04-27T17:06:29.999Z</time></trkpt><trkpt lat="39.970689136050694" lon="19.951258866978055"><ele>229.0</ele><time>2026-04-27T17:06:30.999Z</time></trkpt><trkpt lat="39.97053466468826" lon="19.95140203511684"><ele>229.0</ele><time>2026-04-27T17:06:31.999Z</time></trkpt><trkpt lat="39.97036860201512" lon="19.951563019987464"><ele>229.0</ele><time>2026-04-27T17:06:32.999Z</time></trkpt><trkpt lat="39.970158219711585" lon="19.9517468047318"><ele>233.5</ele><time>2026-04-27T17:06:33.999Z</time></trkpt><trkpt lat="39.96993377654068" lon="19.95193863168149"><ele>238.0</ele><time>2026-04-27T17:06:34.999Z</time></trkpt><trkpt lat="39.96974311031914" lon="19.95210004110648"><ele>238.0</ele><time>2026-04-27T17:06:35.999Z</time></trkpt><trkpt lat="39.96957455615096" lon="19.95224723109587"><ele>238.0</ele><time>2026-04-27T17:06:36.999Z</time></trkpt><trkpt lat="39.96941219752958" lon="19.95237921198168"><ele>238.0</ele><time>2026-04-27T17:06:37.999Z</time></trkpt><trkpt lat="39.969260129246884" lon="19.952505642562866"><ele>236.0</ele><time>2026-04-27T17:06:38.999Z</time></trkpt><trkpt lat="39.96911053881701" lon="19.95266188424869"><ele>234.0</ele><time>2026-04-27T17:06:39.999Z</time></trkpt><trkpt lat="39.96897438173457" lon="19.95287493426208"><ele>232.0</ele><time>2026-04-27T17:06:40.999Z</time></trkpt><trkpt lat="39.968852010762916" lon="19.953136429563315"><ele>233.33333333333331</ele><time>2026-04-27T17:06:41.999Z</time></trkpt><trkpt lat="39.96874336771879" lon="19.95339374819913"><ele>234.66666666666669</ele><time>2026-04-27T17:06:42.999Z</time></trkpt><trkpt lat="39.96866956381981" lon="19.953637118497006"><ele>236.0</ele><time>2026-04-27T17:06:43.999Z</time></trkpt><trkpt lat="39.968617257666025" lon="19.953875132849213"><ele>236.0</ele><time>2026-04-27T17:06:44.999Z</time></trkpt><trkpt lat="39.96854341724409" lon="19.954094754161122"><ele>236.0</ele><time>2026-04-27T17:06:45.999Z</time></trkpt><trkpt lat="39.96848470745402" lon="19.954303085385106"><ele>236.0</ele><time>2026-04-27T17:06:46.999Z</time></trkpt><trkpt lat="39.968593272129155" lon="19.954556161707348"><ele>235.5</ele><time>2026-04-27T17:06:47.999Z</time></trkpt><trkpt lat="39.968655477829984" lon="19.954766422030584"><ele>235.0</ele><time>2026-04-27T17:06:48.999Z</time></trkpt><trkpt lat="39.96870287096914" lon="19.95494756837604"><ele>234.5</ele><time>2026-04-27T17:06:49.999Z</time></trkpt><trkpt lat="39.96870447541167" lon="19.955103949236936"><ele>234.0</ele><time>2026-04-27T17:06:50.999Z</time></trkpt><trkpt lat="39.96864234840864" lon="19.955253147725927"><ele>230.66666666666669</ele><time>2026-04-27T17:06:51.999Z</time></trkpt><trkpt lat="39.968518684767574" lon="19.95541290678162"><ele>227.33333333333334</ele><time>2026-04-27T17:06:52.999Z</time></trkpt><trkpt lat="39.968357725826166" lon="19.955627500904505"><ele>224.0</ele><time>2026-04-27T17:06:53.999Z</time></trkpt><trkpt lat="39.968205657053275" lon="19.955915120911676"><ele>234.0</ele><time>2026-04-27T17:06:54.999Z</time></trkpt><trkpt lat="39.968057721265644" lon="19.95625957592269"><ele>244.0</ele><time>2026-04-27T17:06:55.999Z</time></trkpt><trkpt lat="39.96790738152278" lon="19.95660577599427"><ele>255.5</ele><time>2026-04-27T17:06:57Z</time></trkpt><trkpt lat="39.967765616779865" lon="19.95689014538888"><ele>267.0</ele><time>2026-04-27T17:06:58Z</time></trkpt><trkpt lat="39.9676405738239" lon="19.957123696187747"><ele>267.0</ele><time>2026-04-27T17:06:59Z</time></trkpt><trkpt lat="39.967527872248795" lon="19.957380367651705"><ele>267.0</ele><time>2026-04-27T17:07:00Z</time></trkpt><trkpt lat="39.96743150242414" lon="19.957688946884897"><ele>260.0</ele><time>2026-04-27T17:07:01Z</time></trkpt><trkpt lat="39.967338028401805" lon="19.95804413199902"><ele>253.0</ele><time>2026-04-27T17:07:02Z</time></trkpt><trkpt lat="39.96722893305051" lon="19.95842880460312"><ele>253.0</ele><time>2026-04-27T17:07:03Z</time></trkpt><trkpt lat="39.96711754764051" lon="19.95881545516302"><ele>253.0</ele><time>2026-04-27T17:07:04Z</time></trkpt><trkpt lat="39.96700870702944" lon="19.95921559760307"><ele>258.0</ele><time>2026-04-27T17:07:05Z</time></trkpt><trkpt lat="39.966906412198085" lon="19.959588486264277"><ele>263.0</ele><time>2026-04-27T17:07:06Z</time></trkpt><trkpt lat="39.966812798682" lon="19.959922245154022"><ele>270.0</ele><time>2026-04-27T17:07:07Z</time></trkpt><trkpt lat="39.96671892077558" lon="19.960229621844462"><ele>277.0</ele><time>2026-04-27T17:07:08Z</time></trkpt><trkpt lat="39.96660938860218" lon="19.960546970354773"><ele>264.0</ele><time>2026-04-27T17:07:09Z</time></trkpt><trkpt lat="39.96648829950922" lon="19.96084002532828"><ele>251.0</ele><time>2026-04-27T17:07:10Z</time></trkpt><trkpt lat="39.96634896544756" lon="19.961115887695485"><ele>251.0</ele><time>2026-04-27T17:07:11Z</time></trkpt><trkpt lat="39.96618523035781" lon="19.961385718411645"><ele>251.0</ele><time>2026-04-27T17:07:12Z</time></trkpt><trkpt lat="39.96601008570364" lon="19.961663575994148"><ele>241.0</ele><time>2026-04-27T17:07:13Z</time></trkpt><trkpt lat="39.965840483994214" lon="19.96195428394497"><ele>231.0</ele><time>2026-04-27T17:07:14Z</time></trkpt><trkpt lat="39.96568617247945" lon="19.96222362081689"><ele>231.0</ele><time>2026-04-27T17:07:15Z</time></trkpt><trkpt lat="39.965544143929854" lon="19.962469557456405"><ele>231.0</ele><time>2026-04-27T17:07:16Z</time></trkpt><trkpt lat="39.96541441667454" lon="19.962691710926023"><ele>235.66666666666669</ele><time>2026-04-27T17:07:17Z</time></trkpt><trkpt lat="39.96529110200631" lon="19.962903431780383"><ele>240.33333333333334</ele><time>2026-04-27T17:07:18Z</time></trkpt><trkpt lat="39.965176304462375" lon="19.963096668427404"><ele>245.0</ele><time>2026-04-27T17:07:19Z</time></trkpt><trkpt lat="39.965063483140675" lon="19.96326581538139"><ele>240.33333333333334</ele><time>2026-04-27T17:07:20Z</time></trkpt><trkpt lat="39.96494725101683" lon="19.963401497942463"><ele>235.66666666666669</ele><time>2026-04-27T17:07:21Z</time></trkpt><trkpt lat="39.96481818145455" lon="19.963490900705175"><ele>231.0</ele><time>2026-04-27T17:07:22Z</time></trkpt><trkpt lat="39.964668491620564" lon="19.963491515670434"><ele>231.0</ele><time>2026-04-27T17:07:23Z</time></trkpt><trkpt lat="39.964509255609116" lon="19.96345204621194"><ele>231.0</ele><time>2026-04-27T17:07:24Z</time></trkpt><trkpt lat="39.96436705337299" lon="19.96335412439936"><ele>231.0</ele><time>2026-04-27T17:07:25Z</time></trkpt><trkpt lat="39.96426435386463" lon="19.96320203281475"><ele>229.33333333333331</ele><time>2026-04-27T17:07:26Z</time></trkpt><trkpt lat="39.96419895029046" lon="19.963001028791215"><ele>227.66666666666666</ele><time>2026-04-27T17:07:27Z</time></trkpt><trkpt lat="39.96416545194461" lon="19.962740184492464"><ele>226.0</ele><time>2026-04-27T17:07:27.999Z</time></trkpt><trkpt lat="39.9641569826686" lon="19.962427485600045"><ele>226.0</ele><time>2026-04-27T17:07:28.999Z</time></trkpt><trkpt lat="39.96417510839809" lon="19.962088994714655"><ele>226.0</ele><time>2026-04-27T17:07:29.999Z</time></trkpt><trkpt lat="39.96420907330163" lon="19.961726928102156"><ele>218.5</ele><time>2026-04-27T17:07:30.999Z</time></trkpt><trkpt lat="39.96424195178675" lon="19.961392640588127"><ele>211.0</ele><time>2026-04-27T17:07:31.999Z</time></trkpt><trkpt lat="39.964246989870816" lon="19.961085349979047"><ele>211.0</ele><time>2026-04-27T17:07:32.999Z</time></trkpt><trkpt lat="39.96423157190485" lon="19.960793266439424"><ele>211.0</ele><time>2026-04-27T17:07:33.999Z</time></trkpt><trkpt lat="39.96419888020605" lon="19.960520880357077"><ele>211.0</ele><time>2026-04-27T17:07:34.999Z</time></trkpt><trkpt lat="39.96415921322238" lon="19.96031176418221"><ele>216.0</ele><time>2026-04-27T17:07:35.999Z</time></trkpt><trkpt lat="39.964121781125336" lon="19.960181627934848"><ele>221.0</ele><time>2026-04-27T17:07:36.999Z</time></trkpt><trkpt lat="39.96406324502748" lon="19.960087663772377"><ele>226.00000000000003</ele><time>2026-04-27T17:07:37.999Z</time></trkpt><trkpt lat="39.96395312973883" lon="19.960036189971692"><ele>231.0</ele><time>2026-04-27T17:07:38.999Z</time></trkpt><trkpt lat="39.963821654459835" lon="19.960043055298936"><ele>236.0</ele><time>2026-04-27T17:07:39.999Z</time></trkpt><trkpt lat="39.96366125355499" lon="19.960076923066772"><ele>236.0</ele><time>2026-04-27T17:07:40.999Z</time></trkpt><trkpt lat="39.9634629495174" lon="19.960093333802398"><ele>236.0</ele><time>2026-04-27T17:07:41.999Z</time></trkpt><trkpt lat="39.96330060271381" lon="19.960093607471947"><ele>236.0</ele><time>2026-04-27T17:07:42.999Z</time></trkpt><trkpt lat="39.96316816159644" lon="19.960108406531997"><ele>238.75</ele><time>2026-04-27T17:07:43.999Z</time></trkpt><trkpt lat="39.96304845075302" lon="19.960164397363226"><ele>241.5</ele><time>2026-04-27T17:07:44.999Z</time></trkpt><trkpt lat="39.96293222077915" lon="19.960271020154984"><ele>244.25</ele><time>2026-04-27T17:07:45.999Z</time></trkpt><trkpt lat="39.96284331868293" lon="19.960404087204676"><ele>247.0</ele><time>2026-04-27T17:07:46.999Z</time></trkpt><trkpt lat="39.96279374518108" lon="19.96056023529526"><ele>247.0</ele><time>2026-04-27T17:07:47.999Z</time></trkpt><trkpt lat="39.96277102454315" lon="19.960756422734526"><ele>247.0</ele><time>2026-04-27T17:07:48.999Z</time></trkpt><trkpt lat="39.96273944114737" lon="19.960977746090286"><ele>247.0</ele><time>2026-04-27T17:07:49.999Z</time></trkpt><trkpt lat="39.962643284547795" lon="19.96122341216212"><ele>246.0</ele><time>2026-04-27T17:07:50.999Z</time></trkpt><trkpt lat="39.96251491220929" lon="19.961454689915882"><ele>245.0</ele><time>2026-04-27T17:07:51.999Z</time></trkpt><trkpt lat="39.962401553145305" lon="19.961650578829147"><ele>244.0</ele><time>2026-04-27T17:07:52.999Z</time></trkpt><trkpt lat="39.96228838195922" lon="19.961836416432536"><ele>248.33333333333331</ele><time>2026-04-27T17:07:53.999Z</time></trkpt><trkpt lat="39.96213379666207" lon="19.961979295367758"><ele>252.66666666666669</ele><time>2026-04-27T17:07:54.999Z</time></trkpt><trkpt lat="39.96198469480548" lon="19.9621519718707"><ele>257.0</ele><time>2026-04-27T17:07:55.999Z</time></trkpt><trkpt lat="39.96181626215214" lon="19.962297114259954"><ele>257.6666666666667</ele><time>2026-04-27T17:07:56.999Z</time></trkpt><trkpt lat="39.961648026314684" lon="19.962451013567964"><ele>258.3333333333333</ele><time>2026-04-27T17:07:57.999Z</time></trkpt><trkpt lat="39.96148436146147" lon="19.962594026661968"><ele>259.0</ele><time>2026-04-27T17:07:58.999Z</time></trkpt><trkpt lat="39.96132816727968" lon="19.962691438259164"><ele>261.75</ele><time>2026-04-27T17:07:59.999Z</time></trkpt><trkpt lat="39.96116992936196" lon="19.96275889285243"><ele>264.5</ele><time>2026-04-27T17:08:00.999Z</time></trkpt><trkpt lat="39.96103635006913" lon="19.96281397761637"><ele>267.25</ele><time>2026-04-27T17:08:01.999Z</time></trkpt><trkpt lat="39.960918356888065" lon="19.962856433236226"><ele>270.0</ele><time>2026-04-27T17:08:02.999Z</time></trkpt><trkpt lat="39.96080734517725" lon="19.96284881954632"><ele>270.0</ele><time>2026-04-27T17:08:03.999Z</time></trkpt><trkpt lat="39.960705279340075" lon="19.962787800465428"><ele>270.0</ele><time>2026-04-27T17:08:04.999Z</time></trkpt><trkpt lat="39.96061029257503" lon="19.962687146223367"><ele>270.0</ele><time>2026-04-27T17:08:05.999Z</time></trkpt><trkpt lat="39.96051016276868" lon="19.962568461463977"><ele>270.0</ele><time>2026-04-27T17:08:06.999Z</time></trkpt><trkpt lat="39.9603989520706" lon="19.962444940496425"><ele>269.75</ele><time>2026-04-27T17:08:07.999Z</time></trkpt><trkpt lat="39.96029166779933" lon="19.962338311286654"><ele>269.5</ele><time>2026-04-27T17:08:08.999Z</time></trkpt><trkpt lat="39.96017140436231" lon="19.96226148626926"><ele>269.25</ele><time>2026-04-27T17:08:09.999Z</time></trkpt><trkpt lat="39.96003170354452" lon="19.96222605795865"><ele>269.0</ele><time>2026-04-27T17:08:10.999Z</time></trkpt><trkpt lat="39.95988169160713" lon="19.962224526807116"><ele>269.0</ele><time>2026-04-27T17:08:11.999Z</time></trkpt><trkpt lat="39.95973267472316" lon="19.962213588977995"><ele>269.0</ele><time>2026-04-27T17:08:12.999Z</time></trkpt><trkpt lat="39.95961548854312" lon="19.9621471969791"><ele>269.0</ele><time>2026-04-27T17:08:13.999Z</time></trkpt><trkpt lat="39.959494788072625" lon="19.962127689574068"><ele>269.0</ele><time>2026-04-27T17:08:14.999Z</time></trkpt><trkpt lat="39.959407751450605" lon="19.96212530499632"><ele>269.0</ele><time>2026-04-27T17:08:15.999Z</time></trkpt><trkpt lat="39.95934008307328" lon="19.96216705357863"><ele>269.0</ele><time>2026-04-27T17:08:16.999Z</time></trkpt><trkpt lat="39.95927910439558" lon="19.962208667214615"><ele>269.0</ele><time>2026-04-27T17:08:17.999Z</time></trkpt><trkpt lat="39.95918663676639" lon="19.962262406530616"><ele>269.0</ele><time>2026-04-27T17:08:20.999Z</time></trkpt><trkpt lat="39.959110390293226" lon="19.96228654041744"><ele>269.0</ele><time>2026-04-27T17:08:21.999Z</time></trkpt><trkpt lat="39.95901899021532" lon="19.962296172518673"><ele>269.0</ele><time>2026-04-27T17:08:22.999Z</time></trkpt><trkpt lat="39.95891927555728" lon="19.962255077645242"><ele>269.5</ele><time>2026-04-27T17:08:23.999Z</time></trkpt><trkpt lat="39.95882450803936" lon="19.962212283070528"><ele>270.0</ele><time>2026-04-27T17:08:24.999Z</time></trkpt><trkpt lat="39.958718393729306" lon="19.962156448578078"><ele>270.5</ele><time>2026-04-27T17:08:25.999Z</time></trkpt><trkpt lat="39.95860301093191" lon="19.9620975323641"><ele>271.0</ele><time>2026-04-27T17:08:26.999Z</time></trkpt><trkpt lat="39.95847736184228" lon="19.962067379786603"><ele>270.0</ele><time>2026-04-27T17:08:27.999Z</time></trkpt><trkpt lat="39.958352123162655" lon="19.962019811607497"><ele>269.0</ele><time>2026-04-27T17:08:28.999Z</time></trkpt><trkpt lat="39.95821366023082" lon="19.962010555680873"><ele>268.0</ele><time>2026-04-27T17:08:29.999Z</time></trkpt><trkpt lat="39.95807520915587" lon="19.962048802567647"><ele>267.0</ele><time>2026-04-27T17:08:30.999Z</time></trkpt><trkpt lat="39.95793794495581" lon="19.962139483780483"><ele>267.0</ele><time>2026-04-27T17:08:31.999Z</time></trkpt><trkpt lat="39.957784841445545" lon="19.962281497848767"><ele>267.0</ele><time>2026-04-27T17:08:32.999Z</time></trkpt><trkpt lat="39.95758968841533" lon="19.96245130529394"><ele>267.0</ele><time>2026-04-27T17:08:33.999Z</time></trkpt><trkpt lat="39.95737407310031" lon="19.96261393905226"><ele>267.0</ele><time>2026-04-27T17:08:34.999Z</time></trkpt><trkpt lat="39.95718219667863" lon="19.962743323788672"><ele>267.0</ele><time>2026-04-27T17:08:35.999Z</time></trkpt><trkpt lat="39.95702278152448" lon="19.962863453265076"><ele>267.0</ele><time>2026-04-27T17:08:36.999Z</time></trkpt><trkpt lat="39.9569060710088" lon="19.96299678690864"><ele>267.0</ele><time>2026-04-27T17:08:37.999Z</time></trkpt><trkpt lat="39.956826919332165" lon="19.96315911551601"><ele>267.0</ele><time>2026-04-27T17:08:38.999Z</time></trkpt><trkpt lat="39.9567923664456" lon="19.96333538783897"><ele>267.0</ele><time>2026-04-27T17:08:39.999Z</time></trkpt><trkpt lat="39.956798911267704" lon="19.96351974967603"><ele>267.0</ele><time>2026-04-27T17:08:40.999Z</time></trkpt><trkpt lat="39.95683339684443" lon="19.96372642850358"><ele>267.75</ele><time>2026-04-27T17:08:41.999Z</time></trkpt><trkpt lat="39.956853306001896" lon="19.963934784354624"><ele>268.5</ele><time>2026-04-27T17:08:42.999Z</time></trkpt><trkpt lat="39.956797100069245" lon="19.964071321207133"><ele>269.25</ele><time>2026-04-27T17:08:43.999Z</time></trkpt><trkpt lat="39.956690585710874" lon="19.96409567446367"><ele>270.0</ele><time>2026-04-27T17:08:44.999Z</time></trkpt><trkpt lat="39.95658923437259" lon="19.9640946070563"><ele>270.0</ele><time>2026-04-27T17:08:45.999Z</time></trkpt><trkpt lat="39.956448282390696" lon="19.96402906586789"><ele>270.0</ele><time>2026-04-27T17:08:46.999Z</time></trkpt><trkpt lat="39.95627682073149" lon="19.963988796124514"><ele>270.0</ele><time>2026-04-27T17:08:47.999Z</time></trkpt><trkpt lat="39.956079800216735" lon="19.963914309700833"><ele>270.0</ele><time>2026-04-27T17:08:48.999Z</time></trkpt><trkpt lat="39.955921612825584" lon="19.963795444161416"><ele>270.0</ele><time>2026-04-27T17:08:49.999Z</time></trkpt><trkpt lat="39.95579716671992" lon="19.963639784202293"><ele>270.0</ele><time>2026-04-27T17:08:50.999Z</time></trkpt><trkpt lat="39.9557043899485" lon="19.96347044288963"><ele>273.25</ele><time>2026-04-27T17:08:51.999Z</time></trkpt><trkpt lat="39.95562715868925" lon="19.96332404348248"><ele>276.5</ele><time>2026-04-27T17:08:52.999Z</time></trkpt><trkpt lat="39.955550010867356" lon="19.963212987006617"><ele>279.75</ele><time>2026-04-27T17:08:53.999Z</time></trkpt><trkpt lat="39.95546449660946" lon="19.963140955310696"><ele>283.0</ele><time>2026-04-27T17:08:54.999Z</time></trkpt><trkpt lat="39.95534767944782" lon="19.963147372042723"><ele>283.0</ele><time>2026-04-27T17:08:55.999Z</time></trkpt><trkpt lat="39.95519810065715" lon="19.963204882752926"><ele>283.0</ele><time>2026-04-27T17:08:56.999Z</time></trkpt><trkpt lat="39.95501726645474" lon="19.963307238083818"><ele>283.0</ele><time>2026-04-27T17:08:57.999Z</time></trkpt><trkpt lat="39.954835445723596" lon="19.9634108993069"><ele>275.0</ele><time>2026-04-27T17:08:58.999Z</time></trkpt><trkpt lat="39.95470205047489" lon="19.963518070688302"><ele>267.0</ele><time>2026-04-27T17:08:59.999Z</time></trkpt><trkpt lat="39.9546208857264" lon="19.96367347457457"><ele>259.0</ele><time>2026-04-27T17:09:00.999Z</time></trkpt><trkpt lat="39.95456702298606" lon="19.963871257478296"><ele>259.0</ele><time>2026-04-27T17:09:01.999Z</time></trkpt><trkpt lat="39.95453221472581" lon="19.964071733612446"><ele>259.0</ele><time>2026-04-27T17:09:03Z</time></trkpt><trkpt lat="39.95446180267538" lon="19.9641820280321"><ele>259.0</ele><time>2026-04-27T17:09:04Z</time></trkpt><trkpt lat="39.95438400309643" lon="19.96424490265081"><ele>259.0</ele><time>2026-04-27T17:09:05Z</time></trkpt><trkpt lat="39.95431225922142" lon="19.964314015223366"><ele>259.0</ele><time>2026-04-27T17:09:06Z</time></trkpt><trkpt lat="39.95422753759772" lon="19.964330206408363"><ele>258.25</ele><time>2026-04-27T17:09:07Z</time></trkpt><trkpt lat="39.954116100779366" lon="19.9643137297693"><ele>257.5</ele><time>2026-04-27T17:09:08Z</time></trkpt><trkpt lat="39.95397170980154" lon="19.964319341639296"><ele>256.75</ele><time>2026-04-27T17:09:09Z</time></trkpt><trkpt lat="39.953802793116324" lon="19.964328394048117"><ele>256.0</ele><time>2026-04-27T17:09:10Z</time></trkpt><trkpt lat="39.95363720974517" lon="19.964375721360152"><ele>256.0</ele><time>2026-04-27T17:09:11Z</time></trkpt><trkpt lat="39.95350008285816" lon="19.964418815684713"><ele>256.0</ele><time>2026-04-27T17:09:12Z</time></trkpt><trkpt lat="39.95337559965385" lon="19.96451601933636"><ele>256.0</ele><time>2026-04-27T17:09:13Z</time></trkpt><trkpt lat="39.953255990217386" lon="19.964658983958373"><ele>256.0</ele><time>2026-04-27T17:09:14Z</time></trkpt><trkpt lat="39.953151500266536" lon="19.96484262553003"><ele>252.33333333333331</ele><time>2026-04-27T17:09:15Z</time></trkpt><trkpt lat="39.95309243207248" lon="19.965034308740083"><ele>248.66666666666669</ele><time>2026-04-27T17:09:16Z</time></trkpt><trkpt lat="39.9530429498507" lon="19.965250504527834"><ele>245.0</ele><time>2026-04-27T17:09:17Z</time></trkpt><trkpt lat="39.95293110360181" lon="19.96539769392018"><ele>245.0</ele><time>2026-04-27T17:09:18Z</time></trkpt><trkpt lat="39.95280455917324" lon="19.96552021504957"><ele>245.0</ele><time>2026-04-27T17:09:19Z</time></trkpt><trkpt lat="39.95267554045049" lon="19.965656740464365"><ele>245.0</ele><time>2026-04-27T17:09:20Z</time></trkpt><trkpt lat="39.95255364506734" lon="19.96579353660395"><ele>246.0</ele><time>2026-04-27T17:09:21Z</time></trkpt><trkpt lat="39.952488028533246" lon="19.965970261438937"><ele>247.0</ele><time>2026-04-27T17:09:22Z</time></trkpt><trkpt lat="39.95247683183211" lon="19.966166355423997"><ele>248.0</ele><time>2026-04-27T17:09:23Z</time></trkpt><trkpt lat="39.952478936600826" lon="19.96636115771638"><ele>248.0</ele><time>2026-04-27T17:09:24Z</time></trkpt><trkpt lat="39.9524051827873" lon="19.96646971990074"><ele>248.0</ele><time>2026-04-27T17:09:25Z</time></trkpt><trkpt lat="39.95229615536169" lon="19.966498137859038"><ele>248.0</ele><time>2026-04-27T17:09:26Z</time></trkpt><trkpt lat="39.95214669303063" lon="19.966534238354804"><ele>248.0</ele><time>2026-04-27T17:09:27Z</time></trkpt><trkpt lat="39.95197794862542" lon="19.96658179738311"><ele>248.0</ele><time>2026-04-27T17:09:28Z</time></trkpt><trkpt lat="39.95183678533938" lon="19.96667515873743"><ele>248.0</ele><time>2026-04-27T17:09:29Z</time></trkpt><trkpt lat="39.9517181691091" lon="19.96684499816785"><ele>248.0</ele><time>2026-04-27T17:09:30Z</time></trkpt><trkpt lat="39.951573019474836" lon="19.96705395789518"><ele>246.5</ele><time>2026-04-27T17:09:31Z</time></trkpt><trkpt lat="39.951354950131524" lon="19.96721561793545"><ele>245.0</ele><time>2026-04-27T17:09:32Z</time></trkpt><trkpt lat="39.9511345387709" lon="19.96742125252416"><ele>244.33333333333334</ele><time>2026-04-27T17:09:33Z</time></trkpt><trkpt lat="39.95094365197634" lon="19.967588380005132"><ele>243.66666666666669</ele><time>2026-04-27T17:09:34Z</time></trkpt><trkpt lat="39.95078855795514" lon="19.96777923602744"><ele>243.0</ele><time>2026-04-27T17:09:35Z</time></trkpt><trkpt lat="39.950631024704506" lon="19.96800193582822"><ele>243.0</ele><time>2026-04-27T17:09:35.999Z</time></trkpt><trkpt lat="39.9504874452142" lon="19.968210332600606"><ele>243.0</ele><time>2026-04-27T17:09:36.999Z</time></trkpt><trkpt lat="39.95035868496861" lon="19.968380792847658"><ele>243.0</ele><time>2026-04-27T17:09:37.999Z</time></trkpt><trkpt lat="39.950214681843654" lon="19.968493430861972"><ele>242.66666666666669</ele><time>2026-04-27T17:09:38.999Z</time></trkpt><trkpt lat="39.95006605474806" lon="19.968627329572772"><ele>242.33333333333334</ele><time>2026-04-27T17:09:39.999Z</time></trkpt><trkpt lat="39.94987674172454" lon="19.96868408696009"><ele>242.0</ele><time>2026-04-27T17:09:40.999Z</time></trkpt><trkpt lat="39.94967726314517" lon="19.968756664051803"><ele>242.0</ele><time>2026-04-27T17:09:41.999Z</time></trkpt><trkpt lat="39.9494808587855" lon="19.96885499676947"><ele>242.0</ele><time>2026-04-27T17:09:42.999Z</time></trkpt><trkpt lat="39.949284811223535" lon="19.968951051270494"><ele>242.0</ele><time>2026-04-27T17:09:43.999Z</time></trkpt><trkpt lat="39.94911256370424" lon="19.96907199225206"><ele>238.66666666666669</ele><time>2026-04-27T17:09:44.999Z</time></trkpt><trkpt lat="39.94896355544183" lon="19.96922402351733"><ele>235.33333333333331</ele><time>2026-04-27T17:09:45.999Z</time></trkpt><trkpt lat="39.948813240697966" lon="19.96938557815253"><ele>232.0</ele><time>2026-04-27T17:09:46.999Z</time></trkpt><trkpt lat="39.94866096297452" lon="19.96951755913193"><ele>232.0</ele><time>2026-04-27T17:09:47.999Z</time></trkpt><trkpt lat="39.94850511626895" lon="19.969601788969022"><ele>232.0</ele><time>2026-04-27T17:09:48.999Z</time></trkpt><trkpt lat="39.94834172573656" lon="19.96960278070916"><ele>232.0</ele><time>2026-04-27T17:09:49.999Z</time></trkpt><trkpt lat="39.948172129864076" lon="19.96960873316105"><ele>235.0</ele><time>2026-04-27T17:09:50.999Z</time></trkpt><trkpt lat="39.947997414792574" lon="19.96962331453732"><ele>238.0</ele><time>2026-04-27T17:09:51.999Z</time></trkpt><trkpt lat="39.94782188394722" lon="19.969621831661446"><ele>241.0</ele><time>2026-04-27T17:09:52.999Z</time></trkpt><trkpt lat="39.947668980664524" lon="19.96963926408226"><ele>241.0</ele><time>2026-04-27T17:09:53.999Z</time></trkpt><trkpt lat="39.94754762620689" lon="19.969688652505884"><ele>241.00000000000003</ele><time>2026-04-27T17:09:54.999Z</time></trkpt><trkpt lat="39.9474443590792" lon="19.96975590259828"><ele>241.00000000000003</ele><time>2026-04-27T17:09:55.999Z</time></trkpt><trkpt lat="39.94734921684203" lon="19.969811696240335"><ele>241.0</ele><time>2026-04-27T17:09:56.999Z</time></trkpt><trkpt lat="39.94726553653061" lon="19.969826443405026"><ele>241.0</ele><time>2026-04-27T17:09:57.999Z</time></trkpt><trkpt lat="39.94719480638998" lon="19.969761553949024"><ele>242.75</ele><time>2026-04-27T17:09:58.999Z</time></trkpt><trkpt lat="39.947114740605244" lon="19.969674587189903"><ele>244.5</ele><time>2026-04-27T17:09:59.999Z</time></trkpt><trkpt lat="39.94700392975816" lon="19.96961302741105"><ele>246.25</ele><time>2026-04-27T17:10:00.999Z</time></trkpt><trkpt lat="39.94688739613785" lon="19.969554995436287"><ele>248.0</ele><time>2026-04-27T17:10:01.999Z</time></trkpt><trkpt lat="39.94675668213704" lon="19.969536576033637"><ele>246.8</ele><time>2026-04-27T17:10:02.999Z</time></trkpt><trkpt lat="39.94663573126282" lon="19.969508539324995"><ele>245.60000000000002</ele><time>2026-04-27T17:10:03.999Z</time></trkpt><trkpt lat="39.94654651827495" lon="19.96939300184171"><ele>244.39999999999998</ele><time>2026-04-27T17:10:04.999Z</time></trkpt><trkpt lat="39.9464577722615" lon="19.969311854315453"><ele>243.2</ele><time>2026-04-27T17:10:05.999Z</time></trkpt><trkpt lat="39.946375789354164" lon="19.969260501391446"><ele>242.0</ele><time>2026-04-27T17:10:06.999Z</time></trkpt><trkpt lat="39.94629536246082" lon="19.96924772486356"><ele>242.0</ele><time>2026-04-27T17:10:07.999Z</time></trkpt><trkpt lat="39.94620141835475" lon="19.96928201824658"><ele>242.0</ele><time>2026-04-27T17:10:08.999Z</time></trkpt><trkpt lat="39.94609501159064" lon="19.96934965863104"><ele>242.0</ele><time>2026-04-27T17:10:09.999Z</time></trkpt><trkpt lat="39.945986622077086" lon="19.96943777218914"><ele>242.0</ele><time>2026-04-27T17:10:10.999Z</time></trkpt><trkpt lat="39.94586847880241" lon="19.96949519671841"><ele>242.0</ele><time>2026-04-27T17:10:11.999Z</time></trkpt><trkpt lat="39.9457478601316" lon="19.96951390077014"><ele>242.0</ele><time>2026-04-27T17:10:12.999Z</time></trkpt><trkpt lat="39.94561502863089" lon="19.969512455825583"><ele>242.0</ele><time>2026-04-27T17:10:13.999Z</time></trkpt><trkpt lat="39.945428460690444" lon="19.969540867494594"><ele>242.0</ele><time>2026-04-27T17:10:14.999Z</time></trkpt><trkpt lat="39.945204672078575" lon="19.969622882008768"><ele>246.25</ele><time>2026-04-27T17:10:15.999Z</time></trkpt><trkpt lat="39.94501465252124" lon="19.969679561504815"><ele>250.5</ele><time>2026-04-27T17:10:16.999Z</time></trkpt><trkpt lat="39.944897981876665" lon="19.969738138250428"><ele>254.75</ele><time>2026-04-27T17:10:17.999Z</time></trkpt><trkpt lat="39.944790089171406" lon="19.969807091410573"><ele>259.0</ele><time>2026-04-27T17:10:18.999Z</time></trkpt><trkpt lat="39.94470422001631" lon="19.969886384588538"><ele>259.0</ele><time>2026-04-27T17:10:19.999Z</time></trkpt><trkpt lat="39.94462884354769" lon="19.96997357701582"><ele>259.0</ele><time>2026-04-27T17:10:20.999Z</time></trkpt><trkpt lat="39.944555643834846" lon="19.970064431694382"><ele>259.0</ele><time>2026-04-27T17:10:21.999Z</time></trkpt><trkpt lat="39.94448160172524" lon="19.97015957749835"><ele>259.0</ele><time>2026-04-27T17:10:22.999Z</time></trkpt><trkpt lat="39.94441196466222" lon="19.97024185522764"><ele>259.0</ele><time>2026-04-27T17:10:23.999Z</time></trkpt><trkpt lat="39.94434345256416" lon="19.970292265346227"><ele>257.42857142857144</ele><time>2026-04-27T17:10:24.999Z</time></trkpt><trkpt lat="39.9442717732857" lon="19.970317809761937"><ele>255.85714285714286</ele><time>2026-04-27T17:10:25.999Z</time></trkpt><trkpt lat="39.94419690646183" lon="19.97031636255134"><ele>254.28571428571428</ele><time>2026-04-27T17:10:26.999Z</time></trkpt><trkpt lat="39.94412753911147" lon="19.970281786530595"><ele>252.71428571428572</ele><time>2026-04-27T17:10:27.999Z</time></trkpt><trkpt lat="39.94406956526766" lon="19.970228419177477"><ele>251.14285714285717</ele><time>2026-04-27T17:10:28.999Z</time></trkpt><trkpt lat="39.944018476297835" lon="19.97017876496255"><ele>249.57142857142858</ele><time>2026-04-27T17:10:29.999Z</time></trkpt><trkpt lat="39.94395919220939" lon="19.97012616834781"><ele>248.0</ele><time>2026-04-27T17:10:30.999Z</time></trkpt><trkpt lat="39.94385698374807" lon="19.970027600533673"><ele>253.0</ele><time>2026-04-27T17:10:31.999Z</time></trkpt><trkpt lat="39.943732202436294" lon="19.969900481314667"><ele>258.0</ele><time>2026-04-27T17:10:32.999Z</time></trkpt><trkpt lat="39.9436260923554" lon="19.96981347856367"><ele>263.0</ele><time>2026-04-27T17:10:33.999Z</time></trkpt><trkpt lat="39.943527391446985" lon="19.96978365820499"><ele>268.0</ele><time>2026-04-27T17:10:34.999Z</time></trkpt><trkpt lat="39.94343328081179" lon="19.9698035736181"><ele>266.5</ele><time>2026-04-27T17:10:35.999Z</time></trkpt><trkpt lat="39.9433459290831" lon="19.969862995329752"><ele>265.0</ele><time>2026-04-27T17:10:36.999Z</time></trkpt><trkpt lat="39.94325424335395" lon="19.969954866668346"><ele>263.5</ele><time>2026-04-27T17:10:37.999Z</time></trkpt><trkpt lat="39.943122750744394" lon="19.970079451976922"><ele>262.0</ele><time>2026-04-27T17:10:38.999Z</time></trkpt><trkpt lat="39.942992256149" lon="19.97018916564265"><ele>259.75</ele><time>2026-04-27T17:10:39.999Z</time></trkpt><trkpt lat="39.942889653157145" lon="19.970263004806114"><ele>257.5</ele><time>2026-04-27T17:10:40.999Z</time></trkpt><trkpt lat="39.94277356688034" lon="19.97034550658633"><ele>255.25</ele><time>2026-04-27T17:10:41.999Z</time></trkpt><trkpt lat="39.94265036253031" lon="19.970422206030637"><ele>253.0</ele><time>2026-04-27T17:10:42.999Z</time></trkpt><trkpt lat="39.942521746729156" lon="19.970502193461503"><ele>253.0</ele><time>2026-04-27T17:10:43.999Z</time></trkpt><trkpt lat="39.94240655827644" lon="19.970582940923173"><ele>253.0</ele><time>2026-04-27T17:10:44.999Z</time></trkpt><trkpt lat="39.94230275400569" lon="19.97066054417668"><ele>253.0</ele><time>2026-04-27T17:10:45.999Z</time></trkpt><trkpt lat="39.94220029251018" lon="19.97074899751904"><ele>253.0</ele><time>2026-04-27T17:10:46.999Z</time></trkpt><trkpt lat="39.94207861122009" lon="19.97084467517519"><ele>249.25</ele><time>2026-04-27T17:10:47.999Z</time></trkpt><trkpt lat="39.941952290608924" lon="19.970942428071147"><ele>245.5</ele><time>2026-04-27T17:10:48.999Z</time></trkpt><trkpt lat="39.94183755501518" lon="19.971037208397338"><ele>241.75</ele><time>2026-04-27T17:10:49.999Z</time></trkpt><trkpt lat="39.9417255890342" lon="19.971131308481137"><ele>238.0</ele><time>2026-04-27T17:10:50.999Z</time></trkpt><trkpt lat="39.94160655984498" lon="19.97122772768135"><ele>238.0</ele><time>2026-04-27T17:10:51.999Z</time></trkpt><trkpt lat="39.94148267106305" lon="19.971325828794818"><ele>238.0</ele><time>2026-04-27T17:10:52.999Z</time></trkpt><trkpt lat="39.94136537827504" lon="19.971416248161503"><ele>238.0</ele><time>2026-04-27T17:10:53.999Z</time></trkpt><trkpt lat="39.94125452937648" lon="19.971501617412635"><ele>238.0</ele><time>2026-04-27T17:10:54.999Z</time></trkpt><trkpt lat="39.94114219260502" lon="19.971577094281987"><ele>238.0</ele><time>2026-04-27T17:10:55.999Z</time></trkpt><trkpt lat="39.94102533058145" lon="19.97163538504463"><ele>238.0</ele><time>2026-04-27T17:10:56.999Z</time></trkpt><trkpt lat="39.940905430802346" lon="19.971666792919287"><ele>238.0</ele><time>2026-04-27T17:10:57.999Z</time></trkpt><trkpt lat="39.940781560576305" lon="19.971672022836668"><ele>238.0</ele><time>2026-04-27T17:10:58.999Z</time></trkpt><trkpt lat="39.94064283339999" lon="19.971669727448628"><ele>238.5</ele><time>2026-04-27T17:10:59.999Z</time></trkpt><trkpt lat="39.9405069242779" lon="19.971678461469043"><ele>239.0</ele><time>2026-04-27T17:11:00.999Z</time></trkpt><trkpt lat="39.94038134945718" lon="19.971708504454984"><ele>239.5</ele><time>2026-04-27T17:11:01.999Z</time></trkpt><trkpt lat="39.940261816125734" lon="19.97176553533372"><ele>240.0</ele><time>2026-04-27T17:11:02.999Z</time></trkpt><trkpt lat="39.94015062505386" lon="19.971841857323223"><ele>231.75</ele><time>2026-04-27T17:11:03.999Z</time></trkpt><trkpt lat="39.94004807459218" lon="19.97192656396643"><ele>223.5</ele><time>2026-04-27T17:11:04.999Z</time></trkpt><trkpt lat="39.93994843955526" lon="19.972005539045004"><ele>215.25</ele><time>2026-04-27T17:11:05.999Z</time></trkpt><trkpt lat="39.93984831488261" lon="19.972077272611557"><ele>207.0</ele><time>2026-04-27T17:11:06.999Z</time></trkpt><trkpt lat="39.93974897160282" lon="19.97214732960877"><ele>207.0</ele><time>2026-04-27T17:11:07.999Z</time></trkpt><trkpt lat="39.939649572916856" lon="19.972212408153514"><ele>207.0</ele><time>2026-04-27T17:11:09Z</time></trkpt><trkpt lat="39.93955421038617" lon="19.97228111102158"><ele>207.0</ele><time>2026-04-27T17:11:10Z</time></trkpt><trkpt lat="39.93946418525827" lon="19.972355193558972"><ele>207.0</ele><time>2026-04-27T17:11:11Z</time></trkpt><trkpt lat="39.939373907446715" lon="19.972422200785992"><ele>207.0</ele><time>2026-04-27T17:11:12Z</time></trkpt><trkpt lat="39.93928177334487" lon="19.972475840875543"><ele>204.6</ele><time>2026-04-27T17:11:13Z</time></trkpt><trkpt lat="39.939192482194" lon="19.97253049006124"><ele>202.2</ele><time>2026-04-27T17:11:14Z</time></trkpt><trkpt lat="39.9391023863468" lon="19.972580466795026"><ele>199.8</ele><time>2026-04-27T17:11:15Z</time></trkpt><trkpt lat="39.93900655751851" lon="19.97261274554201"><ele>197.4</ele><time>2026-04-27T17:11:16Z</time></trkpt><trkpt lat="39.93888115660469" lon="19.972636039571753"><ele>195.0</ele><time>2026-04-27T17:11:17Z</time></trkpt><trkpt lat="39.9387392994225" lon="19.972659789931267"><ele>195.0</ele><time>2026-04-27T17:11:18Z</time></trkpt><trkpt lat="39.93861231574368" lon="19.97269469696187"><ele>195.0</ele><time>2026-04-27T17:11:19Z</time></trkpt><trkpt lat="39.938485151504594" lon="19.972768826744147"><ele>195.0</ele><time>2026-04-27T17:11:20Z</time></trkpt><trkpt lat="39.938346774352695" lon="19.972879359093838"><ele>195.0</ele><time>2026-04-27T17:11:21Z</time></trkpt><trkpt lat="39.93820442406566" lon="19.973020894488855"><ele>196.33333333333331</ele><time>2026-04-27T17:11:22Z</time></trkpt><trkpt lat="39.93807349307255" lon="19.97318019133147"><ele>197.66666666666666</ele><time>2026-04-27T17:11:23Z</time></trkpt><trkpt lat="39.93793343504876" lon="19.97330914296715"><ele>199.0</ele><time>2026-04-27T17:11:24Z</time></trkpt><trkpt lat="39.93779767788073" lon="19.9734447531681"><ele>195.33333333333331</ele><time>2026-04-27T17:11:25Z</time></trkpt><trkpt lat="39.93766160792471" lon="19.97359285923466"><ele>191.66666666666666</ele><time>2026-04-27T17:11:26Z</time></trkpt><trkpt lat="39.93752461731601" lon="19.97373280965223"><ele>188.0</ele><time>2026-04-27T17:11:27Z</time></trkpt><trkpt lat="39.93740295909381" lon="19.973886724654623"><ele>188.0</ele><time>2026-04-27T17:11:28Z</time></trkpt><trkpt lat="39.937277432495534" lon="19.974041301140886"><ele>188.0</ele><time>2026-04-27T17:11:29Z</time></trkpt><trkpt lat="39.93716699276803" lon="19.97420137689295"><ele>188.0</ele><time>2026-04-27T17:11:30Z</time></trkpt><trkpt lat="39.937073034552355" lon="19.974338444278303"><ele>184.0</ele><time>2026-04-27T17:11:31Z</time></trkpt><trkpt lat="39.936980268631295" lon="19.974437102358603"><ele>180.0</ele><time>2026-04-27T17:11:32Z</time></trkpt><trkpt lat="39.93687146270619" lon="19.974499256254187"><ele>176.0</ele><time>2026-04-27T17:11:33Z</time></trkpt><trkpt lat="39.93674967885735" lon="19.974478406052686"><ele>172.0</ele><time>2026-04-27T17:11:34Z</time></trkpt><trkpt lat="39.93662905553981" lon="19.974481555603774"><ele>172.0</ele><time>2026-04-27T17:11:35Z</time></trkpt><trkpt lat="39.93651825378417" lon="19.97449784345271"><ele>172.0</ele><time>2026-04-27T17:11:36Z</time></trkpt><trkpt lat="39.93642243566162" lon="19.974542135573"><ele>172.0</ele><time>2026-04-27T17:11:37Z</time></trkpt><trkpt lat="39.93633574308948" lon="19.974626448424992"><ele>172.0</ele><time>2026-04-27T17:11:38Z</time></trkpt><trkpt lat="39.936247657233174" lon="19.974714569001556"><ele>172.0</ele><time>2026-04-27T17:11:39Z</time></trkpt><trkpt lat="39.93617210107357" lon="19.97480298677728"><ele>172.0</ele><time>2026-04-27T17:11:40Z</time></trkpt><trkpt lat="39.9360989826181" lon="19.974899366766433"><ele>172.0</ele><time>2026-04-27T17:11:41Z</time></trkpt><trkpt lat="39.936017388836696" lon="19.97499818821329"><ele>172.0</ele><time>2026-04-27T17:11:41.999Z</time></trkpt><trkpt lat="39.93593065888459" lon="19.975101101792223"><ele>172.0</ele><time>2026-04-27T17:11:42.999Z</time></trkpt><trkpt lat="39.93584394472944" lon="19.975203384584"><ele>172.0</ele><time>2026-04-27T17:11:43.999Z</time></trkpt><trkpt lat="39.93574635548665" lon="19.975306726476283"><ele>168.0</ele><time>2026-04-27T17:11:44.999Z</time></trkpt><trkpt lat="39.93564729966084" lon="19.97539642974227"><ele>164.0</ele><time>2026-04-27T17:11:45.999Z</time></trkpt><trkpt lat="39.93554531266603" lon="19.975474689087385"><ele>160.0</ele><time>2026-04-27T17:11:46.999Z</time></trkpt><trkpt lat="39.93544016056218" lon="19.97554353282737"><ele>156.0</ele><time>2026-04-27T17:11:47.999Z</time></trkpt><trkpt lat="39.93532383585624" lon="19.975597810771983"><ele>156.0</ele><time>2026-04-27T17:11:48.999Z</time></trkpt><trkpt lat="39.935203540082654" lon="19.975627774880174"><ele>156.0</ele><time>2026-04-27T17:11:49.999Z</time></trkpt><trkpt lat="39.93507843554945" lon="19.975637046814146"><ele>156.0</ele><time>2026-04-27T17:11:50.999Z</time></trkpt><trkpt lat="39.93496545893575" lon="19.975624577777882"><ele>156.0</ele><time>2026-04-27T17:11:51.999Z</time></trkpt><trkpt lat="39.93486510005879" lon="19.975631600578044"><ele>156.6</ele><time>2026-04-27T17:11:52.999Z</time></trkpt><trkpt lat="39.934768223037686" lon="19.975664021618655"><ele>157.2</ele><time>2026-04-27T17:11:53.999Z</time></trkpt><trkpt lat="39.93466919366163" lon="19.975728130600782"><ele>157.8</ele><time>2026-04-27T17:11:54.999Z</time></trkpt><trkpt lat="39.93457947767552" lon="19.975787875787756"><ele>158.4</ele><time>2026-04-27T17:11:55.999Z</time></trkpt><trkpt lat="39.93447590206224" lon="19.97586461470042"><ele>159.0</ele><time>2026-04-27T17:11:56.999Z</time></trkpt><trkpt lat="39.93436876733978" lon="19.97593604706113"><ele>156.0</ele><time>2026-04-27T17:11:57.999Z</time></trkpt><trkpt lat="39.934283118091855" lon="19.97607893072269"><ele>153.0</ele><time>2026-04-27T17:11:58.999Z</time></trkpt><trkpt lat="39.93419850655047" lon="19.976166488946102"><ele>150.0</ele><time>2026-04-27T17:11:59.999Z</time></trkpt><trkpt lat="39.93411479667664" lon="19.976251626753683"><ele>147.0</ele><time>2026-04-27T17:12:00.999Z</time></trkpt><trkpt lat="39.93402951130979" lon="19.97633339302976"><ele>147.0</ele><time>2026-04-27T17:12:01.999Z</time></trkpt><trkpt lat="39.93394859517633" lon="19.976412087809592"><ele>147.0</ele><time>2026-04-27T17:12:02.999Z</time></trkpt><trkpt lat="39.933871621720364" lon="19.976491657378823"><ele>147.0</ele><time>2026-04-27T17:12:03.999Z</time></trkpt><trkpt lat="39.933813589261995" lon="19.976578182990462"><ele>147.0</ele><time>2026-04-27T17:12:04.999Z</time></trkpt><trkpt lat="39.93377187707668" lon="19.976675182473045"><ele>147.0</ele><time>2026-04-27T17:12:05.999Z</time></trkpt><trkpt lat="39.93374861733931" lon="19.97677883540969"><ele>145.4</ele><time>2026-04-27T17:12:06.999Z</time></trkpt><trkpt lat="39.93374273880541" lon="19.97689397934122"><ele>143.79999999999998</ele><time>2026-04-27T17:12:07.999Z</time></trkpt><trkpt lat="39.933759015724455" lon="19.977000230839497"><ele>142.2</ele><time>2026-04-27T17:12:08.999Z</time></trkpt><trkpt lat="39.933783606493726" lon="19.977103074979556"><ele>140.6</ele><time>2026-04-27T17:12:09.999Z</time></trkpt><trkpt lat="39.93382618853197" lon="19.977207094194615"><ele>139.0</ele><time>2026-04-27T17:12:10.999Z</time></trkpt><trkpt lat="39.93389241788695" lon="19.97732278700884"><ele>139.0</ele><time>2026-04-27T17:12:11.999Z</time></trkpt><trkpt lat="39.933963553453005" lon="19.977416160489994"><ele>139.0</ele><time>2026-04-27T17:12:12.999Z</time></trkpt><trkpt lat="39.93402610613244" lon="19.977505107371766"><ele>139.0</ele><time>2026-04-27T17:12:13.999Z</time></trkpt><trkpt lat="39.93408269639371" lon="19.977591212787253"><ele>139.0</ele><time>2026-04-27T17:12:14.999Z</time></trkpt><trkpt lat="39.93415341632556" lon="19.977698969637988"><ele>139.0</ele><time>2026-04-27T17:12:15.999Z</time></trkpt><trkpt lat="39.934211100222576" lon="19.977804073782355"><ele>137.25</ele><time>2026-04-27T17:12:16.999Z</time></trkpt><trkpt lat="39.93422687527853" lon="19.97793895208787"><ele>135.5</ele><time>2026-04-27T17:12:17.999Z</time></trkpt><trkpt lat="39.93422074934176" lon="19.978087682465418"><ele>133.75</ele><time>2026-04-27T17:12:18.999Z</time></trkpt><trkpt lat="39.934210337201655" lon="19.978256719819623"><ele>132.0</ele><time>2026-04-27T17:12:19.999Z</time></trkpt><trkpt lat="39.934167475253176" lon="19.97840205732446"><ele>129.4</ele><time>2026-04-27T17:12:20.999Z</time></trkpt><trkpt lat="39.93413660495122" lon="19.978535772091917"><ele>126.79999999999998</ele><time>2026-04-27T17:12:21.999Z</time></trkpt><trkpt lat="39.93407739680794" lon="19.978624319900057"><ele>124.2</ele><time>2026-04-27T17:12:22.999Z</time></trkpt><trkpt lat="39.93400341243134" lon="19.978683652690286"><ele>121.6</ele><time>2026-04-27T17:12:23.999Z</time></trkpt><trkpt lat="39.93391393070265" lon="19.97867613509615"><ele>119.0</ele><time>2026-04-27T17:12:24.999Z</time></trkpt><trkpt lat="39.93381997655981" lon="19.978683356934894"><ele>119.0</ele><time>2026-04-27T17:12:25.999Z</time></trkpt><trkpt lat="39.933716488127175" lon="19.9786186817124"><ele>119.0</ele><time>2026-04-27T17:12:26.999Z</time></trkpt><trkpt lat="39.93362797732576" lon="19.978531678518824"><ele>119.0</ele><time>2026-04-27T17:12:27.999Z</time></trkpt><trkpt lat="39.93355776573767" lon="19.978437101212087"><ele>119.0</ele><time>2026-04-27T17:12:28.999Z</time></trkpt><trkpt lat="39.93350660918079" lon="19.978342260806052"><ele>119.0</ele><time>2026-04-27T17:12:29.999Z</time></trkpt><trkpt lat="39.93345978879655" lon="19.978255254038856"><ele>120.2</ele><time>2026-04-27T17:12:30.999Z</time></trkpt><trkpt lat="39.933401026115185" lon="19.97819150086034"><ele>121.4</ele><time>2026-04-27T17:12:31.999Z</time></trkpt><trkpt lat="39.93332580792411" lon="19.978160187901782"><ele>122.6</ele><time>2026-04-27T17:12:32.999Z</time></trkpt><trkpt lat="39.933231511399995" lon="19.97816027215731"><ele>123.8</ele><time>2026-04-27T17:12:33.999Z</time></trkpt><trkpt lat="39.933115129738326" lon="19.978195727167236"><ele>125.0</ele><time>2026-04-27T17:12:34.999Z</time></trkpt><trkpt lat="39.932982390566316" lon="19.978277694209872"><ele>120.66666666666666</ele><time>2026-04-27T17:12:35.999Z</time></trkpt><trkpt lat="39.93281974641681" lon="19.978379818790337"><ele>116.33333333333334</ele><time>2026-04-27T17:12:36.999Z</time></trkpt><trkpt lat="39.932663271928966" lon="19.97849968508009"><ele>112.0</ele><time>2026-04-27T17:12:37.999Z</time></trkpt><trkpt lat="39.93253015324036" lon="19.978602800583477"><ele>110.75</ele><time>2026-04-27T17:12:38.999Z</time></trkpt><trkpt lat="39.93241451970156" lon="19.978693051723944"><ele>109.5</ele><time>2026-04-27T17:12:39.999Z</time></trkpt><trkpt lat="39.93230677078452" lon="19.97876356507684"><ele>108.25</ele><time>2026-04-27T17:12:40.999Z</time></trkpt><trkpt lat="39.93220131518504" lon="19.978818571384192"><ele>107.0</ele><time>2026-04-27T17:12:41.999Z</time></trkpt><trkpt lat="39.932085519967636" lon="19.978824581539357"><ele>107.0</ele><time>2026-04-27T17:12:42.999Z</time></trkpt><trkpt lat="39.93195665568897" lon="19.97876667626926"><ele>107.0</ele><time>2026-04-27T17:12:43.999Z</time></trkpt><trkpt lat="39.931782553748114" lon="19.978692389302818"><ele>107.0</ele><time>2026-04-27T17:12:44.999Z</time></trkpt><trkpt lat="39.9315556750576" lon="19.978595188882505"><ele>108.0</ele><time>2026-04-27T17:12:45.999Z</time></trkpt><trkpt lat="39.93130752605075" lon="19.978501828819457"><ele>109.0</ele><time>2026-04-27T17:12:46.999Z</time></trkpt><trkpt lat="39.93108039186315" lon="19.978416469627955"><ele>110.33333333333334</ele><time>2026-04-27T17:12:47.999Z</time></trkpt><trkpt lat="39.93089317047618" lon="19.97833875382651"><ele>111.66666666666666</ele><time>2026-04-27T17:12:48.999Z</time></trkpt><trkpt lat="39.93073245829615" lon="19.97829284497628"><ele>113.0</ele><time>2026-04-27T17:12:49.999Z</time></trkpt><trkpt lat="39.930579285271996" lon="19.978256829692175"><ele>113.0</ele><time>2026-04-27T17:12:50.999Z</time></trkpt><trkpt lat="39.93042807587541" lon="19.978261486361152"><ele>113.0</ele><time>2026-04-27T17:12:51.999Z</time></trkpt><trkpt lat="39.93029406928537" lon="19.97830840627423"><ele>113.0</ele><time>2026-04-27T17:12:52.999Z</time></trkpt><trkpt lat="39.93018065633372" lon="19.97840395776004"><ele>113.0</ele><time>2026-04-27T17:12:53.999Z</time></trkpt><trkpt lat="39.930080293357356" lon="19.978528908286563"><ele>107.66666666666666</ele><time>2026-04-27T17:12:54.999Z</time></trkpt><trkpt lat="39.93001743629032" lon="19.97871045858022"><ele>102.33333333333334</ele><time>2026-04-27T17:12:55.999Z</time></trkpt><trkpt lat="39.92998319242816" lon="19.978946287939674"><ele>97.0</ele><time>2026-04-27T17:12:56.999Z</time></trkpt><trkpt lat="39.929958177447624" lon="19.979222994147015"><ele>93.33333333333334</ele><time>2026-04-27T17:12:57.999Z</time></trkpt><trkpt lat="39.929910962846805" lon="19.97945743507186"><ele>89.66666666666667</ele><time>2026-04-27T17:12:58.999Z</time></trkpt><trkpt lat="39.929857543272405" lon="19.979681160287633"><ele>86.0</ele><time>2026-04-27T17:12:59.999Z</time></trkpt><trkpt lat="39.929788561282024" lon="19.979878859533507"><ele>81.33333333333334</ele><time>2026-04-27T17:13:00.999Z</time></trkpt><trkpt lat="39.92968352811342" lon="19.980037797329533"><ele>76.66666666666667</ele><time>2026-04-27T17:13:01.999Z</time></trkpt><trkpt lat="39.92954120400063" lon="19.980178771162628"><ele>72.0</ele><time>2026-04-27T17:13:02.999Z</time></trkpt><trkpt lat="39.92938229938852" lon="19.980340948909767"><ele>72.0</ele><time>2026-04-27T17:13:03.999Z</time></trkpt><trkpt lat="39.92925610329176" lon="19.98048548122282"><ele>72.0</ele><time>2026-04-27T17:13:04.999Z</time></trkpt><trkpt lat="39.92914563013491" lon="19.98059156697219"><ele>72.0</ele><time>2026-04-27T17:13:05.999Z</time></trkpt><trkpt lat="39.92903865662688" lon="19.980643697985144"><ele>72.0</ele><time>2026-04-27T17:13:06.999Z</time></trkpt><trkpt lat="39.92893473517014" lon="19.980668827750357"><ele>74.6</ele><time>2026-04-27T17:13:07.999Z</time></trkpt><trkpt lat="39.92883442070105" lon="19.980679521697727"><ele>77.2</ele><time>2026-04-27T17:13:08.999Z</time></trkpt><trkpt lat="39.92875272153663" lon="19.980599843204697"><ele>79.8</ele><time>2026-04-27T17:13:09.999Z</time></trkpt><trkpt lat="39.92870314178304" lon="19.980475794047404"><ele>82.4</ele><time>2026-04-27T17:13:10.999Z</time></trkpt><trkpt lat="39.9287531013582" lon="19.98031702626983"><ele>85.0</ele><time>2026-04-27T17:13:11.999Z</time></trkpt><trkpt lat="39.92879136516162" lon="19.980130339311724"><ele>86.25</ele><time>2026-04-27T17:13:12.999Z</time></trkpt><trkpt lat="39.92884781363569" lon="19.97991029619179"><ele>87.5</ele><time>2026-04-27T17:13:13.999Z</time></trkpt><trkpt lat="39.92889426514309" lon="19.979723842064587"><ele>88.75</ele><time>2026-04-27T17:13:15Z</time></trkpt><trkpt lat="39.928917735819475" lon="19.979587289415818"><ele>90.0</ele><time>2026-04-27T17:13:16Z</time></trkpt><trkpt lat="39.92889591690012" lon="19.979462859383798"><ele>90.0</ele><time>2026-04-27T17:13:17Z</time></trkpt><trkpt lat="39.928825227411515" lon="19.97933934875205"><ele>90.0</ele><time>2026-04-27T17:13:18Z</time></trkpt><trkpt lat="39.928724005161136" lon="19.979258680655008"><ele>90.0</ele><time>2026-04-27T17:13:19Z</time></trkpt><trkpt lat="39.92859977600665" lon="19.979234043504835"><ele>90.0</ele><time>2026-04-27T17:13:20Z</time></trkpt><trkpt lat="39.92846719193079" lon="19.97925437150506"><ele>85.66666666666667</ele><time>2026-04-27T17:13:21Z</time></trkpt><trkpt lat="39.92832378978907" lon="19.979321871199513"><ele>81.33333333333334</ele><time>2026-04-27T17:13:22Z</time></trkpt><trkpt lat="39.9281532351259" lon="19.97936333879548"><ele>77.0</ele><time>2026-04-27T17:13:23Z</time></trkpt><trkpt lat="39.92795779102813" lon="19.97942293047365"><ele>77.0</ele><time>2026-04-27T17:13:24Z</time></trkpt><trkpt lat="39.92774789348472" lon="19.97949920896719"><ele>77.0</ele><time>2026-04-27T17:13:25Z</time></trkpt><trkpt lat="39.92756582741135" lon="19.97955122328547"><ele>77.0</ele><time>2026-04-27T17:13:26Z</time></trkpt><trkpt lat="39.92742124376527" lon="19.979608085226822"><ele>75.75</ele><time>2026-04-27T17:13:27Z</time></trkpt><trkpt lat="39.92730841028346" lon="19.979684946958002"><ele>74.5</ele><time>2026-04-27T17:13:28Z</time></trkpt><trkpt lat="39.92721866212127" lon="19.979802698595645"><ele>73.25</ele><time>2026-04-27T17:13:29Z</time></trkpt><trkpt lat="39.927151380561384" lon="19.97998511502858"><ele>72.0</ele><time>2026-04-27T17:13:30Z</time></trkpt><trkpt lat="39.92708711243542" lon="19.980217957352377"><ele>71.0</ele><time>2026-04-27T17:13:31Z</time></trkpt><trkpt lat="39.92701090347182" lon="19.980491322439388"><ele>70.0</ele><time>2026-04-27T17:13:32Z</time></trkpt><trkpt lat="39.92694107309825" lon="19.980718525479435"><ele>69.0</ele><time>2026-04-27T17:13:33Z</time></trkpt><trkpt lat="39.92684544742609" lon="19.980861792777404"><ele>71.0</ele><time>2026-04-27T17:13:34Z</time></trkpt><trkpt lat="39.92672937384718" lon="19.980982061615055"><ele>73.0</ele><time>2026-04-27T17:13:35Z</time></trkpt><trkpt lat="39.92659740354322" lon="19.981120315172465"><ele>75.0</ele><time>2026-04-27T17:13:36Z</time></trkpt><trkpt lat="39.92644975074256" lon="19.98126136082583"><ele>77.0</ele><time>2026-04-27T17:13:37Z</time></trkpt><trkpt lat="39.92632254855038" lon="19.981444584590367"><ele>79.0</ele><time>2026-04-27T17:13:38Z</time></trkpt><trkpt lat="39.92622118637536" lon="19.981668185411962"><ele>81.0</ele><time>2026-04-27T17:13:39Z</time></trkpt><trkpt lat="39.92615032937958" lon="19.98186999351954"><ele>81.0</ele><time>2026-04-27T17:13:40Z</time></trkpt><trkpt lat="39.926077331049136" lon="19.982018690078068"><ele>81.0</ele><time>2026-04-27T17:13:41Z</time></trkpt><trkpt lat="39.925945940135264" lon="19.982119917329292"><ele>81.0</ele><time>2026-04-27T17:13:42Z</time></trkpt><trkpt lat="39.92577700605757" lon="19.98220723716194"><ele>84.66666666666667</ele><time>2026-04-27T17:13:43Z</time></trkpt><trkpt lat="39.925586087871665" lon="19.982270307835993"><ele>88.33333333333334</ele><time>2026-04-27T17:13:44Z</time></trkpt><trkpt lat="39.92542156381746" lon="19.982355870408586"><ele>92.0</ele><time>2026-04-27T17:13:45Z</time></trkpt><trkpt lat="39.925296745366865" lon="19.982454402769616"><ele>91.33333333333334</ele><time>2026-04-27T17:13:46Z</time></trkpt><trkpt lat="39.925195393613315" lon="19.98259517448584"><ele>90.66666666666667</ele><time>2026-04-27T17:13:47Z</time></trkpt><trkpt lat="39.92511452846581" lon="19.982773227235207"><ele>90.0</ele><time>2026-04-27T17:13:48Z</time></trkpt><trkpt lat="39.925055082069804" lon="19.98299445879872"><ele>91.0</ele><time>2026-04-27T17:13:48.999Z</time></trkpt><trkpt lat="39.92501373227721" lon="19.983229139900324"><ele>92.0</ele><time>2026-04-27T17:13:49.999Z</time></trkpt><trkpt lat="39.92494571360669" lon="19.98340575662652"><ele>93.0</ele><time>2026-04-27T17:13:50.999Z</time></trkpt><trkpt lat="39.924846124214575" lon="19.98353674811834"><ele>93.0</ele><time>2026-04-27T17:13:51.999Z</time></trkpt><trkpt lat="39.92470856903178" lon="19.983650956375108"><ele>93.0</ele><time>2026-04-27T17:13:52.999Z</time></trkpt><trkpt lat="39.92452917851102" lon="19.983755851239966"><ele>93.0</ele><time>2026-04-27T17:13:53.999Z</time></trkpt><trkpt lat="39.924345377627304" lon="19.983885001168062"><ele>94.66666666666666</ele><time>2026-04-27T17:13:54.999Z</time></trkpt><trkpt lat="39.92419379634729" lon="19.984088927977513"><ele>96.33333333333333</ele><time>2026-04-27T17:13:55.999Z</time></trkpt><trkpt lat="39.924076097991275" lon="19.984289303408442"><ele>98.0</ele><time>2026-04-27T17:13:56.999Z</time></trkpt><trkpt lat="39.923964032175796" lon="19.984438340989797"><ele>98.0</ele><time>2026-04-27T17:13:57.999Z</time></trkpt><trkpt lat="39.923837368733814" lon="19.984546671677794"><ele>98.0</ele><time>2026-04-27T17:13:58.999Z</time></trkpt><trkpt lat="39.92366855688522" lon="19.98462337670291"><ele>98.0</ele><time>2026-04-27T17:13:59.999Z</time></trkpt><trkpt lat="39.92346765133416" lon="19.98467998964598"><ele>97.33333333333333</ele><time>2026-04-27T17:14:00.999Z</time></trkpt><trkpt lat="39.9232997045763" lon="19.984774628036067"><ele>96.66666666666666</ele><time>2026-04-27T17:14:01.999Z</time></trkpt><trkpt lat="39.9231271180434" lon="19.984931485069087"><ele>96.0</ele><time>2026-04-27T17:14:02.999Z</time></trkpt><trkpt lat="39.92297233092918" lon="19.985176105733952"><ele>96.0</ele><time>2026-04-27T17:14:03.999Z</time></trkpt><trkpt lat="39.92278215468772" lon="19.98539052219666"><ele>96.0</ele><time>2026-04-27T17:14:04.999Z</time></trkpt><trkpt lat="39.9225642008964" lon="19.985565030701054"><ele>95.0</ele><time>2026-04-27T17:14:05.999Z</time></trkpt><trkpt lat="39.922330557158986" lon="19.98574811234264"><ele>94.0</ele><time>2026-04-27T17:14:06.999Z</time></trkpt><trkpt lat="39.92211755219174" lon="19.985888274968772"><ele>94.0</ele><time>2026-04-27T17:14:07.999Z</time></trkpt><trkpt lat="39.92193320750338" lon="19.986021450110652"><ele>94.0</ele><time>2026-04-27T17:14:08.999Z</time></trkpt><trkpt lat="39.92175657833988" lon="19.986204815550938"><ele>94.0</ele><time>2026-04-27T17:14:09.999Z</time></trkpt><trkpt lat="39.92158643286635" lon="19.98646219418287"><ele>95.5</ele><time>2026-04-27T17:14:10.999Z</time></trkpt><trkpt lat="39.921399175482264" lon="19.986706928997464"><ele>97.0</ele><time>2026-04-27T17:14:11.999Z</time></trkpt><trkpt lat="39.92122546419928" lon="19.98689853312602"><ele>97.0</ele><time>2026-04-27T17:14:12.999Z</time></trkpt><trkpt lat="39.92110023026365" lon="19.987124250686453"><ele>97.0</ele><time>2026-04-27T17:14:13.999Z</time></trkpt><trkpt lat="39.9209944991942" lon="19.987332791614232"><ele>97.0</ele><time>2026-04-27T17:14:14.999Z</time></trkpt><trkpt lat="39.92090397694327" lon="19.987526426397775"><ele>98.0</ele><time>2026-04-27T17:14:15.999Z</time></trkpt><trkpt lat="39.92080718530101" lon="19.987694934735902"><ele>99.0</ele><time>2026-04-27T17:14:16.999Z</time></trkpt><trkpt lat="39.92066291439879" lon="19.98779345529668"><ele>100.0</ele><time>2026-04-27T17:14:17.999Z</time></trkpt><trkpt lat="39.920508329195044" lon="19.98784386398862"><ele>100.0</ele><time>2026-04-27T17:14:18.999Z</time></trkpt><trkpt lat="39.92032140978361" lon="19.98790974374364"><ele>100.0</ele><time>2026-04-27T17:14:19.999Z</time></trkpt><trkpt lat="39.92012283956209" lon="19.987962928936994"><ele>100.0</ele><time>2026-04-27T17:14:20.999Z</time></trkpt><trkpt lat="39.91991209390272" lon="19.988063199162777"><ele>103.5</ele><time>2026-04-27T17:14:21.999Z</time></trkpt><trkpt lat="39.919743519471034" lon="19.988269282685586"><ele>107.0</ele><time>2026-04-27T17:14:22.999Z</time></trkpt><trkpt lat="39.919592924103654" lon="19.98847962155138"><ele>105.0</ele><time>2026-04-27T17:14:23.999Z</time></trkpt><trkpt lat="39.91941821920218" lon="19.988726089575856"><ele>103.0</ele><time>2026-04-27T17:14:24.999Z</time></trkpt><trkpt lat="39.91917653283614" lon="19.98892138362731"><ele>103.0</ele><time>2026-04-27T17:14:25.999Z</time></trkpt><trkpt lat="39.91896940325461" lon="19.989103357739072"><ele>103.0</ele><time>2026-04-27T17:14:26.999Z</time></trkpt><trkpt lat="39.91880135896514" lon="19.98926030374599"><ele>103.66666666666667</ele><time>2026-04-27T17:14:27.999Z</time></trkpt><trkpt lat="39.918633253513114" lon="19.98938429823232"><ele>104.33333333333334</ele><time>2026-04-27T17:14:28.999Z</time></trkpt><trkpt lat="39.9184879747779" lon="19.98952317850155"><ele>105.0</ele><time>2026-04-27T17:14:29.999Z</time></trkpt><trkpt lat="39.91836605461998" lon="19.98969888298941"><ele>105.0</ele><time>2026-04-27T17:14:30.999Z</time></trkpt><trkpt lat="39.918264031905764" lon="19.989912195728124"><ele>105.0</ele><time>2026-04-27T17:14:31.999Z</time></trkpt><trkpt lat="39.918180923240236" lon="19.99013264611393"><ele>105.0</ele><time>2026-04-27T17:14:32.999Z</time></trkpt><trkpt lat="39.918090073884116" lon="19.99032188980301"><ele>102.33333333333334</ele><time>2026-04-27T17:14:33.999Z</time></trkpt><trkpt lat="39.91792041048284" lon="19.990486122300144"><ele>99.66666666666667</ele><time>2026-04-27T17:14:34.999Z</time></trkpt><trkpt lat="39.91774567034639" lon="19.99068257263838"><ele>97.0</ele><time>2026-04-27T17:14:35.999Z</time></trkpt><trkpt lat="39.91759211450008" lon="19.99081767426663"><ele>95.33333333333334</ele><time>2026-04-27T17:14:36.999Z</time></trkpt><trkpt lat="39.917445049368574" lon="19.990895221768852"><ele>93.66666666666667</ele><time>2026-04-27T17:14:37.999Z</time></trkpt><trkpt lat="39.91726411585342" lon="19.990945323096525"><ele>92.0</ele><time>2026-04-27T17:14:38.999Z</time></trkpt><trkpt lat="39.91703856502717" lon="19.9909980805811"><ele>92.0</ele><time>2026-04-27T17:14:39.999Z</time></trkpt><trkpt lat="39.916824217052266" lon="19.991040232156802"><ele>92.0</ele><time>2026-04-27T17:14:40.999Z</time></trkpt><trkpt lat="39.916621754599845" lon="19.99112462062133"><ele>92.0</ele><time>2026-04-27T17:14:41.999Z</time></trkpt><trkpt lat="39.916418159722426" lon="19.991319184067727"><ele>94.0</ele><time>2026-04-27T17:14:42.999Z</time></trkpt><trkpt lat="39.916191276621255" lon="19.991544772254773"><ele>96.0</ele><time>2026-04-27T17:14:43.999Z</time></trkpt><trkpt lat="39.9159318843024" lon="19.99178661667717"><ele>95.5</ele><time>2026-04-27T17:14:44.999Z</time></trkpt><trkpt lat="39.91564651215976" lon="19.992029934467073"><ele>95.0</ele><time>2026-04-27T17:14:45.999Z</time></trkpt><trkpt lat="39.915331810422806" lon="19.99225768300837"><ele>93.5</ele><time>2026-04-27T17:14:46.999Z</time></trkpt><trkpt lat="39.91505279954005" lon="19.99249833814264"><ele>92.0</ele><time>2026-04-27T17:14:47.999Z</time></trkpt><trkpt lat="39.91484529518197" lon="19.992706976973523"><ele>92.0</ele><time>2026-04-27T17:14:48.999Z</time></trkpt><trkpt lat="39.91466323158599" lon="19.992900864366"><ele>92.0</ele><time>2026-04-27T17:14:49.999Z</time></trkpt><trkpt lat="39.91449256453054" lon="19.99310200996876"><ele>92.0</ele><time>2026-04-27T17:14:50.999Z</time></trkpt><trkpt lat="39.914312719477145" lon="19.99327887493152"><ele>92.0</ele><time>2026-04-27T17:14:51.999Z</time></trkpt><trkpt lat="39.91411632208534" lon="19.993453843503573"><ele>92.0</ele><time>2026-04-27T17:14:52.999Z</time></trkpt><trkpt lat="39.91389948625724" lon="19.993616397828667"><ele>92.0</ele><time>2026-04-27T17:14:53.999Z</time></trkpt><trkpt lat="39.91366735625487" lon="19.993715094432854"><ele>92.0</ele><time>2026-04-27T17:14:54.999Z</time></trkpt><trkpt lat="39.91344812168402" lon="19.993785899782495"><ele>92.0</ele><time>2026-04-27T17:14:55.999Z</time></trkpt><trkpt lat="39.91324630578501" lon="19.993859664656974"><ele>92.0</ele><time>2026-04-27T17:14:56.999Z</time></trkpt><trkpt lat="39.91304526579894" lon="19.99394769878477"><ele>95.5</ele><time>2026-04-27T17:14:57.999Z</time></trkpt><trkpt lat="39.912834769035975" lon="19.994112522437323"><ele>99.0</ele><time>2026-04-27T17:14:58.999Z</time></trkpt><trkpt lat="39.91262093854187" lon="19.99433047878241"><ele>97.5</ele><time>2026-04-27T17:14:59.999Z</time></trkpt><trkpt lat="39.91242099276054" lon="19.994565122918246"><ele>96.0</ele><time>2026-04-27T17:15:00.999Z</time></trkpt><trkpt lat="39.912253995501054" lon="19.994784358919194"><ele>96.0</ele><time>2026-04-27T17:15:01.999Z</time></trkpt><trkpt lat="39.912069090165936" lon="19.9949540476033"><ele>96.0</ele><time>2026-04-27T17:15:02.999Z</time></trkpt><trkpt lat="39.91185643678684" lon="19.995128697276247"><ele>95.5</ele><time>2026-04-27T17:15:03.999Z</time></trkpt><trkpt lat="39.91161826441724" lon="19.99528926764382"><ele>95.0</ele><time>2026-04-27T17:15:04.999Z</time></trkpt><trkpt lat="39.91139183369567" lon="19.99549427775633"><ele>95.0</ele><time>2026-04-27T17:15:05.999Z</time></trkpt><trkpt lat="39.91118345334266" lon="19.99571151018056"><ele>95.0</ele><time>2026-04-27T17:15:06.999Z</time></trkpt><trkpt lat="39.910974365365945" lon="19.99585723654516"><ele>93.33333333333334</ele><time>2026-04-27T17:15:07.999Z</time></trkpt><trkpt lat="39.91079523501389" lon="19.99602282879302"><ele>91.66666666666667</ele><time>2026-04-27T17:15:08.999Z</time></trkpt><trkpt lat="39.91062053777447" lon="19.996158261490283"><ele>90.0</ele><time>2026-04-27T17:15:09.999Z</time></trkpt><trkpt lat="39.91045607221483" lon="19.99629016830962"><ele>90.0</ele><time>2026-04-27T17:15:10.999Z</time></trkpt><trkpt lat="39.91030567834335" lon="19.996419394733802"><ele>90.0</ele><time>2026-04-27T17:15:11.999Z</time></trkpt><trkpt lat="39.910172002583266" lon="19.99657257500988"><ele>90.0</ele><time>2026-04-27T17:15:12.999Z</time></trkpt><trkpt lat="39.91007690121206" lon="19.9967659415101"><ele>91.33333333333333</ele><time>2026-04-27T17:15:13.999Z</time></trkpt><trkpt lat="39.9100126031544" lon="19.997001776327036"><ele>92.66666666666666</ele><time>2026-04-27T17:15:14.999Z</time></trkpt><trkpt lat="39.90995341192016" lon="19.997232050528325"><ele>94.0</ele><time>2026-04-27T17:15:15.999Z</time></trkpt><trkpt lat="39.909843674259434" lon="19.997394804207307"><ele>89.33333333333333</ele><time>2026-04-27T17:15:16.999Z</time></trkpt><trkpt lat="39.90969190718693" lon="19.997520926450694"><ele>84.66666666666667</ele><time>2026-04-27T17:15:17.999Z</time></trkpt><trkpt lat="39.909528365793435" lon="19.997586409194607"><ele>80.0</ele><time>2026-04-27T17:15:18.999Z</time></trkpt><trkpt lat="39.909353753849345" lon="19.997570950473165"><ele>83.33333333333334</ele><time>2026-04-27T17:15:19.999Z</time></trkpt><trkpt lat="39.90916194581853" lon="19.9975782486182"><ele>86.66666666666667</ele><time>2026-04-27T17:15:21Z</time></trkpt><trkpt lat="39.908988776922726" lon="19.997574711056117"><ele>90.0</ele><time>2026-04-27T17:15:22Z</time></trkpt><trkpt lat="39.90881779422325" lon="19.997619457781376"><ele>90.0</ele><time>2026-04-27T17:15:23Z</time></trkpt><trkpt lat="39.908678863923875" lon="19.997724862732717"><ele>90.0</ele><time>2026-04-27T17:15:24Z</time></trkpt><trkpt lat="39.90855098974387" lon="19.99789174559648"><ele>90.0</ele><time>2026-04-27T17:15:25Z</time></trkpt><trkpt lat="39.90842027649962" lon="19.998114919991284"><ele>91.0</ele><time>2026-04-27T17:15:26Z</time></trkpt><trkpt lat="39.90828081927187" lon="19.998284637947563"><ele>92.0</ele><time>2026-04-27T17:15:27Z</time></trkpt><trkpt lat="39.90813830452759" lon="19.998455153571673"><ele>93.0</ele><time>2026-04-27T17:15:28Z</time></trkpt><trkpt lat="39.90794944464093" lon="19.9986246384109"><ele>93.0</ele><time>2026-04-27T17:15:29Z</time></trkpt><trkpt lat="39.907711263687794" lon="19.998791289380982"><ele>93.0</ele><time>2026-04-27T17:15:30Z</time></trkpt><trkpt lat="39.907478200218875" lon="19.998976966331632"><ele>96.5</ele><time>2026-04-27T17:15:31Z</time></trkpt><trkpt lat="39.90726206244151" lon="19.99915599874062"><ele>100.0</ele><time>2026-04-27T17:15:32Z</time></trkpt><trkpt lat="39.90703567541257" lon="19.999294617197112"><ele>98.66666666666667</ele><time>2026-04-27T17:15:33Z</time></trkpt><trkpt lat="39.90682275466413" lon="19.999400952085125"><ele>97.33333333333334</ele><time>2026-04-27T17:15:34Z</time></trkpt><trkpt lat="39.90662731275545" lon="19.999500146202884"><ele>96.0</ele><time>2026-04-27T17:15:35Z</time></trkpt><trkpt lat="39.90647254450581" lon="19.99962173460046"><ele>96.0</ele><time>2026-04-27T17:15:36Z</time></trkpt><trkpt lat="39.90635692381523" lon="19.999784341405654"><ele>96.0</ele><time>2026-04-27T17:15:37Z</time></trkpt><trkpt lat="39.906274060476" lon="19.99998813219664"><ele>96.0</ele><time>2026-04-27T17:15:38Z</time></trkpt><trkpt lat="39.90620135778982" lon="20.00024781589283"><ele>96.0</ele><time>2026-04-27T17:15:39Z</time></trkpt><trkpt lat="39.90612713504772" lon="20.00053809123786"><ele>96.0</ele><time>2026-04-27T17:15:40Z</time></trkpt><trkpt lat="39.90605194700152" lon="20.000789118816332"><ele>96.0</ele><time>2026-04-27T17:15:41Z</time></trkpt><trkpt lat="39.905969040472186" lon="20.001009383581547"><ele>99.33333333333334</ele><time>2026-04-27T17:15:42Z</time></trkpt><trkpt lat="39.90585615242263" lon="20.001195013347484"><ele>102.66666666666667</ele><time>2026-04-27T17:15:43Z</time></trkpt><trkpt lat="39.9057153291839" lon="20.001342129194693"><ele>106.0</ele><time>2026-04-27T17:15:44Z</time></trkpt><trkpt lat="39.90551772192511" lon="20.001474704619458"><ele>106.0</ele><time>2026-04-27T17:15:45Z</time></trkpt><trkpt lat="39.905277038543666" lon="20.001653632032575"><ele>106.0</ele><time>2026-04-27T17:15:46Z</time></trkpt><trkpt lat="39.90506198380444" lon="20.00181365892721"><ele>105.0</ele><time>2026-04-27T17:15:47Z</time></trkpt><trkpt lat="39.904860091053216" lon="20.00191717988968"><ele>104.0</ele><time>2026-04-27T17:15:48Z</time></trkpt><trkpt lat="39.90465333558877" lon="20.002000261945977"><ele>103.0</ele><time>2026-04-27T17:15:49Z</time></trkpt><trkpt lat="39.9044482919902" lon="20.002111325499428"><ele>109.0</ele><time>2026-04-27T17:15:50Z</time></trkpt><trkpt lat="39.90423640501576" lon="20.002256554716404"><ele>115.0</ele><time>2026-04-27T17:15:51Z</time></trkpt><trkpt lat="39.90403061256961" lon="20.00246848844922"><ele>106.0</ele><time>2026-04-27T17:15:52Z</time></trkpt><trkpt lat="39.903803767033516" lon="20.002733841866895"><ele>97.0</ele><time>2026-04-27T17:15:53Z</time></trkpt><trkpt lat="39.90354634675805" lon="20.00300094407828"><ele>97.0</ele><time>2026-04-27T17:15:53.999Z</time></trkpt><trkpt lat="39.903274895944946" lon="20.00327241918604"><ele>97.0</ele><time>2026-04-27T17:15:54.999Z</time></trkpt><trkpt lat="39.90298767037295" lon="20.003564001936393"><ele>97.0</ele><time>2026-04-27T17:15:55.999Z</time></trkpt><trkpt lat="39.90269280514193" lon="20.003862411812886"><ele>97.0</ele><time>2026-04-27T17:15:56.999Z</time></trkpt><trkpt lat="39.90238874160967" lon="20.00416265003449"><ele>97.0</ele><time>2026-04-27T17:15:57.999Z</time></trkpt><trkpt lat="39.90212263206722" lon="20.004399303621337"><ele>97.0</ele><time>2026-04-27T17:15:58.999Z</time></trkpt><trkpt lat="39.90190875988843" lon="20.004606548179012"><ele>99.0</ele><time>2026-04-27T17:15:59.999Z</time></trkpt><trkpt lat="39.90169781562817" lon="20.00482216634774"><ele>101.0</ele><time>2026-04-27T17:16:00.999Z</time></trkpt><trkpt lat="39.90147998433314" lon="20.00507368835431"><ele>101.0</ele><time>2026-04-27T17:16:01.999Z</time></trkpt><trkpt lat="39.90125041589709" lon="20.005357709253268"><ele>101.0</ele><time>2026-04-27T17:16:02.999Z</time></trkpt><trkpt lat="39.90101486537748" lon="20.005647670226402"><ele>102.5</ele><time>2026-04-27T17:16:03.999Z</time></trkpt><trkpt lat="39.90079913835551" lon="20.005953253788952"><ele>104.0</ele><time>2026-04-27T17:16:04.999Z</time></trkpt><trkpt lat="39.90057934963643" lon="20.00622206180379"><ele>104.0</ele><time>2026-04-27T17:16:05.999Z</time></trkpt><trkpt lat="39.90036981718933" lon="20.006433595989943"><ele>104.0</ele><time>2026-04-27T17:16:06.999Z</time></trkpt><trkpt lat="39.90011710202105" lon="20.006655926457977"><ele>102.5</ele><time>2026-04-27T17:16:07.999Z</time></trkpt><trkpt lat="39.899846272712594" lon="20.006905187963714"><ele>101.0</ele><time>2026-04-27T17:16:08.999Z</time></trkpt><trkpt lat="39.8995636045438" lon="20.007191195730673"><ele>101.0</ele><time>2026-04-27T17:16:09.999Z</time></trkpt><trkpt lat="39.89928606965441" lon="20.00748430602383"><ele>101.0</ele><time>2026-04-27T17:16:10.999Z</time></trkpt><trkpt lat="39.89904652970322" lon="20.007731705961323"><ele>102.0</ele><time>2026-04-27T17:16:11.999Z</time></trkpt><trkpt lat="39.89882182726733" lon="20.007933912761676"><ele>103.0</ele><time>2026-04-27T17:16:12.999Z</time></trkpt><trkpt lat="39.89859950860606" lon="20.008124597433728"><ele>103.0</ele><time>2026-04-27T17:16:13.999Z</time></trkpt><trkpt lat="39.89837693122975" lon="20.008357092646797"><ele>103.0</ele><time>2026-04-27T17:16:14.999Z</time></trkpt><trkpt lat="39.898155560926675" lon="20.008613110357164"><ele>103.0</ele><time>2026-04-27T17:16:15.999Z</time></trkpt><trkpt lat="39.89793901404466" lon="20.0088568906471"><ele>103.0</ele><time>2026-04-27T17:16:16.999Z</time></trkpt><trkpt lat="39.897740843384646" lon="20.00907669886596"><ele>104.33333333333334</ele><time>2026-04-27T17:16:17.999Z</time></trkpt><trkpt lat="39.89756561104978" lon="20.00927732196498"><ele>105.66666666666666</ele><time>2026-04-27T17:16:18.999Z</time></trkpt><trkpt lat="39.89741753667811" lon="20.009467306824813"><ele>107.0</ele><time>2026-04-27T17:16:19.999Z</time></trkpt><trkpt lat="39.89728656189062" lon="20.009644761686527"><ele>107.0</ele><time>2026-04-27T17:16:20.999Z</time></trkpt><trkpt lat="39.89716536457017" lon="20.009798407075838"><ele>107.0</ele><time>2026-04-27T17:16:21.999Z</time></trkpt><trkpt lat="39.89706371790716" lon="20.00992738459702"><ele>107.0</ele><time>2026-04-27T17:16:22.999Z</time></trkpt><trkpt lat="39.89696937751999" lon="20.010054375431174"><ele>107.0</ele><time>2026-04-27T17:16:23.999Z</time></trkpt><trkpt lat="39.89686274969242" lon="20.01016595418385"><ele>108.33333333333333</ele><time>2026-04-27T17:16:24.999Z</time></trkpt><trkpt lat="39.89673173379622" lon="20.010256589543236"><ele>109.66666666666666</ele><time>2026-04-27T17:16:25.999Z</time></trkpt><trkpt lat="39.896579425608934" lon="20.010316725236862"><ele>111.0</ele><time>2026-04-27T17:16:26.999Z</time></trkpt><trkpt lat="39.89642739391552" lon="20.010363340039248"><ele>111.0</ele><time>2026-04-27T17:16:27.999Z</time></trkpt><trkpt lat="39.89629862185614" lon="20.010413631605797"><ele>111.0</ele><time>2026-04-27T17:16:28.999Z</time></trkpt><trkpt lat="39.896181107868465" lon="20.010489437732854"><ele>111.0</ele><time>2026-04-27T17:16:29.999Z</time></trkpt><trkpt lat="39.896068141581154" lon="20.010597010112367"><ele>111.0</ele><time>2026-04-27T17:16:30.999Z</time></trkpt><trkpt lat="39.89595600819921" lon="20.010721191881593"><ele>109.66666666666666</ele><time>2026-04-27T17:16:31.999Z</time></trkpt><trkpt lat="39.89583515629745" lon="20.010872084565456"><ele>108.33333333333333</ele><time>2026-04-27T17:16:32.999Z</time></trkpt><trkpt lat="39.89569832810489" lon="20.011051678809014"><ele>107.0</ele><time>2026-04-27T17:16:33.999Z</time></trkpt><trkpt lat="39.895546945082394" lon="20.011242706050744"><ele>107.0</ele><time>2026-04-27T17:16:34.999Z</time></trkpt><trkpt lat="39.8953746329724" lon="20.011421293556715"><ele>107.0</ele><time>2026-04-27T17:16:35.999Z</time></trkpt><trkpt lat="39.89519337095738" lon="20.011557179212346"><ele>107.0</ele><time>2026-04-27T17:16:36.999Z</time></trkpt><trkpt lat="39.895020489771454" lon="20.011656138941397"><ele>105.0</ele><time>2026-04-27T17:16:37.999Z</time></trkpt><trkpt lat="39.89486353522629" lon="20.011753931711894"><ele>103.0</ele><time>2026-04-27T17:16:38.999Z</time></trkpt><trkpt lat="39.89471151971773" lon="20.01187956706039"><ele>101.0</ele><time>2026-04-27T17:16:39.999Z</time></trkpt><trkpt lat="39.89458262934042" lon="20.012023985323456"><ele>101.0</ele><time>2026-04-27T17:16:40.999Z</time></trkpt><trkpt lat="39.89447476631674" lon="20.01215769684909"><ele>101.0</ele><time>2026-04-27T17:16:41.999Z</time></trkpt><trkpt lat="39.89436103799166" lon="20.012252528871475"><ele>101.0</ele><time>2026-04-27T17:16:42.999Z</time></trkpt><trkpt lat="39.89422604485749" lon="20.01230014945557"><ele>101.0</ele><time>2026-04-27T17:16:43.999Z</time></trkpt><trkpt lat="39.89407235192431" lon="20.012313412409444"><ele>105.0</ele><time>2026-04-27T17:16:44.999Z</time></trkpt><trkpt lat="39.89390873658823" lon="20.012313619104564"><ele>109.0</ele><time>2026-04-27T17:16:45.999Z</time></trkpt><trkpt lat="39.893736990102504" lon="20.012328847355928"><ele>113.0</ele><time>2026-04-27T17:16:46.999Z</time></trkpt><trkpt lat="39.893553648143595" lon="20.012370473262642"><ele>110.0</ele><time>2026-04-27T17:16:47.999Z</time></trkpt><trkpt lat="39.89336627458234" lon="20.01242741188319"><ele>107.0</ele><time>2026-04-27T17:16:48.999Z</time></trkpt><trkpt lat="39.89318212422385" lon="20.01247842178983"><ele>104.0</ele><time>2026-04-27T17:16:49.999Z</time></trkpt><trkpt lat="39.89301926664967" lon="20.012524021049103"><ele>104.0</ele><time>2026-04-27T17:16:50.999Z</time></trkpt><trkpt lat="39.89285416255649" lon="20.012596001339716"><ele>104.0</ele><time>2026-04-27T17:16:51.999Z</time></trkpt><trkpt lat="39.892688885433294" lon="20.01270507598148"><ele>104.0</ele><time>2026-04-27T17:16:52.999Z</time></trkpt><trkpt lat="39.892531962901685" lon="20.012846184080118"><ele>101.33333333333333</ele><time>2026-04-27T17:16:53.999Z</time></trkpt><trkpt lat="39.89238321498964" lon="20.013009857507907"><ele>98.66666666666666</ele><time>2026-04-27T17:16:54.999Z</time></trkpt><trkpt lat="39.89224106115093" lon="20.013188251223458"><ele>96.0</ele><time>2026-04-27T17:16:55.999Z</time></trkpt><trkpt lat="39.89212006187267" lon="20.013372860852073"><ele>96.0</ele><time>2026-04-27T17:16:56.999Z</time></trkpt><trkpt lat="39.89202416545055" lon="20.01355903491811"><ele>96.0</ele><time>2026-04-27T17:16:57.999Z</time></trkpt><trkpt lat="39.89194397860684" lon="20.01374051669134"><ele>96.0</ele><time>2026-04-27T17:16:58.999Z</time></trkpt><trkpt lat="39.89186018360997" lon="20.01389929721925"><ele>97.0</ele><time>2026-04-27T17:16:59.999Z</time></trkpt><trkpt lat="39.891753623987626" lon="20.014042583371214"><ele>98.0</ele><time>2026-04-27T17:17:00.999Z</time></trkpt><trkpt lat="39.89161265946083" lon="20.014162889590107"><ele>99.0</ele><time>2026-04-27T17:17:01.999Z</time></trkpt><trkpt lat="39.89145274157855" lon="20.014272804209142"><ele>99.0</ele><time>2026-04-27T17:17:02.999Z</time></trkpt><trkpt lat="39.89127082324613" lon="20.014382848806342"><ele>99.0</ele><time>2026-04-27T17:17:03.999Z</time></trkpt><trkpt lat="39.89108084009843" lon="20.014505447468455"><ele>99.0</ele><time>2026-04-27T17:17:04.999Z</time></trkpt><trkpt lat="39.890880916798736" lon="20.01464075554069"><ele>98.0</ele><time>2026-04-27T17:17:05.999Z</time></trkpt><trkpt lat="39.89070570155204" lon="20.01477259649796"><ele>97.0</ele><time>2026-04-27T17:17:06.999Z</time></trkpt><trkpt lat="39.89055719431223" lon="20.01492444383564"><ele>96.0</ele><time>2026-04-27T17:17:07.999Z</time></trkpt><trkpt lat="39.89043260016257" lon="20.015120650857327"><ele>96.0</ele><time>2026-04-27T17:17:08.999Z</time></trkpt><trkpt lat="39.89030284263231" lon="20.01533340575116"><ele>96.0</ele><time>2026-04-27T17:17:09.999Z</time></trkpt><trkpt lat="39.89016094919889" lon="20.015526597215814"><ele>96.0</ele><time>2026-04-27T17:17:10.999Z</time></trkpt><trkpt lat="39.89001232962848" lon="20.015685703945714"><ele>95.66666666666667</ele><time>2026-04-27T17:17:11.999Z</time></trkpt><trkpt lat="39.88985492253785" lon="20.015835357942375"><ele>95.33333333333334</ele><time>2026-04-27T17:17:12.999Z</time></trkpt><trkpt lat="39.88970387884988" lon="20.01597794918832"><ele>95.0</ele><time>2026-04-27T17:17:13.999Z</time></trkpt><trkpt lat="39.889565742343976" lon="20.01610994590061"><ele>95.0</ele><time>2026-04-27T17:17:14.999Z</time></trkpt><trkpt lat="39.88943068989888" lon="20.01623291368819"><ele>95.0</ele><time>2026-04-27T17:17:15.999Z</time></trkpt><trkpt lat="39.889293816363384" lon="20.0163370087603"><ele>95.0</ele><time>2026-04-27T17:17:16.999Z</time></trkpt><trkpt lat="39.88913845397592" lon="20.016422049753718"><ele>94.33333333333334</ele><time>2026-04-27T17:17:17.999Z</time></trkpt><trkpt lat="39.888970057787" lon="20.016489001315968"><ele>93.66666666666667</ele><time>2026-04-27T17:17:18.999Z</time></trkpt><trkpt lat="39.888802253265226" lon="20.016572670353735"><ele>93.0</ele><time>2026-04-27T17:17:19.999Z</time></trkpt><trkpt lat="39.888657588974404" lon="20.01669235860153"><ele>93.0</ele><time>2026-04-27T17:17:20.999Z</time></trkpt><trkpt lat="39.88854133186556" lon="20.016834893442315"><ele>93.0</ele><time>2026-04-27T17:17:21.999Z</time></trkpt><trkpt lat="39.888433746126104" lon="20.016994176834316"><ele>93.0</ele><time>2026-04-27T17:17:22.999Z</time></trkpt><trkpt lat="39.88832781156557" lon="20.017159152116612"><ele>94.0</ele><time>2026-04-27T17:17:23.999Z</time></trkpt><trkpt lat="39.88822577368499" lon="20.01730789876623"><ele>95.0</ele><time>2026-04-27T17:17:24.999Z</time></trkpt><trkpt lat="39.88811343615898" lon="20.01743377753359"><ele>96.0</ele><time>2026-04-27T17:17:25.999Z</time></trkpt><trkpt lat="39.887982002380646" lon="20.017536562126445"><ele>96.0</ele><time>2026-04-27T17:17:27Z</time></trkpt><trkpt lat="39.88782995592293" lon="20.017616605614997"><ele>96.0</ele><time>2026-04-27T17:17:28Z</time></trkpt><trkpt lat="39.88766399652764" lon="20.017682331145984"><ele>96.0</ele><time>2026-04-27T17:17:29Z</time></trkpt><trkpt lat="39.8874863762275" lon="20.01774188666202"><ele>99.0</ele><time>2026-04-27T17:17:30Z</time></trkpt><trkpt lat="39.88730357118911" lon="20.01779252292746"><ele>102.0</ele><time>2026-04-27T17:17:31Z</time></trkpt><trkpt lat="39.88711751704748" lon="20.01784243555777"><ele>105.0</ele><time>2026-04-27T17:17:32Z</time></trkpt><trkpt lat="39.88692926199074" lon="20.017890086803135"><ele>107.33333333333334</ele><time>2026-04-27T17:17:33Z</time></trkpt><trkpt lat="39.88673829686892" lon="20.017941464140407"><ele>109.66666666666667</ele><time>2026-04-27T17:17:34Z</time></trkpt><trkpt lat="39.88654666225291" lon="20.018017711486003"><ele>112.0</ele><time>2026-04-27T17:17:35Z</time></trkpt><trkpt lat="39.886358301581105" lon="20.01813203344852"><ele>112.0</ele><time>2026-04-27T17:17:36Z</time></trkpt><trkpt lat="39.88616739242572" lon="20.018269299472482"><ele>112.0</ele><time>2026-04-27T17:17:37Z</time></trkpt><trkpt lat="39.88596829783434" lon="20.018399813886983"><ele>112.0</ele><time>2026-04-27T17:17:38Z</time></trkpt><trkpt lat="39.88577611112106" lon="20.018513232328328"><ele>107.33333333333334</ele><time>2026-04-27T17:17:39Z</time></trkpt><trkpt lat="39.88559362427019" lon="20.01863793219885"><ele>102.66666666666666</ele><time>2026-04-27T17:17:40Z</time></trkpt><trkpt lat="39.88542533337472" lon="20.018773654395343"><ele>98.0</ele><time>2026-04-27T17:17:41Z</time></trkpt><trkpt lat="39.88524875958364" lon="20.018908332778473"><ele>96.0</ele><time>2026-04-27T17:17:42Z</time></trkpt><trkpt lat="39.885052798235925" lon="20.01902087934304"><ele>94.0</ele><time>2026-04-27T17:17:43Z</time></trkpt><trkpt lat="39.8848530503914" lon="20.019102475743885"><ele>92.0</ele><time>2026-04-27T17:17:44Z</time></trkpt><trkpt lat="39.88466991047424" lon="20.019167754718"><ele>92.0</ele><time>2026-04-27T17:17:45Z</time></trkpt><trkpt lat="39.884504724997335" lon="20.019241866488123"><ele>92.0</ele><time>2026-04-27T17:17:46Z</time></trkpt><trkpt lat="39.88435131340363" lon="20.01931812962781"><ele>92.0</ele><time>2026-04-27T17:17:47Z</time></trkpt><trkpt lat="39.88421365759628" lon="20.019410900012232"><ele>96.0</ele><time>2026-04-27T17:17:48Z</time></trkpt><trkpt lat="39.88409198681737" lon="20.01954348525086"><ele>100.0</ele><time>2026-04-27T17:17:49Z</time></trkpt><trkpt lat="39.88399288886453" lon="20.019702849821034"><ele>104.0</ele><time>2026-04-27T17:17:50Z</time></trkpt><trkpt lat="39.88390997970545" lon="20.019874696905784"><ele>96.33333333333333</ele><time>2026-04-27T17:17:51Z</time></trkpt><trkpt lat="39.88381941558141" lon="20.020032388028177"><ele>88.66666666666666</ele><time>2026-04-27T17:17:52Z</time></trkpt><trkpt lat="39.88371036838685" lon="20.02016570402097"><ele>81.0</ele><time>2026-04-27T17:17:53Z</time></trkpt><trkpt lat="39.88357224546234" lon="20.020270757129307"><ele>87.33333333333334</ele><time>2026-04-27T17:17:54Z</time></trkpt><trkpt lat="39.88342234897911" lon="20.020350960282265"><ele>93.66666666666667</ele><time>2026-04-27T17:17:55Z</time></trkpt><trkpt lat="39.88327752545033" lon="20.020462550242243"><ele>100.0</ele><time>2026-04-27T17:17:56Z</time></trkpt><trkpt lat="39.883150061330916" lon="20.02061620740663"><ele>100.0</ele><time>2026-04-27T17:17:57Z</time></trkpt><trkpt lat="39.88304240295953" lon="20.02079218845038"><ele>100.0</ele><time>2026-04-27T17:17:57.999Z</time></trkpt><trkpt lat="39.88294864718896" lon="20.020952943154985"><ele>100.0</ele><time>2026-04-27T17:17:58.999Z</time></trkpt><trkpt lat="39.88285579787054" lon="20.02108444030403"><ele>99.5</ele><time>2026-04-27T17:17:59.999Z</time></trkpt><trkpt lat="39.88274569820293" lon="20.021181422539627"><ele>99.0</ele><time>2026-04-27T17:18:00.999Z</time></trkpt><trkpt lat="39.88260620732081" lon="20.02124384201452"><ele>98.5</ele><time>2026-04-27T17:18:01.999Z</time></trkpt><trkpt lat="39.882445950226895" lon="20.02126968804101"><ele>98.0</ele><time>2026-04-27T17:18:02.999Z</time></trkpt><trkpt lat="39.88227711363649" lon="20.021275086544616"><ele>98.0</ele><time>2026-04-27T17:18:03.999Z</time></trkpt><trkpt lat="39.88210292305325" lon="20.021296197514243"><ele>98.0</ele><time>2026-04-27T17:18:04.999Z</time></trkpt><trkpt lat="39.88193416182705" lon="20.0213590471858"><ele>98.0</ele><time>2026-04-27T17:18:05.999Z</time></trkpt><trkpt lat="39.881773307881794" lon="20.02147445285082"><ele>102.66666666666666</ele><time>2026-04-27T17:18:06.999Z</time></trkpt><trkpt lat="39.88162059994766" lon="20.021617689568256"><ele>107.33333333333334</ele><time>2026-04-27T17:18:07.999Z</time></trkpt><trkpt lat="39.88146375665693" lon="20.021767550726818"><ele>112.0</ele><time>2026-04-27T17:18:08.999Z</time></trkpt><trkpt lat="39.88129352024449" lon="20.02191063595368"><ele>109.0</ele><time>2026-04-27T17:18:09.999Z</time></trkpt><trkpt lat="39.88111412715367" lon="20.02204844349573"><ele>106.0</ele><time>2026-04-27T17:18:10.999Z</time></trkpt><trkpt lat="39.880927607860386" lon="20.022184001067"><ele>103.0</ele><time>2026-04-27T17:18:11.999Z</time></trkpt><trkpt lat="39.8807410916654" lon="20.022329570726107"><ele>95.0</ele><time>2026-04-27T17:18:12.999Z</time></trkpt><trkpt lat="39.880556048556954" lon="20.02249157475299"><ele>87.0</ele><time>2026-04-27T17:18:13.999Z</time></trkpt><trkpt lat="39.88037388366037" lon="20.02266542578484"><ele>79.0</ele><time>2026-04-27T17:18:14.999Z</time></trkpt><trkpt lat="39.8801736009954" lon="20.02283200155089"><ele>90.5</ele><time>2026-04-27T17:18:15.999Z</time></trkpt><trkpt lat="39.87997508116791" lon="20.023008324274894"><ele>102.0</ele><time>2026-04-27T17:18:16.999Z</time></trkpt><trkpt lat="39.87978652235913" lon="20.023172956766327"><ele>100.0</ele><time>2026-04-27T17:18:17.999Z</time></trkpt><trkpt lat="39.879608024782236" lon="20.023327317770356"><ele>98.0</ele><time>2026-04-27T17:18:18.999Z</time></trkpt><trkpt lat="39.87941855348045" lon="20.023439045904393"><ele>96.0</ele><time>2026-04-27T17:18:19.999Z</time></trkpt><trkpt lat="39.87924465371019" lon="20.023561207890825"><ele>96.0</ele><time>2026-04-27T17:18:20.999Z</time></trkpt><trkpt lat="39.87907556272313" lon="20.02367931791173"><ele>96.0</ele><time>2026-04-27T17:18:21.999Z</time></trkpt><trkpt lat="39.87890698146149" lon="20.023798845389"><ele>96.0</ele><time>2026-04-27T17:18:22.999Z</time></trkpt><trkpt lat="39.878744151879005" lon="20.023913415257507"><ele>96.0</ele><time>2026-04-27T17:18:23.999Z</time></trkpt><trkpt lat="39.87858474752422" lon="20.0240249275846"><ele>96.0</ele><time>2026-04-27T17:18:24.999Z</time></trkpt><trkpt lat="39.8784282783404" lon="20.02413545897291"><ele>96.0</ele><time>2026-04-27T17:18:25.999Z</time></trkpt><trkpt lat="39.87828197842813" lon="20.02423837900088"><ele>97.66666666666666</ele><time>2026-04-27T17:18:26.999Z</time></trkpt><trkpt lat="39.87813729078147" lon="20.024340143873918"><ele>99.33333333333333</ele><time>2026-04-27T17:18:27.999Z</time></trkpt><trkpt lat="39.878000657308206" lon="20.024436449810036"><ele>101.0</ele><time>2026-04-27T17:18:28.999Z</time></trkpt><trkpt lat="39.87787166651958" lon="20.02452745639936"><ele>101.0</ele><time>2026-04-27T17:18:29.999Z</time></trkpt><trkpt lat="39.87775955875253" lon="20.02460605139969"><ele>101.0</ele><time>2026-04-27T17:18:30.999Z</time></trkpt><trkpt lat="39.87765608829873" lon="20.02468539867926"><ele>101.0</ele><time>2026-04-27T17:18:31.999Z</time></trkpt><trkpt lat="39.87755219210484" lon="20.02479636578884"><ele>101.0</ele><time>2026-04-27T17:18:32.999Z</time></trkpt><trkpt lat="39.87745947383849" lon="20.024917538321738"><ele>102.0</ele><time>2026-04-27T17:18:33.999Z</time></trkpt><trkpt lat="39.87736886402308" lon="20.025046276632015"><ele>103.0</ele><time>2026-04-27T17:18:34.999Z</time></trkpt><trkpt lat="39.87728087273284" lon="20.02519177591747"><ele>104.0</ele><time>2026-04-27T17:18:35.999Z</time></trkpt><trkpt lat="39.87718701547459" lon="20.02534362267027"><ele>105.0</ele><time>2026-04-27T17:18:36.999Z</time></trkpt><trkpt lat="39.877120699475405" lon="20.025500316143372"><ele>105.0</ele><time>2026-04-27T17:18:37.999Z</time></trkpt><trkpt lat="39.87703204695848" lon="20.02564239197976"><ele>105.0</ele><time>2026-04-27T17:18:38.999Z</time></trkpt><trkpt lat="39.87694562529134" lon="20.02577777848584"><ele>105.0</ele><time>2026-04-27T17:18:39.999Z</time></trkpt><trkpt lat="39.87685978868117" lon="20.02590149839674"><ele>105.0</ele><time>2026-04-27T17:18:40.999Z</time></trkpt><trkpt lat="39.8767674007925" lon="20.026022327558284"><ele>103.33333333333334</ele><time>2026-04-27T17:18:41.999Z</time></trkpt><trkpt lat="39.87665449404072" lon="20.026145548754695"><ele>101.66666666666667</ele><time>2026-04-27T17:18:42.999Z</time></trkpt><trkpt lat="39.87653040418688" lon="20.02626240657205"><ele>100.0</ele><time>2026-04-27T17:18:43.999Z</time></trkpt><trkpt lat="39.87639483749095" lon="20.026382634826874"><ele>100.0</ele><time>2026-04-27T17:18:44.999Z</time></trkpt><trkpt lat="39.87626259970965" lon="20.026497188653483"><ele>100.0</ele><time>2026-04-27T17:18:45.999Z</time></trkpt><trkpt lat="39.87614206007258" lon="20.02660976910256"><ele>100.0</ele><time>2026-04-27T17:18:46.999Z</time></trkpt><trkpt lat="39.87602616521148" lon="20.026715848267756"><ele>100.0</ele><time>2026-04-27T17:18:47.999Z</time></trkpt><trkpt lat="39.875913591451564" lon="20.026810064964835"><ele>99.2</ele><time>2026-04-27T17:18:48.999Z</time></trkpt><trkpt lat="39.875810381326154" lon="20.026880871284334"><ele>98.4</ele><time>2026-04-27T17:18:49.999Z</time></trkpt><trkpt lat="39.87570994153228" lon="20.02693257038423"><ele>97.6</ele><time>2026-04-27T17:18:50.999Z</time></trkpt><trkpt lat="39.87561111313537" lon="20.02696481101985"><ele>96.8</ele><time>2026-04-27T17:18:51.999Z</time></trkpt><trkpt lat="39.87549685762228" lon="20.02697397772257"><ele>96.0</ele><time>2026-04-27T17:18:52.999Z</time></trkpt><trkpt lat="39.87536446656893" lon="20.026981812534203"><ele>96.0</ele><time>2026-04-27T17:18:53.999Z</time></trkpt><trkpt lat="39.87523438377173" lon="20.027003109899564"><ele>96.0</ele><time>2026-04-27T17:18:54.999Z</time></trkpt><trkpt lat="39.875121870467424" lon="20.027030282594772"><ele>96.0</ele><time>2026-04-27T17:18:55.999Z</time></trkpt><trkpt lat="39.87503042283822" lon="20.027063082166045"><ele>96.0</ele><time>2026-04-27T17:18:56.999Z</time></trkpt><trkpt lat="39.874990715154134" lon="20.026984824274795"><ele>96.0</ele><time>2026-04-27T17:18:57.999Z</time></trkpt><trkpt lat="39.87490065577033" lon="20.026986444353515"><ele>96.83333333333333</ele><time>2026-04-27T17:19:00.999Z</time></trkpt><trkpt lat="39.874824970256014" lon="20.02698945125804"><ele>97.66666666666666</ele><time>2026-04-27T17:19:01.999Z</time></trkpt><trkpt lat="39.874756458597105" lon="20.026993192000045"><ele>98.5</ele><time>2026-04-27T17:19:02.999Z</time></trkpt><trkpt lat="39.874673560484375" lon="20.027012564360476"><ele>99.33333333333333</ele><time>2026-04-27T17:19:03.999Z</time></trkpt><trkpt lat="39.874610580846415" lon="20.02703926603231"><ele>100.16666666666666</ele><time>2026-04-27T17:19:04.999Z</time></trkpt><trkpt lat="39.874512452264476" lon="20.02710452585051"><ele>101.0</ele><time>2026-04-27T17:19:06.999Z</time></trkpt><trkpt lat="39.8744355682243" lon="20.027148995270917"><ele>100.99999999999999</ele><time>2026-04-27T17:19:08.999Z</time></trkpt><trkpt lat="39.87437659190378" lon="20.027222637409814"><ele>101.0</ele><time>2026-04-27T17:19:10.999Z</time></trkpt><trkpt lat="39.87429611435988" lon="20.027295239331597"><ele>101.0</ele><time>2026-04-27T17:19:12.999Z</time></trkpt><trkpt lat="39.8742192162905" lon="20.027356241005172"><ele>101.0</ele><time>2026-04-27T17:19:14.999Z</time></trkpt><trkpt lat="39.87416532574499" lon="20.0274181776827"><ele>100.99999999999999</ele><time>2026-04-27T17:19:16.999Z</time></trkpt><trkpt lat="39.87411193445221" lon="20.027474043111468"><ele>101.0</ele><time>2026-04-27T17:19:20.999Z</time></trkpt><trkpt lat="39.8742025390621" lon="20.02741906447881"><ele>100.99999999999999</ele><time>2026-04-27T17:19:27.999Z</time></trkpt><trkpt lat="39.87429343445634" lon="20.02741120701464"><ele>101.0</ele><time>2026-04-27T17:19:28.999Z</time></trkpt><trkpt lat="39.87435199167203" lon="20.027346814588956"><ele>101.0</ele><time>2026-04-27T17:19:29.999Z</time></trkpt><trkpt lat="39.874430237338586" lon="20.027275363004527"><ele>101.0</ele><time>2026-04-27T17:19:30.999Z</time></trkpt><trkpt lat="39.87452032184182" lon="20.02720624529275"><ele>100.99999999999999</ele><time>2026-04-27T17:19:31.999Z</time></trkpt><trkpt lat="39.87459280395651" lon="20.02715810869621"><ele>101.0</ele><time>2026-04-27T17:19:33Z</time></trkpt><trkpt lat="39.87465246819417" lon="20.02711324613784"><ele>101.0</ele><time>2026-04-27T17:19:34Z</time></trkpt><trkpt lat="39.874766416398614" lon="20.02709509877814"><ele>101.0</ele><time>2026-04-27T17:19:36Z</time></trkpt><trkpt lat="39.8748269409404" lon="20.027133744327166"><ele>101.0</ele><time>2026-04-27T17:19:37Z</time></trkpt><trkpt lat="39.87488088401256" lon="20.027193844935038"><ele>101.0</ele><time>2026-04-27T17:19:38Z</time></trkpt></trkseg></trk></gpx>